Provisional Data: Portage Creek near Emporium, PA


Please select a monitoring station.
Please select start date.
Please select start date.

Toggle Unit: C/F Toggle Unit: C/F
Sample Time Temperature (C) Temperature (F) Specific Conductivity (mS/cm) pH   Turbidity (NTU+) DO (mg/L)
5/17/2022 12:00:00 AM 13.02 55.436 0.063 7.13 2.63 9.86
5/17/2022 12:15:00 AM 12.93 55.274 0.063 7.13 2.57 9.88
5/17/2022 12:30:00 AM 12.86 55.148 0.063 7.13 2.64 9.9
5/17/2022 12:45:00 AM 12.77 54.986 0.062 7.13 2.58 9.92
5/17/2022 1:00:00 AM 12.69 54.842 0.062 7.13 2.54 9.94
5/17/2022 1:15:00 AM 12.62 54.716 0.062 7.12 2.47 9.95
5/17/2022 1:30:00 AM 12.57 54.626 0.062 7.12 2.5 9.97
5/17/2022 1:45:00 AM 12.52 54.536 0.062 7.13 2.45 9.99
5/17/2022 2:00:00 AM 12.45 54.41 0.062 7.13 2.69 10
5/17/2022 2:15:00 AM 12.38 54.284 0.062 7.12 2.46 10.02
5/17/2022 2:30:00 AM 12.31 54.158 0.062 7.13 2.42 10.04
5/17/2022 2:45:00 AM 12.25 54.05 0.062 7.12 2.41 10.06
5/17/2022 3:00:00 AM 12.19 53.942 0.062 7.12 2.37 10.08
5/17/2022 3:15:00 AM 12.15 53.87 0.062 7.12 2.43 10.1
5/17/2022 3:30:00 AM 12.12 53.816 0.062 7.12 2.36 10.1
5/17/2022 3:45:00 AM 12.09 53.762 0.062 7.12 2.45 10.11
5/17/2022 4:00:00 AM 12.06 53.708 0.062 7.12 2.42 10.11
5/17/2022 4:15:00 AM 12.02 53.636 0.062 7.12 2.51 10.13
5/17/2022 4:30:00 AM 11.98 53.564 0.062 7.12 2.46 10.14
5/17/2022 4:45:00 AM 11.94 53.492 0.062 7.12 2.44 10.15
5/17/2022 5:00:00 AM 11.9 53.42 0.062 7.12 2.5 10.17
5/17/2022 5:15:00 AM 11.84 53.312 0.062 7.12 2.52 10.18
5/17/2022 5:30:00 AM 11.79 53.222 0.062 7.12 2.35 10.2
5/17/2022 5:45:00 AM 11.74 53.132 0.062 7.12 2.52 10.21
5/17/2022 6:00:00 AM 11.69 53.042 0.062 7.12 2.39 10.23
5/17/2022 6:15:00 AM 11.65 52.97 0.063 7.13 2.29 10.27
5/17/2022 6:30:00 AM 11.6 52.88 0.063 7.14 2.25 10.34
5/17/2022 6:45:00 AM 11.56 52.808 0.063 7.16 2.38 10.42
5/17/2022 7:00:00 AM 11.53 52.754 0.062 7.19 2.25 10.52
5/17/2022 7:15:00 AM 11.51 52.718 0.062 7.22 2.23 10.64
5/17/2022 7:30:00 AM 11.48 52.664 0.062 7.26 2.21 10.73
5/17/2022 7:45:00 AM 11.47 52.646 0.062 7.29 2.28 10.82
5/17/2022 8:00:00 AM 11.46 52.628 0.062 7.33 2.15 10.93
5/17/2022 8:15:00 AM 11.47 52.646 0.062 7.38 2.17 11.01
5/17/2022 8:30:00 AM 11.5 52.7 0.061 7.43 2.14 11.08
5/17/2022 8:45:00 AM 11.53 52.754 0.061 7.49 2.12 11.16
5/17/2022 9:00:00 AM 11.61 52.898 0.061 7.54 2.01 11.23
5/17/2022 9:15:00 AM 11.68 53.024 0.061 7.6 2.05 11.26
5/17/2022 9:30:00 AM 11.75 53.15 0.061 7.65 2.17 11.27
5/17/2022 9:45:00 AM 11.87 53.366 0.061 7.68 2.03 11.26
5/17/2022 10:00:00 AM 12.03 53.654 0.061 7.71 2.03 11.22
5/17/2022 10:15:00 AM 12.23 54.014 0.061 7.74 2.02 11.23
5/17/2022 10:30:00 AM 12.46 54.428 0.061 7.77 2.04 11.18
5/17/2022 10:45:00 AM 12.7 54.86 0.061 7.8 2.09 11.14
5/17/2022 11:00:00 AM 12.99 55.382 0.061 7.84 2.11 11.1
5/17/2022 11:15:00 AM 13.28 55.904 0.061 7.88 2 11.04
5/17/2022 11:30:00 AM 13.61 56.498 0.061 7.93 2 11.01
5/17/2022 11:45:00 AM 13.94 57.092 0.061 7.97 2.04 10.94
5/17/2022 12:00:00 PM 14.26 57.668 0.061 8.01 1.99 10.9
5/17/2022 12:15:00 PM 14.56 58.208 0.061 8.04 2.14 10.83
5/17/2022 12:30:00 PM 14.8 58.64 0.061 8.07 1.98 10.8
5/17/2022 12:45:00 PM 15.05 59.09 0.061 8.09 2.06 10.75
5/17/2022 1:00:00 PM 15.29 59.522 0.061 8.12 1.96 10.71
5/17/2022 1:15:00 PM 15.53 59.954 0.061 8.12 2.42 10.67
5/17/2022 1:30:00 PM 15.77 60.386 0.061 8.16 1.96 10.61
5/17/2022 1:45:00 PM 16.1 60.98 0.061 8.2 1.98 10.57
5/17/2022 2:00:00 PM 16.38 61.484 0.061 8.24 2.11 10.51
5/17/2022 2:15:00 PM 16.67 62.006 0.061 8.28 2.01 10.46
5/17/2022 2:30:00 PM 16.98 62.564 0.061 8.33 1.98 10.42
5/17/2022 2:45:00 PM 17.2 62.96 0.061 8.35 1.97 10.35
5/17/2022 3:00:00 PM 17.41 63.338 0.061 8.37 1.95 10.3
5/17/2022 3:15:00 PM 17.57 63.626 0.061 8.4 1.98 10.23
5/17/2022 3:30:00 PM 17.7 63.86 0.061 8.4 2.03 10.15
5/17/2022 3:45:00 PM 17.78 64.004 0.061 8.4 2.02 10.11
5/17/2022 4:00:00 PM 17.76 63.968 0.061 8.4 1.94 10.08
5/17/2022 4:15:00 PM 17.64 63.752 0.061 8.34 2.16 10.04
5/17/2022 4:30:00 PM 17.67 63.806 0.061 8.36 2.07 10.04
5/17/2022 4:45:00 PM 17.67 63.806 0.061 8.36 2.06 10.03
5/17/2022 5:00:00 PM 17.63 63.734 0.061 8.31 1.99 9.97
5/17/2022 5:15:00 PM 17.6 63.68 0.061 8.24 1.94 9.92
5/17/2022 5:30:00 PM 17.46 63.428 0.061 8.11 2.05 9.85
5/17/2022 5:45:00 PM 17.31 63.158 0.061 7.95 1.93 9.78
5/17/2022 6:00:00 PM 17.21 62.978 0.061 7.88 1.94 9.74
5/17/2022 6:15:00 PM 17.08 62.744 0.061 7.79 1.98 9.7
5/17/2022 6:30:00 PM 16.99 62.582 0.061 7.7 1.97 9.65
5/17/2022 6:45:00 PM 16.87 62.366 0.062 7.62 2.05 9.6
5/17/2022 7:00:00 PM 16.74 62.132 0.064 7.55 2.03 9.55
5/17/2022 7:15:00 PM 16.6 61.88 0.065 7.5 1.97 9.52
5/17/2022 7:30:00 PM 16.44 61.592 0.065 7.46 2.05 9.49
5/17/2022 7:45:00 PM 16.29 61.322 0.064 7.42 2.03 9.48
5/17/2022 8:00:00 PM 16.11 60.998 0.063 7.39 2.08 9.48
5/17/2022 8:15:00 PM 15.92 60.656 0.063 7.36 2.05 9.45
5/17/2022 8:30:00 PM 15.72 60.296 0.063 7.32 2.12 9.43
5/17/2022 8:45:00 PM 15.53 59.954 0.063 7.28 2.13 9.41
5/17/2022 9:00:00 PM 15.33 59.594 0.063 7.26 2.18 9.41
5/17/2022 9:15:00 PM 15.15 59.27 0.063 7.24 2.18 9.41
5/17/2022 9:30:00 PM 14.96 58.928 0.063 7.22 2.19 9.45
5/17/2022 9:45:00 PM 14.78 58.604 0.064 7.21 2.28 9.47
5/17/2022 10:00:00 PM 14.62 58.316 0.064 7.2 2.24 9.5
5/17/2022 10:15:00 PM 14.45 58.01 0.064 7.19 2.36 9.52
5/17/2022 10:30:00 PM 14.28 57.704 0.064 7.18 2.32 9.57
5/17/2022 10:45:00 PM 14.11 57.398 0.064 7.18 2.33 9.61
5/17/2022 11:00:00 PM 13.94 57.092 0.064 7.18 2.34 9.64
5/17/2022 11:15:00 PM 13.78 56.804 0.064 7.17 2.34 9.68
5/17/2022 11:30:00 PM 13.62 56.516 0.064 7.17 2.28 9.73
5/17/2022 11:45:00 PM 13.46 56.228 0.064 7.16 2.24 9.77
5/18/2022 12:00:00 AM 13.31 55.958 0.064 7.16 2.32 9.8
5/18/2022 12:15:00 AM 13.16 55.688 0.064 7.16 2.21 9.83
5/18/2022 12:30:00 AM 13.01 55.418 0.064 7.16 2.27 9.88
5/18/2022 12:45:00 AM 12.87 55.166 0.064 7.15 2.33 9.92
5/18/2022 1:00:00 AM 12.74 54.932 0.064 7.15 2.32 9.95
5/18/2022 1:15:00 AM 12.6 54.68 0.064 7.15 2.23 9.97
5/18/2022 1:30:00 AM 12.48 54.464 0.064 7.15 2.21 10.01
5/18/2022 1:45:00 AM 12.35 54.23 0.064 7.15 2.24 10.05
5/18/2022 2:00:00 AM 12.23 54.014 0.064 7.15 2.27 10.09
5/18/2022 2:15:00 AM 12.11 53.798 0.064 7.14 2.23 10.11
5/18/2022 2:30:00 AM 11.99 53.582 0.064 7.14 2.26 10.13
5/18/2022 2:45:00 AM 11.87 53.366 0.065 7.14 2.18 10.17
5/18/2022 3:00:00 AM 11.76 53.168 0.065 7.14 2.25 10.21
5/18/2022 3:15:00 AM 11.64 52.952 0.065 7.14 2.16 10.24
5/18/2022 3:30:00 AM 11.53 52.754 0.064 7.13 2.24 10.27
5/18/2022 3:45:00 AM 11.42 52.556 0.064 7.14 2.13 10.3
5/18/2022 4:00:00 AM 11.31 52.358 0.064 7.13 2.12 10.32
5/18/2022 4:15:00 AM 11.2 52.16 0.064 7.13 2.14 10.35
5/18/2022 4:30:00 AM 11.1 51.98 0.064 7.13 2.15 10.38
5/18/2022 4:45:00 AM 11.01 51.818 0.064 7.13 2.14 10.42
5/18/2022 5:00:00 AM 10.92 51.656 0.064 7.13 2.45 10.44
5/18/2022 5:15:00 AM 10.84 51.512 0.064 7.13 2.16 10.47
5/18/2022 5:30:00 AM 10.75 51.35 0.064 7.13 2.16 10.49
5/18/2022 5:45:00 AM 10.67 51.206 0.064 7.13 2.11 10.51
5/18/2022 6:00:00 AM 10.58 51.044 0.064 7.13 2.05 10.56
5/18/2022 6:15:00 AM 10.51 50.918 0.064 7.14 2.01 10.62
5/18/2022 6:30:00 AM 10.44 50.792 0.064 7.16 2 10.71
5/18/2022 6:45:00 AM 10.39 50.702 0.064 7.19 2.01 10.82
5/18/2022 7:00:00 AM 10.35 50.63 0.064 7.22 1.98 10.93
5/18/2022 7:15:00 AM 10.34 50.612 0.064 7.26 1.92 11.06
5/18/2022 7:30:00 AM 10.34 50.612 0.064 7.31 1.87 11.21
5/18/2022 7:45:00 AM 10.34 50.612 0.063 7.37 1.88 11.33
5/18/2022 8:00:00 AM 10.33 50.594 0.063 7.41 1.88 11.4
5/18/2022 8:15:00 AM 10.31 50.558 0.063 7.45 1.88 11.47
5/18/2022 8:30:00 AM 10.31 50.558 0.063 7.49 1.88 11.52
5/18/2022 8:45:00 AM 10.34 50.612 0.063 7.53 1.82 11.56
5/18/2022 9:00:00 AM 10.39 50.702 0.063 7.57 1.75 11.6
5/18/2022 9:15:00 AM 10.47 50.846 0.063 7.61 1.82 11.62
5/18/2022 9:30:00 AM 10.57 51.026 0.063 7.64 2.22 11.62
5/18/2022 9:45:00 AM 10.68 51.224 0.063 7.68 1.77 11.62
5/18/2022 10:00:00 AM 10.81 51.458 0.063 7.73 1.74 11.63
5/18/2022 10:15:00 AM 10.99 51.782 0.062 7.77 1.83 11.63
5/18/2022 10:30:00 AM 11.2 52.16 0.062 7.82 1.82 11.61
5/18/2022 10:45:00 AM 11.44 52.592 0.062 7.87 1.74 11.59
5/18/2022 11:00:00 AM 11.7 53.06 0.062 7.93 1.87 11.55
5/18/2022 11:15:00 AM 12.01 53.618 0.062 7.97 1.76 11.49
5/18/2022 11:30:00 AM 12.34 54.212 0.062 8.02 1.75 11.45
5/18/2022 11:45:00 AM 12.69 54.842 0.062 8.07 1.8 11.39
5/18/2022 12:00:00 PM 13.07 55.526 0.063 8.12 1.8 11.34
5/18/2022 12:15:00 PM 13.4 56.12 0.062 8.17 1.87 11.27
5/18/2022 12:30:00 PM 13.58 56.444 0.062 8.22 1.89 11.23
5/18/2022 12:45:00 PM 13.72 56.696 0.062 8.28 1.82 11.18
5/18/2022 1:00:00 PM 13.84 56.912 0.062 8.34 1.81 11.15
5/18/2022 1:15:00 PM 13.97 57.146 0.062 8.39 1.85 11.14
5/18/2022 1:30:00 PM 14.04 57.272 0.062 8.42 1.9 11.11
5/18/2022 1:45:00 PM 14.15 57.47 0.062 8.46 1.84 11.1
5/18/2022 2:00:00 PM 14.28 57.704 0.062 8.49 1.9 11.06
5/18/2022 2:15:00 PM 14.36 57.848 0.062 8.52 1.84 11.02
5/18/2022 2:30:00 PM 14.53 58.154 0.063 8.55 1.87 10.98
5/18/2022 2:45:00 PM 14.57 58.226 0.064 8.56 1.89 10.94
5/18/2022 3:00:00 PM 14.54 58.172 0.063 8.54 1.95 10.86
5/18/2022 3:15:00 PM 14.51 58.118 0.063 8.49 1.84 10.79
5/18/2022 3:30:00 PM 14.53 58.154 0.063 8.45 1.88 10.73
5/18/2022 3:45:00 PM 14.54 58.172 0.062 8.39 1.88 10.67
5/18/2022 4:00:00 PM 14.56 58.208 0.062 8.27 1.85 10.56
5/18/2022 4:15:00 PM 14.57 58.226 0.062 8.05 1.78 10.4
5/18/2022 4:30:00 PM 14.56 58.208 0.062 7.85 1.84 10.26
5/18/2022 4:45:00 PM 14.52 58.136 0.062 7.71 1.82 10.16
5/18/2022 5:00:00 PM 14.49 58.082 0.063 7.63 1.88 10.12
5/18/2022 5:15:00 PM 14.47 58.046 0.063 7.66 1.85 10.21
5/18/2022 5:30:00 PM 14.44 57.992 0.063 7.68 1.78 10.25
5/18/2022 5:45:00 PM 14.39 57.902 0.063 7.62 1.93 10.21
5/18/2022 6:00:00 PM 14.33 57.794 0.063 7.58 1.91 10.18
5/18/2022 6:15:00 PM 14.27 57.686 0.063 7.51 1.85 10.11
5/18/2022 6:30:00 PM 14.22 57.596 0.064 7.47 1.84 10.05
5/18/2022 6:45:00 PM 14.18 57.524 0.064 7.44 1.85 10.03
5/18/2022 7:00:00 PM 14.12 57.416 0.064 7.41 1.83 9.99
5/18/2022 7:15:00 PM 14.06 57.308 0.064 7.37 1.89 9.93
5/18/2022 7:30:00 PM 13.99 57.182 0.064 7.34 1.85 9.87
5/18/2022 7:45:00 PM 13.92 57.056 0.064 7.31 1.9 9.83
5/18/2022 8:00:00 PM 13.84 56.912 0.064 7.29 1.85 9.8
5/18/2022 8:15:00 PM 13.76 56.768 0.064 7.27 1.91 9.78
5/18/2022 8:30:00 PM 13.67 56.606 0.065 7.25 2 9.76
5/18/2022 8:45:00 PM 13.59 56.462 0.065 7.24 1.96 9.74
5/18/2022 9:00:00 PM 13.51 56.318 0.065 7.22 2 9.75
5/18/2022 9:15:00 PM 13.42 56.156 0.065 7.21 2.06 9.77
5/18/2022 9:30:00 PM 13.34 56.012 0.065 7.2 2.08 9.77
5/18/2022 9:45:00 PM 13.26 55.868 0.065 7.19 2.12 9.77
5/18/2022 10:00:00 PM 13.18 55.724 0.065 7.19 2.22 9.79
5/18/2022 10:15:00 PM 13.11 55.598 0.065 7.17 2.23 9.8
5/18/2022 10:30:00 PM 13.04 55.472 0.065 7.17 2.21 9.83
5/18/2022 10:45:00 PM 12.97 55.346 0.065 7.16 2.22 9.84
5/18/2022 11:00:00 PM 12.9 55.22 0.065 7.16 2.23 9.86
5/18/2022 11:15:00 PM 12.84 55.112 0.065 7.16 2.29 9.87
5/18/2022 11:30:00 PM 12.78 55.004 0.064 7.15 2.26 9.88
5/18/2022 11:45:00 PM 12.73 54.914 0.064 7.14 2.44 9.89
5/19/2022 12:00:00 AM 12.68 54.824 0.064 7.14 2.57 9.9
5/19/2022 12:15:00 AM 12.62 54.716 0.064 7.15 2.57 9.91
5/19/2022 12:30:00 AM 12.57 54.626 0.064 7.13 2.67 9.92
5/19/2022 12:45:00 AM 12.52 54.536 0.064 7.13 2.7 9.93
5/19/2022 1:00:00 AM 12.48 54.464 0.064 7.13 2.73 9.94
5/19/2022 1:15:00 AM 12.43 54.374 0.064 7.12 2.74 9.96
5/19/2022 1:30:00 AM 12.39 54.302 0.064 7.13 2.68 9.97
5/19/2022 1:45:00 AM 12.34 54.212 0.064 7.13 2.58 9.99
5/19/2022 2:00:00 AM 12.3 54.14 0.064 7.13 2.68 10
5/19/2022 2:15:00 AM 12.26 54.068 0.064 7.12 2.73 10.01
5/19/2022 2:30:00 AM 12.22 53.996 0.064 7.13 2.71 10.03
5/19/2022 2:45:00 AM 12.18 53.924 0.064 7.12 2.81 10.04
5/19/2022 3:00:00 AM 12.15 53.87 0.064 7.12 2.93 10.05
5/19/2022 3:15:00 AM 12.12 53.816 0.064 7.12 3.02 10.06
5/19/2022 3:30:00 AM 12.09 53.762 0.064 7.12 2.93 10.06
5/19/2022 3:45:00 AM 12.06 53.708 0.064 7.13 2.88 10.06
5/19/2022 4:00:00 AM 12.03 53.654 0.064 7.12 2.78 10.07
5/19/2022 4:15:00 AM 12 53.6 0.064 7.14 2.64 10.07
5/19/2022 4:30:00 AM 11.98 53.564 0.064 7.12 2.55 10.08
5/19/2022 4:45:00 AM 11.95 53.51 0.064 7.12 2.48 10.09
5/19/2022 5:00:00 AM 11.93 53.474 0.064 7.12 2.54 10.1
5/19/2022 5:15:00 AM 11.9 53.42 0.064 7.12 2.4 10.11
5/19/2022 5:30:00 AM 11.88 53.384 0.064 7.13 2.37 10.12
5/19/2022 5:45:00 AM 11.86 53.348 0.064 7.12 2.36 10.12
5/19/2022 6:00:00 AM 11.83 53.294 0.064 7.12 2.33 10.14
5/19/2022 6:15:00 AM 11.81 53.258 0.064 7.13 2.35 10.15
5/19/2022 6:30:00 AM 11.79 53.222 0.064 7.13 2.28 10.17
5/19/2022 6:45:00 AM 11.77 53.186 0.064 7.14 2.28 10.21
5/19/2022 7:00:00 AM 11.76 53.168 0.064 7.15 2.22 10.26
5/19/2022 7:15:00 AM 11.75 53.15 0.064 7.17 2.2 10.31
5/19/2022 7:30:00 AM 11.74 53.132 0.064 7.18 2.13 10.37
5/19/2022 7:45:00 AM 11.73 53.114 0.064 7.2 2.14 10.39
5/19/2022 8:00:00 AM 11.72 53.096 0.064 7.2 2.18 10.42
5/19/2022 8:15:00 AM 11.73 53.114 0.064 7.23 2.16 10.5
5/19/2022 8:30:00 AM 11.73 53.114 0.064 7.25 2.15 10.58
5/19/2022 8:45:00 AM 11.76 53.168 0.064 7.29 2.06 10.71
5/19/2022 9:00:00 AM 11.78 53.204 0.064 7.33 2.12 10.77
5/19/2022 9:15:00 AM 11.8 53.24 0.064 7.36 2.08 10.8
5/19/2022 9:30:00 AM 11.81 53.258 0.064 7.37 2.09 10.79
5/19/2022 9:45:00 AM 11.83 53.294 0.065 7.39 2.1 10.8
5/19/2022 10:00:00 AM 11.87 53.366 0.065 7.43 2.05 10.9
5/19/2022 10:15:00 AM 11.91 53.438 0.066 7.47 2.09 10.92
5/19/2022 10:30:00 AM 11.94 53.492 0.065 7.49 2.03 10.93
5/19/2022 10:45:00 AM 11.99 53.582 0.064 7.54 2.21 10.99
5/19/2022 11:00:00 AM 12.04 53.672 0.064 7.59 2.05 11.04
5/19/2022 11:15:00 AM 12.09 53.762 0.063 7.61 2.1 11.04
5/19/2022 11:30:00 AM 12.15 53.87 0.063 7.67 2.03 11.09
5/19/2022 11:45:00 AM 12.23 54.014 0.063 7.75 2.05 11.13
5/19/2022 12:00:00 PM 12.4 54.32 0.063 7.84 2.08 11.19
5/19/2022 12:15:00 PM 12.57 54.626 0.063 7.95 2.07 11.2
5/19/2022 12:30:00 PM 12.78 55.004 0.063 8.02 2.02 11.21
5/19/2022 12:45:00 PM 12.96 55.328 0.063 8.11 2.09 11.21
5/19/2022 1:00:00 PM 13.13 55.634 0.063 8.18 2.05 11.16
5/19/2022 1:15:00 PM 13.44 56.192 0.063 8.25 2.02 11.13
5/19/2022 1:30:00 PM 13.8 56.84 0.063 8.3 2.06 11.08
5/19/2022 1:45:00 PM 14.03 57.254 0.063 8.28 2.03 10.97
5/19/2022 2:00:00 PM 14.19 57.542 0.063 8.27 2 10.9
5/19/2022 2:15:00 PM 14.61 58.298 0.063 8.36 2.07 10.88
5/19/2022 2:30:00 PM 15.07 59.126 0.063 8.41 2.1 10.84
5/19/2022 2:45:00 PM 15.46 59.828 0.063 8.44 1.99 10.77
5/19/2022 3:00:00 PM 15.81 60.458 0.063 8.48 2 10.67
5/19/2022 3:15:00 PM 16.27 61.286 0.063 8.56 2 10.62
5/19/2022 3:30:00 PM 16.68 62.024 0.063 8.62 2.1 10.52
5/19/2022 3:45:00 PM 17.03 62.654 0.063 8.63 2.06 10.41
5/19/2022 4:00:00 PM 17.27 63.086 0.063 8.64 2.03 10.34
5/19/2022 4:15:00 PM 17.46 63.428 0.063 8.66 2.07 10.26
5/19/2022 4:30:00 PM 17.59 63.662 0.063 8.65 2.03 10.18
5/19/2022 4:45:00 PM 17.66 63.788 0.063 8.63 2.08 10.11
5/19/2022 5:00:00 PM 17.67 63.806 0.063 8.6 2 10.05
5/19/2022 5:15:00 PM 17.67 63.806 0.063 8.56 2.08 10
5/19/2022 5:30:00 PM 17.62 63.716 0.063 8.46 2.05 9.94
5/19/2022 5:45:00 PM 17.53 63.554 0.063 8.34 2.07 9.87
5/19/2022 6:00:00 PM 17.41 63.338 0.063 8.19 2.08 9.8
5/19/2022 6:15:00 PM 17.36 63.248 0.063 8.1 2.02 9.77
5/19/2022 6:30:00 PM 17.31 63.158 0.064 7.97 2.02 9.7
5/19/2022 6:45:00 PM 17.26 63.068 0.064 7.85 2.03 9.62
5/19/2022 7:00:00 PM 17.19 62.942 0.064 7.73 2.04 9.54
5/19/2022 7:15:00 PM 17.12 62.816 0.064 7.66 2.05 9.52
5/19/2022 7:30:00 PM 17.04 62.672 0.064 7.59 2.08 9.48
5/19/2022 7:45:00 PM 16.94 62.492 0.064 7.54 2.11 9.46
5/19/2022 8:00:00 PM 16.83 62.294 0.064 7.48 2.07 9.42
5/19/2022 8:15:00 PM 16.7 62.06 0.065 7.42 2.16 9.35
5/19/2022 8:30:00 PM 16.55 61.79 0.065 7.35 2.1 9.26
5/19/2022 8:45:00 PM 16.4 61.52 0.065 7.32 2.17 9.2
5/19/2022 9:00:00 PM 16.25 61.25 0.065 7.28 2.27 9.17
5/19/2022 9:15:00 PM 16.1 60.98 0.066 7.25 14.53 9.17
5/19/2022 9:30:00 PM 15.96 60.728 0.066 7.22 2.25 9.18
5/19/2022 9:45:00 PM 15.81 60.458 0.066 7.21 2.32 9.18
5/19/2022 10:00:00 PM 15.65 60.17 0.066 7.2 2.22 9.21
5/19/2022 10:15:00 PM 15.49 59.882 0.066 7.2 2.26 9.24
5/19/2022 10:30:00 PM 15.32 59.576 0.066 7.19 2.27 9.27
5/19/2022 10:45:00 PM 15.18 59.324 0.066 7.17 2.26 9.29
5/19/2022 11:00:00 PM 15.04 59.072 0.066 7.17 2.25 9.33
5/19/2022 11:15:00 PM 14.91 58.838 0.066 7.17 2.22 9.36
5/19/2022 11:30:00 PM 14.78 58.604 0.066 7.16 2.32 9.39
5/19/2022 11:45:00 PM 14.66 58.388 0.067 7.16 2.29 9.42
5/20/2022 12:00:00 AM 14.55 58.19 0.067 7.15 2.27 9.43
5/20/2022 12:15:00 AM 14.44 57.992 0.067 7.15 2.23 9.46
5/20/2022 12:30:00 AM 14.34 57.812 0.067 7.15 2.17 9.5
5/20/2022 12:45:00 AM 14.23 57.614 0.067 7.14 2.3 9.53
5/20/2022 1:00:00 AM 14.13 57.434 0.067 7.15 2.31 9.56
5/20/2022 1:15:00 AM 14.03 57.254 0.067 7.14 2.43 9.58
5/20/2022 1:30:00 AM 13.93 57.074 0.067 7.15 2.28 9.6
5/20/2022 1:45:00 AM 13.84 56.912 0.067 7.13 2.28 9.62
5/20/2022 2:00:00 AM 13.75 56.75 0.067 7.13 5.44 9.64
5/20/2022 2:15:00 AM 13.65 56.57 0.067 7.13 2.33 9.67
5/20/2022 2:30:00 AM 13.56 56.408 0.067 7.14 2.29 9.69
5/20/2022 2:45:00 AM 13.48 56.264 0.067 7.14 2.23 9.71
5/20/2022 3:00:00 AM 13.39 56.102 0.067 7.14 2.32 9.73
5/20/2022 3:15:00 AM 13.31 55.958 0.066 7.13 2.29 9.74
5/20/2022 3:30:00 AM 13.22 55.796 0.067 7.14 2.22 9.76
5/20/2022 3:45:00 AM 13.13 55.634 0.067 7.13 2.2 9.79
5/20/2022 4:00:00 AM 13.04 55.472 0.067 7.11 2.22 9.82
5/20/2022 4:15:00 AM 12.95 55.31 0.067 7.12 2.26 9.84
5/20/2022 4:30:00 AM 12.87 55.166 0.067 7.13 2.27 9.86
5/20/2022 4:45:00 AM 12.79 55.022 0.067 7.12 2.22 9.89
5/20/2022 5:00:00 AM 12.73 54.914 0.067 7.14 2.15 9.9
5/20/2022 5:15:00 AM 12.66 54.788 0.067 7.12 2.18 9.91
5/20/2022 5:30:00 AM 12.58 54.644 0.067 7.12 2.23 9.93
5/20/2022 5:45:00 AM 12.52 54.536 0.067 7.13 2.11 9.96
5/20/2022 6:00:00 AM 12.46 54.428 0.067 7.13 2.12 9.99
5/20/2022 6:15:00 AM 12.42 54.356 0.067 7.11 2.06 10.02
5/20/2022 6:30:00 AM 12.36 54.248 0.067 7.15 2.08 10.09
5/20/2022 6:45:00 AM 12.33 54.194 0.067 7.17 2.07 10.21
5/20/2022 7:00:00 AM 12.31 54.158 0.067 7.2 2.05 10.29
5/20/2022 7:15:00 AM 12.29 54.122 0.067 7.22 2 10.37
5/20/2022 7:30:00 AM 12.28 54.104 0.066 7.25 1.98 10.47
5/20/2022 7:45:00 AM 12.29 54.122 0.066 7.3 1.94 10.64
5/20/2022 8:00:00 AM 12.31 54.158 0.066 7.38 1.94 10.79
5/20/2022 8:15:00 AM 12.35 54.23 0.066 7.45 2.02 10.91
5/20/2022 8:30:00 AM 12.41 54.338 0.066 7.53 2 11
5/20/2022 8:45:00 AM 12.47 54.446 0.065 7.58 1.91 11.05
5/20/2022 9:00:00 AM 12.53 54.554 0.065 7.64 1.98 11.09
5/20/2022 9:15:00 AM 12.57 54.626 0.065 7.67 1.95 11.06
5/20/2022 9:30:00 AM 12.63 54.734 0.065 7.72 1.94 11.09
5/20/2022 9:45:00 AM 12.72 54.896 0.065 7.81 1.9 11.14
5/20/2022 10:00:00 AM 12.81 55.058 0.065 7.88 2.03 11.16
5/20/2022 10:15:00 AM 12.91 55.238 0.065 7.93 1.95 11.16
5/20/2022 10:30:00 AM 13.05 55.49 0.065 8 1.93 11.17
5/20/2022 10:45:00 AM 13.27 55.886 0.064 8.11 2.02 11.17
5/20/2022 11:00:00 AM 13.48 56.264 0.064 8.23 1.9 11.19
5/20/2022 11:15:00 AM 13.69 56.642 0.064 8.33 1.97 11.16
5/20/2022 11:30:00 AM 14 57.2 0.064 8.41 1.99 11.13
5/20/2022 11:45:00 AM 14.29 57.722 0.064 8.48 2.03 11.1
5/20/2022 12:00:00 PM 14.6 58.28 0.064 8.54 2.01 11.04
5/20/2022 12:15:00 PM 14.87 58.766 0.064 8.59 2.02 11
5/20/2022 12:30:00 PM 15.25 59.45 0.064 8.67 2.03 10.94
5/20/2022 12:45:00 PM 15.49 59.882 0.064 8.69 2 10.86
5/20/2022 1:00:00 PM 15.81 60.458 0.064 8.72 1.96 10.78
5/20/2022 1:15:00 PM 15.91 60.638 0.064 8.7 2.06 10.66
5/20/2022 1:30:00 PM 15.96 60.728 0.064 8.62 2.02 10.52
5/20/2022 1:45:00 PM 16 60.8 0.064 8.49 2.18 10.38
5/20/2022 2:00:00 PM 16.17 61.106 0.064 8.56 2.05 10.44
5/20/2022 2:15:00 PM 16.23 61.214 0.064 8.57 2.21 10.42
5/20/2022 2:30:00 PM 16.31 61.358 0.064 8.62 2.02 10.44
5/20/2022 2:45:00 PM 16.33 61.394 0.065 8.64 2.03 10.41
5/20/2022 3:00:00 PM 16.31 61.358 0.065 8.61 2.09 10.37
5/20/2022 3:15:00 PM 16.28 61.304 0.065 8.52 2.04 10.28
5/20/2022 3:30:00 PM 16.27 61.286 0.065 8.48 2.04 10.28
5/20/2022 3:45:00 PM 16.28 61.304 0.065 8.49 2.08 10.29
5/20/2022 4:00:00 PM 16.34 61.412 0.065 8.54 2.05 10.34
5/20/2022 4:15:00 PM 16.35 61.43 0.065 8.53 2.05 10.32
5/20/2022 4:30:00 PM 16.31 61.358 0.065 8.34 2.01 10.17
5/20/2022 4:45:00 PM 16.28 61.304 0.065 8.16 2.06 10.08
5/20/2022 5:00:00 PM 16.28 61.304 0.065 8.12 2.14 10.09
5/20/2022 5:15:00 PM 16.3 61.34 0.065 8.13 2 10.13
5/20/2022 5:30:00 PM 16.28 61.304 0.065 8.01 2.13 10.03
5/20/2022 5:45:00 PM 16.27 61.286 0.065 7.9 2.01 9.97
5/20/2022 6:00:00 PM 16.27 61.286 0.065 7.86 1.98 9.97
5/20/2022 6:15:00 PM 16.26 61.268 0.066 7.86 2.04 9.98
5/20/2022 6:30:00 PM 16.26 61.268 0.065 7.86 1.97 10
5/20/2022 6:45:00 PM 16.25 61.25 0.065 7.85 2.05 10
5/20/2022 7:00:00 PM 16.25 61.25 0.065 7.8 2.12 9.96
5/20/2022 7:15:00 PM 16.23 61.214 0.065 7.73 2.26 9.91
5/20/2022 7:30:00 PM 16.2 61.16 0.066 7.65 2.14 9.82
5/20/2022 7:45:00 PM 16.16 61.088 0.066 7.57 2.08 9.72
5/20/2022 8:00:00 PM 16.12 61.016 0.066 7.49 2.23 9.61
5/20/2022 8:15:00 PM 16.07 60.926 0.066 7.41 2.16 9.51
5/20/2022 8:30:00 PM 16 60.8 0.067 7.35 2.19 9.42
5/20/2022 8:45:00 PM 15.93 60.674 0.067 7.3 2.1 9.33
5/20/2022 9:00:00 PM 15.85 60.53 0.067 7.26 2.2 9.26
5/20/2022 9:15:00 PM 15.78 60.404 0.067 7.22 2.17 9.24
5/20/2022 9:30:00 PM 15.7 60.26 0.068 7.2 2.22 9.22
5/20/2022 9:45:00 PM 15.63 60.134 0.068 7.18 2.23 9.22
5/20/2022 10:00:00 PM 15.56 60.008 0.068 7.15 2.32 9.22
5/20/2022 10:15:00 PM 15.49 59.882 0.068 7.13 2.21 9.23
5/20/2022 10:30:00 PM 15.43 59.774 0.068 7.14 2.26 9.24
5/20/2022 10:45:00 PM 15.37 59.666 0.068 7.11 2.36 9.25
5/20/2022 11:00:00 PM 15.32 59.576 0.068 7.13 2.28 9.25
5/20/2022 11:15:00 PM 15.26 59.468 0.068 7.11 2.2 9.27
5/20/2022 11:30:00 PM 15.21 59.378 0.068 7.12 2.5 9.28
5/20/2022 11:45:00 PM 15.16 59.288 0.068 7.11 2.26 9.28
5/21/2022 12:00:00 AM 15.13 59.234 0.068 7.11 2.3 9.3
5/21/2022 12:15:00 AM 15.1 59.18 0.068 7.13 2.33 9.31
5/21/2022 12:30:00 AM 15.07 59.126 0.068 7.14 2.28 9.32
5/21/2022 12:45:00 AM 15.03 59.054 0.068 7.12 2.36 9.33
5/21/2022 1:00:00 AM 14.99 58.982 0.068 7.12 2.27 9.34
5/21/2022 1:15:00 AM 14.96 58.928 0.068 7.11 2.46 9.35
5/21/2022 1:30:00 AM 14.93 58.874 0.068 7.1 2.55 9.36
5/21/2022 1:45:00 AM 14.9 58.82 0.068 7.11 2.22 9.37
5/21/2022 2:00:00 AM 14.87 58.766 0.068 7.09 2.24 9.38
5/21/2022 2:15:00 AM 14.83 58.694 0.068 7.09 2.26 9.39
5/21/2022 2:30:00 AM 14.8 58.64 0.068 7.08 2.31 9.4
5/21/2022 2:45:00 AM 14.76 58.568 0.068 7.08 2.28 9.42
5/21/2022 3:00:00 AM 14.74 58.532 0.068 7.09 2.35 9.42
5/21/2022 3:15:00 AM 14.71 58.478 0.068 7.11 2.27 9.43
5/21/2022 3:30:00 AM 14.68 58.424 0.068 7.1 2.19 9.44
5/21/2022 3:45:00 AM 14.66 58.388 0.068 7.11 2.35 9.44
5/21/2022 4:00:00 AM 14.63 58.334 0.069 7.11 2.39 9.45
5/21/2022 4:15:00 AM 14.6 58.28 0.069 7.1 2.43 9.45
5/21/2022 4:30:00 AM 14.57 58.226 0.069 7.11 2.28 9.46
5/21/2022 4:45:00 AM 14.54 58.172 0.069 7.1 2.25 9.46
5/21/2022 5:00:00 AM 14.51 58.118 0.069 7.1 2.27 9.47
5/21/2022 5:15:00 AM 14.48 58.064 0.069 7.1 2.43 9.48
5/21/2022 5:30:00 AM 14.45 58.01 0.069 7.1 2.18 9.49
5/21/2022 5:45:00 AM 14.42 57.956 0.069 7.09 2.61 9.51
5/21/2022 6:00:00 AM 14.39 57.902 0.069 7.12 2.05 9.53
5/21/2022 6:15:00 AM 14.36 57.848 0.069 7.13 2.04 9.6
5/21/2022 6:30:00 AM 14.34 57.812 0.069 7.15 1.95 9.67
5/21/2022 6:45:00 AM 14.32 57.776 0.069 7.17 1.92 9.78
5/21/2022 7:00:00 AM 14.31 57.758 0.069 7.22 1.89 9.91
5/21/2022 7:15:00 AM 14.31 57.758 0.068 7.25 1.89 10.05
5/21/2022 7:30:00 AM 14.33 57.794 0.068 7.31 1.95 10.2
5/21/2022 7:45:00 AM 14.36 57.848 0.068 7.36 1.88 10.32
5/21/2022 8:00:00 AM 14.39 57.902 0.068 7.42 1.92 10.42
5/21/2022 8:15:00 AM 14.44 57.992 0.068 7.47 1.92 10.49
5/21/2022 8:30:00 AM 14.5 58.1 0.067 7.52 1.99 10.53
5/21/2022 8:45:00 AM 14.55 58.19 0.067 7.57 1.85 10.58
5/21/2022 9:00:00 AM 14.62 58.316 0.067 7.64 1.9 10.62
5/21/2022 9:15:00 AM 14.72 58.496 0.067 7.69 1.99 10.68
5/21/2022 9:30:00 AM 14.85 58.73 0.067 7.76 1.85 10.71
5/21/2022 9:45:00 AM 15 59 0.067 7.85 1.92 10.73
5/21/2022 10:00:00 AM 15.16 59.288 0.067 7.94 1.94 10.73
5/21/2022 10:15:00 AM 15.42 59.756 0.067 8.06 1.89 10.76
5/21/2022 10:30:00 AM 15.63 60.134 0.067 8.16 1.91 10.74
5/21/2022 10:45:00 AM 15.96 60.728 0.067 8.29 1.91 10.74
5/21/2022 11:00:00 AM 16.31 61.358 0.066 8.39 1.94 10.71
5/21/2022 11:15:00 AM 16.6 61.88 0.067 8.47 1.91 10.65
5/21/2022 11:30:00 AM 16.93 62.474 0.067 8.55 1.94 10.63
5/21/2022 11:45:00 AM 17.3 63.14 0.067 8.62 2.01 10.57
5/21/2022 12:00:00 PM 17.55 63.59 0.067 8.65 1.89 10.51
5/21/2022 12:15:00 PM 17.88 64.184 0.067 8.71 1.98 10.47
5/21/2022 12:30:00 PM 18.2 64.76 0.067 8.77 2 10.46
5/21/2022 12:45:00 PM 18.57 65.426 0.067 8.82 2.02 10.4
5/21/2022 1:00:00 PM 19.01 66.218 0.067 8.87 1.99 10.33
5/21/2022 1:15:00 PM 19.43 66.974 0.067 8.91 1.98 10.27
5/21/2022 1:30:00 PM 19.88 67.784 0.067 8.94 2 10.16
5/21/2022 1:45:00 PM 20.23 68.414 0.067 8.97 1.95 10.12
5/21/2022 2:00:00 PM 20.63 69.134 0.067 9 1.94 10.07
5/21/2022 2:15:00 PM 20.78 69.404 0.067 9.03 1.96 9.98
5/21/2022 2:30:00 PM 20.93 69.674 0.067 9.04 2.01 9.92
5/21/2022 2:45:00 PM 21.2 70.16 0.067 9.05 1.94 9.87
5/21/2022 3:00:00 PM 21.55 70.79 0.067 9.08 1.96 9.84
5/21/2022 3:15:00 PM 21.74 71.132 0.067 9.1 1.94 9.76
5/21/2022 3:30:00 PM 21.9 71.42 0.067 9.11 1.96 9.72
5/21/2022 3:45:00 PM 21.99 71.582 0.067 9.1 2.1 9.62
5/21/2022 4:00:00 PM 22.07 71.726 0.067 9.09 1.92 9.56
5/21/2022 4:15:00 PM 22.13 71.834 0.067 9.09 2 9.5
5/21/2022 4:30:00 PM 22.19 71.942 0.067 9.08 2.03 9.43
5/21/2022 4:45:00 PM 22.18 71.924 0.067 9.05 2.02 9.36
5/21/2022 5:00:00 PM 22.15 71.87 0.067 9.02 2.11 9.3
5/21/2022 5:15:00 PM 22.15 71.87 0.067 9 2.04 9.26
5/21/2022 5:30:00 PM 22.11 71.798 0.067 8.95 2 9.17
5/21/2022 5:45:00 PM 22.04 71.672 0.067 8.89 1.98 9.1
5/21/2022 6:00:00 PM 21.96 71.528 0.067 8.75 2.22 8.97
5/21/2022 6:15:00 PM 21.89 71.402 0.067 8.63 2.18 8.88
5/21/2022 6:30:00 PM 21.82 71.276 0.067 8.45 2.14 8.81
5/21/2022 6:45:00 PM 21.73 71.114 0.067 8.25 2.08 8.71
5/21/2022 7:00:00 PM 21.61 70.898 0.067 7.94 2.13 8.56
5/21/2022 7:15:00 PM 21.5 70.7 0.068 7.73 2.18 8.47
5/21/2022 7:30:00 PM 21.41 70.538 0.068 7.63 2.13 8.45
5/21/2022 7:45:00 PM 21.31 70.358 0.068 7.56 2.13 8.42
5/21/2022 8:00:00 PM 21.2 70.16 0.069 7.48 2.19 8.37
5/21/2022 8:15:00 PM 21.06 69.908 0.069 7.42 2.25 8.3
5/21/2022 8:30:00 PM 20.9 69.62 0.07 7.36 2.33 8.25
5/21/2022 8:45:00 PM 20.73 69.314 0.07 7.32 2.24 8.2
5/21/2022 9:00:00 PM 20.56 69.008 0.07 7.28 2.23 8.18
5/21/2022 9:15:00 PM 20.4 68.72 0.07 7.24 2.3 8.17
5/21/2022 9:30:00 PM 20.24 68.432 0.07 7.23 2.48 8.19
5/21/2022 9:45:00 PM 20.09 68.162 0.071 7.2 2.41 8.2
5/21/2022 10:00:00 PM 19.95 67.91 0.071 7.2 2.38 8.23
5/21/2022 10:15:00 PM 19.8 67.64 0.071 7.19 2.48 8.24
5/21/2022 10:30:00 PM 19.64 67.352 0.071 7.2 2.49 8.28
5/21/2022 10:45:00 PM 19.49 67.082 0.071 7.2 2.45 8.32
5/21/2022 11:00:00 PM 19.33 66.794 0.071 7.19 2.47 8.36
5/21/2022 11:15:00 PM 19.19 66.542 0.071 7.19 2.54 8.38
5/21/2022 11:30:00 PM 19.05 66.29 0.071 7.17 2.55 8.4
5/21/2022 11:45:00 PM 18.91 66.038 0.071 7.17 2.46 8.44
5/22/2022 12:00:00 AM 18.77 65.786 0.071 7.16 2.61 8.47
5/22/2022 12:15:00 AM 18.64 65.552 0.071 7.16 2.53 8.5
5/22/2022 12:30:00 AM 18.5 65.3 0.071 7.15 2.45 8.52
5/22/2022 12:45:00 AM 18.37 65.066 0.071 7.15 2.55 8.55
5/22/2022 1:00:00 AM 18.25 64.85 0.071 7.16 2.61 8.58
5/22/2022 1:15:00 AM 18.12 64.616 0.071 7.16 2.61 8.61
5/22/2022 1:30:00 AM 18 64.4 0.071 7.15 2.6 8.64
5/22/2022 1:45:00 AM 17.88 64.184 0.071 7.15 2.6 8.66
5/22/2022 2:00:00 AM 17.76 63.968 0.071 7.14 2.54 8.67
5/22/2022 2:15:00 AM 17.64 63.752 0.071 7.13 2.54 8.71
5/22/2022 2:30:00 AM 17.53 63.554 0.071 7.14 2.54 8.74
5/22/2022 2:45:00 AM 17.43 63.374 0.071 7.15 2.57 8.76
5/22/2022 3:00:00 AM 17.34 63.212 0.071 7.14 2.5 8.79
5/22/2022 3:15:00 AM 17.23 63.014 0.071 7.14 2.53 8.81
5/22/2022 3:30:00 AM 17.13 62.834 0.071 7.14 2.55 8.82
5/22/2022 3:45:00 AM 17.03 62.654 0.071 7.14 2.55 8.84
5/22/2022 4:00:00 AM 16.94 62.492 0.071 7.14 2.59 8.88
5/22/2022 4:15:00 AM 16.84 62.312 0.071 7.13 2.53 8.9
5/22/2022 4:30:00 AM 16.76 62.168 0.071 7.15 2.59 8.93
5/22/2022 4:45:00 AM 16.67 62.006 0.071 7.14 2.63 8.94
5/22/2022 5:00:00 AM 16.58 61.844 0.072 7.14 2.54 8.97
5/22/2022 5:15:00 AM 16.48 61.664 0.071 7.13 2.56 8.98
5/22/2022 5:30:00 AM 16.39 61.502 0.072 7.13 2.63 9
5/22/2022 5:45:00 AM 16.3 61.34 0.072 7.13 2.41 9.03
5/22/2022 6:00:00 AM 16.21 61.178 0.072 7.14 2.44 9.08
5/22/2022 6:15:00 AM 16.12 61.016 0.072 7.15 2.4 9.16
5/22/2022 6:30:00 AM 16.05 60.89 0.072 7.18 2.34 9.26
5/22/2022 6:45:00 AM 15.99 60.782 0.072 7.21 2.33 9.4
5/22/2022 7:00:00 AM 15.96 60.728 0.072 7.25 2.29 9.56
5/22/2022 7:15:00 AM 15.92 60.656 0.071 7.28 2.26 9.7
5/22/2022 7:30:00 AM 15.91 60.638 0.071 7.34 2.41 9.83
5/22/2022 7:45:00 AM 15.94 60.692 0.07 7.41 2.28 9.99
5/22/2022 8:00:00 AM 15.95 60.71 0.07 7.46 2.13 10.04
5/22/2022 8:15:00 AM 15.96 60.728 0.07 7.49 2.1 10.08
5/22/2022 8:30:00 AM 16.02 60.836 0.07 7.56 2.19 10.18
5/22/2022 8:45:00 AM 16.06 60.908 0.069 7.63 1.79 10.25
5/22/2022 9:00:00 AM 16.14 61.052 0.069 7.7 1.84 10.31
5/22/2022 9:15:00 AM 16.26 61.268 0.069 7.81 1.85 10.38
5/22/2022 9:30:00 AM 16.35 61.43 0.069 7.93 1.93 10.45
5/22/2022 9:45:00 AM 16.46 61.628 0.069 8.08 1.84 10.51
5/22/2022 10:00:00 AM 16.59 61.862 0.068 8.22 1.82 10.55
5/22/2022 10:15:00 AM 16.78 62.204 0.068 8.34 1.82 10.59
5/22/2022 10:30:00 AM 16.99 62.582 0.068 8.44 1.9 10.57
5/22/2022 10:45:00 AM 17.25 63.05 0.068 8.54 1.88 10.57
5/22/2022 11:00:00 AM 17.46 63.428 0.068 8.61 1.84 10.54
5/22/2022 11:15:00 AM 17.7 63.86 0.068 8.71 1.96 10.5
5/22/2022 11:30:00 AM 17.89 64.202 0.068 8.79 1.9 10.49
5/22/2022 11:45:00 AM 18.23 64.814 0.068 8.85 1.99 10.48
5/22/2022 12:00:00 PM 18.55 65.39 0.068 8.9 1.92 10.42
5/22/2022 12:15:00 PM 18.84 65.912 0.068 8.96 1.97 10.39
5/22/2022 12:30:00 PM 19.02 66.236 0.068 9 2.02 10.32
5/22/2022 12:45:00 PM 19.39 66.902 0.068 9.04 1.95 10.27
5/22/2022 1:00:00 PM 19.51 67.118 0.068 9.04 1.96 10.15
5/22/2022 1:15:00 PM 19.72 67.496 0.067 9.06 1.9 10.12
5/22/2022 1:30:00 PM 19.8 67.64 0.067 9.07 1.95 10.05
5/22/2022 1:45:00 PM 19.86 67.748 0.068 9.09 1.93 10.04
5/22/2022 2:00:00 PM 19.92 67.856 0.068 9.07 1.95 10
5/22/2022 2:15:00 PM 20.23 68.414 0.068 9.12 1.96 10.04
5/22/2022 2:30:00 PM 20.48 68.864 0.068 9.14 1.89 10
5/22/2022 2:45:00 PM 20.59 69.062 0.068 9.14 1.91 9.93
5/22/2022 3:00:00 PM 20.51 68.918 0.068 9.09 2 9.73
5/22/2022 3:15:00 PM 20.56 69.008 0.068 9.09 1.94 9.74
5/22/2022 3:30:00 PM 20.69 69.242 0.068 9.14 1.98 9.79
5/22/2022 3:45:00 PM 20.66 69.188 0.068 9.09 2.05 9.61
5/22/2022 4:00:00 PM 20.55 68.99 0.068 8.93 2.05 9.29
5/22/2022 4:15:00 PM 20.53 68.954 0.068 8.87 1.98 9.3
5/22/2022 4:30:00 PM 20.53 68.954 0.068 8.89 2.1 9.38
5/22/2022 4:45:00 PM 20.5 68.9 0.068 8.86 2.02 9.37
5/22/2022 5:00:00 PM 20.46 68.828 0.068 8.85 1.95 9.41
5/22/2022 5:15:00 PM 20.4 68.72 0.068 8.8 2.03 9.37
5/22/2022 5:30:00 PM 20.34 68.612 0.068 8.75 2 9.34
5/22/2022 5:45:00 PM 20.26 68.468 0.068 8.66 2.03 9.27
5/22/2022 6:00:00 PM 20.18 68.324 0.068 8.53 2.04 9.2
5/22/2022 6:15:00 PM 20.12 68.216 0.068 8.4 2.01 9.16
5/22/2022 6:30:00 PM 20.05 68.09 0.069 8.28 2.03 9.12
5/22/2022 6:45:00 PM 19.97 67.946 0.069 8.06 2.01 9.02
5/22/2022 7:00:00 PM 19.88 67.784 0.069 7.86 1.97 8.92
5/22/2022 7:15:00 PM 19.79 67.622 0.07 7.78 2.05 8.95
5/22/2022 7:30:00 PM 19.69 67.442 0.07 7.78 1.91 9.01
5/22/2022 7:45:00 PM 19.56 67.208 0.07 7.7 1.98 8.99
5/22/2022 8:00:00 PM 19.43 66.974 0.07 7.6 1.97 8.9
5/22/2022 8:15:00 PM 19.28 66.704 0.071 7.52 2.05 8.79
5/22/2022 8:30:00 PM 19.13 66.434 0.071 7.45 1.94 8.7
5/22/2022 8:45:00 PM 18.97 66.146 0.072 7.39 2.01 8.64
5/22/2022 9:00:00 PM 18.81 65.858 0.072 7.35 2.04 8.62
5/22/2022 9:15:00 PM 18.64 65.552 0.072 7.33 2.35 8.61
5/22/2022 9:30:00 PM 18.49 65.282 0.072 7.31 2.32 8.6
5/22/2022 9:45:00 PM 18.34 65.012 0.072 7.3 2.24 8.62
5/22/2022 10:00:00 PM 18.2 64.76 0.072 7.28 2.35 8.64
5/22/2022 10:15:00 PM 18.04 64.472 0.073 7.27 2.27 8.67
5/22/2022 10:30:00 PM 17.89 64.202 0.073 7.25 2.38 8.7
5/22/2022 10:45:00 PM 17.73 63.914 0.073 7.24 2.39 8.71
5/22/2022 11:00:00 PM 17.57 63.626 0.073 7.24 2.25 8.75
5/22/2022 11:15:00 PM 17.4 63.32 0.073 7.23 2.43 8.79
5/22/2022 11:30:00 PM 17.24 63.032 0.073 7.23 2.32 8.83
5/22/2022 11:45:00 PM 17.08 62.744 0.073 7.22 2.53 8.85
5/23/2022 12:00:00 AM 16.93 62.474 0.073 7.22 2.42 8.91
5/23/2022 12:15:00 AM 16.78 62.204 0.073 7.22 2.43 8.95
5/23/2022 12:30:00 AM 16.62 61.916 0.073 7.21 2.35 8.99
5/23/2022 12:45:00 AM 16.46 61.628 0.073 7.2 2.32 9.01
5/23/2022 1:00:00 AM 16.31 61.358 0.073 7.2 2.34 9.05
5/23/2022 1:15:00 AM 16.16 61.088 0.073 7.19 2.52 9.1
5/23/2022 1:30:00 AM 16.02 60.836 0.073 7.2 2.33 9.14
5/23/2022 1:45:00 AM 15.9 60.62 0.073 7.19 2.35 9.16
5/23/2022 2:00:00 AM 15.78 60.404 0.072 7.19 2.34 9.19
5/23/2022 2:15:00 AM 15.67 60.206 0.072 7.19 2.48 9.21
5/23/2022 2:30:00 AM 15.55 59.99 0.072 7.19 2.43 9.25
5/23/2022 2:45:00 AM 15.44 59.792 0.072 7.18 2.37 9.28
5/23/2022 3:00:00 AM 15.32 59.576 0.072 7.19 2.42 9.31
5/23/2022 3:15:00 AM 15.2 59.36 0.072 7.18 2.34 9.34
5/23/2022 3:30:00 AM 15.1 59.18 0.072 7.18 2.35 9.37
5/23/2022 3:45:00 AM 15 59 0.072 7.18 2.49 9.38
5/23/2022 4:00:00 AM 14.89 58.802 0.072 7.18 2.4 9.41
5/23/2022 4:15:00 AM 14.8 58.64 0.072 7.17 2.44 9.44
5/23/2022 4:30:00 AM 14.72 58.496 0.072 7.17 2.41 9.46
5/23/2022 4:45:00 AM 14.64 58.352 0.072 7.17 2.39 9.49
5/23/2022 5:00:00 AM 14.54 58.172 0.072 7.18 2.37 9.51
5/23/2022 5:15:00 AM 14.44 57.992 0.072 7.17 2.41 9.54
5/23/2022 5:30:00 AM 14.35 57.83 0.072 7.18 2.36 9.54
5/23/2022 5:45:00 AM 14.25 57.65 0.072 7.17 2.25 9.58
5/23/2022 6:00:00 AM 14.17 57.506 0.072 7.18 2.11 9.62
5/23/2022 6:15:00 AM 14.11 57.398 0.072 7.19 2.11 9.67
5/23/2022 6:30:00 AM 14.07 57.326 0.072 7.2 2.15 9.76
5/23/2022 6:45:00 AM 14.03 57.254 0.072 7.22 2.07 9.84
5/23/2022 7:00:00 AM 13.99 57.182 0.072 7.25 1.98 9.94
5/23/2022 7:15:00 AM 13.96 57.128 0.072 7.3 1.97 10.11
5/23/2022 7:30:00 AM 14.07 57.326 0.072 7.32 2.01 10.15
5/23/2022 7:45:00 AM 14.06 57.308 0.072 7.38 1.97 10.3
5/23/2022 8:00:00 AM 14.07 57.326 0.072 7.45 2.07 10.47
5/23/2022 8:15:00 AM 14.09 57.362 0.071 7.53 2.04 10.6
5/23/2022 8:30:00 AM 14.14 57.452 0.071 7.61 1.99 10.7
5/23/2022 8:45:00 AM 14.19 57.542 0.07 7.7 2.05 10.79
5/23/2022 9:00:00 AM 14.26 57.668 0.07 7.81 1.94 10.87
5/23/2022 9:15:00 AM 14.33 57.794 0.07 7.92 2.01 10.91
5/23/2022 9:30:00 AM 14.42 57.956 0.07 8.01 1.99 10.92
5/23/2022 9:45:00 AM 14.53 58.154 0.07 8.09 1.92 10.94
5/23/2022 10:00:00 AM 14.62 58.316 0.07 8.19 1.94 10.96
5/23/2022 10:15:00 AM 14.76 58.568 0.069 8.29 1.86 10.99
5/23/2022 10:30:00 AM 14.89 58.802 0.069 8.41 1.91 11.01
5/23/2022 10:45:00 AM 15.06 59.108 0.069 8.53 1.94 11.04
5/23/2022 11:00:00 AM 15.22 59.396 0.069 8.63 1.99 11.04
5/23/2022 11:15:00 AM 15.42 59.756 0.069 8.72 1.95 11.05
5/23/2022 11:30:00 AM 15.6 60.08 0.069 8.8 2.09 11.03
5/23/2022 11:45:00 AM 15.8 60.44 0.069 8.88 2.08 11.01
5/23/2022 12:00:00 PM 15.99 60.782 0.069 8.94 2.09 11
5/23/2022 12:15:00 PM 16.17 61.106 0.069 8.99 2.07 10.99
5/23/2022 12:30:00 PM 16.33 61.394 0.069 9.05 2.03 10.95
5/23/2022 12:45:00 PM 16.53 61.754 0.069 9.09 2.03 10.93
5/23/2022 1:00:00 PM 16.73 62.114 0.069 9.13 2.06 10.91
5/23/2022 1:15:00 PM 16.88 62.384 0.069 9.16 2.05 10.88
5/23/2022 1:30:00 PM 16.97 62.546 0.069 9.2 1.92 10.84
5/23/2022 1:45:00 PM 17.09 62.762 0.069 9.22 2.02 10.81
5/23/2022 2:00:00 PM 17.21 62.978 0.069 9.24 2.08 10.79
5/23/2022 2:15:00 PM 17.32 63.176 0.069 9.27 2.05 10.77
5/23/2022 2:30:00 PM 17.45 63.41 0.069 9.28 2 10.74
5/23/2022 2:45:00 PM 17.58 63.644 0.069 9.3 1.97 10.7
5/23/2022 3:00:00 PM 17.64 63.752 0.069 9.31 1.98 10.65
5/23/2022 3:15:00 PM 17.69 63.842 0.069 9.32 1.99 10.61
5/23/2022 3:30:00 PM 17.71 63.878 0.069 9.33 1.97 10.56
5/23/2022 3:45:00 PM 17.72 63.896 0.069 9.34 1.99 10.53
5/23/2022 4:00:00 PM 17.72 63.896 0.069 9.34 2.03 10.49
5/23/2022 4:15:00 PM 17.7 63.86 0.069 9.34 1.95 10.46
5/23/2022 4:30:00 PM 17.69 63.842 0.069 9.33 2.09 10.42
5/23/2022 4:45:00 PM 17.66 63.788 0.069 9.33 2.03 10.39
5/23/2022 5:00:00 PM 17.64 63.752 0.069 9.33 1.97 10.37
5/23/2022 5:15:00 PM 17.61 63.698 0.069 9.32 2 10.36
5/23/2022 5:30:00 PM 17.58 63.644 0.069 9.3 1.99 10.31
5/23/2022 5:45:00 PM 17.54 63.572 0.069 9.29 1.95 10.28
5/23/2022 6:00:00 PM 17.5 63.5 0.069 9.26 1.95 10.21
5/23/2022 6:15:00 PM 17.46 63.428 0.069 9.21 2 10.14
5/23/2022 6:30:00 PM 17.41 63.338 0.069 9.16 2 10.06
5/23/2022 6:45:00 PM 17.37 63.266 0.069 9.09 1.97 9.96
5/23/2022 7:00:00 PM 17.32 63.176 0.069 8.99 2.06 9.85
5/23/2022 7:15:00 PM 17.25 63.05 0.069 8.86 1.91 9.77
5/23/2022 7:30:00 PM 17.17 62.906 0.069 8.69 1.92 9.67
5/23/2022 7:45:00 PM 17.07 62.726 0.069 8.43 1.97 9.57
5/23/2022 8:00:00 PM 16.97 62.546 0.07 8.12 1.97 9.45
5/23/2022 8:15:00 PM 16.86 62.348 0.071 7.84 1.98 9.35
5/23/2022 8:30:00 PM 16.75 62.15 0.072 7.67 1.95 9.26
5/23/2022 8:45:00 PM 16.63 61.934 0.072 7.55 1.97 9.18
5/23/2022 9:00:00 PM 16.52 61.736 0.073 7.47 1.98 9.12
5/23/2022 9:15:00 PM 16.4 61.52 0.073 7.41 2.08 9.09
5/23/2022 9:30:00 PM 16.28 61.304 0.073 7.38 2.05 9.09
5/23/2022 9:45:00 PM 16.15 61.07 0.073 7.36 2.08 9.09
5/23/2022 10:00:00 PM 16.03 60.854 0.074 7.33 2.12 9.09
5/23/2022 10:15:00 PM 15.91 60.638 0.074 7.31 2.04 9.11
5/23/2022 10:30:00 PM 15.79 60.422 0.074 7.31 2.17 9.13
5/23/2022 10:45:00 PM 15.66 60.188 0.074 7.29 1.98 9.16
5/23/2022 11:00:00 PM 15.54 59.972 0.074 7.28 2 9.19
5/23/2022 11:15:00 PM 15.42 59.756 0.074 7.26 2.14 9.22
5/23/2022 11:30:00 PM 15.31 59.558 0.074 7.26 2.12 9.24
5/23/2022 11:45:00 PM 15.19 59.342 0.075 7.26 2.03 9.26
5/24/2022 12:00:00 AM 15.08 59.144 0.075 7.25 2.07 9.28
5/24/2022 12:15:00 AM 14.96 58.928 0.075 7.24 2.09 9.32
5/24/2022 12:30:00 AM 14.85 58.73 0.075 7.24 2.15 9.35
5/24/2022 12:45:00 AM 14.75 58.55 0.075 7.24 2.02 9.38
5/24/2022 1:00:00 AM 14.64 58.352 0.075 7.23 1.98 9.41
5/24/2022 1:15:00 AM 14.54 58.172 0.075 7.23 2 9.41
5/24/2022 1:30:00 AM 14.43 57.974 0.074 7.23 2 9.45
5/24/2022 1:45:00 AM 14.32 57.776 0.074 7.22 2.03 9.48
5/24/2022 2:00:00 AM 14.21 57.578 0.074 7.21 1.98 9.51
5/24/2022 2:15:00 AM 14.1 57.38 0.074 7.22 2.02 9.54
5/24/2022 2:30:00 AM 13.99 57.182 0.074 7.21 2.03 9.56
5/24/2022 2:45:00 AM 13.88 56.984 0.074 7.21 2 9.58
5/24/2022 3:00:00 AM 13.77 56.786 0.074 7.21 1.93 9.62
5/24/2022 3:15:00 AM 13.67 56.606 0.074 7.2 2 9.65
5/24/2022 3:30:00 AM 13.57 56.426 0.074 7.21 1.94 9.67
5/24/2022 3:45:00 AM 13.46 56.228 0.074 7.2 1.95 9.71
5/24/2022 4:00:00 AM 13.36 56.048 0.074 7.19 2.16 9.72
5/24/2022 4:15:00 AM 13.26 55.868 0.074 7.2 1.94 9.74
5/24/2022 4:30:00 AM 13.15 55.67 0.074 7.19 2.03 9.78
5/24/2022 4:45:00 AM 13.06 55.508 0.074 7.2 1.99 9.81
5/24/2022 5:00:00 AM 12.98 55.364 0.074 7.2 2.08 9.84
5/24/2022 5:15:00 AM 12.9 55.22 0.074 7.2 1.91 9.86
5/24/2022 5:30:00 AM 12.81 55.058 0.074 7.2 1.99 9.89
5/24/2022 5:45:00 AM 12.71 54.878 0.074 7.19 2.06 9.91
5/24/2022 6:00:00 AM 12.62 54.716 0.074 7.2 2.02 9.95
5/24/2022 6:15:00 AM 12.53 54.554 0.074 7.2 1.88 10.04
5/24/2022 6:30:00 AM 12.46 54.428 0.073 7.24 1.88 10.15
5/24/2022 6:45:00 AM 12.39 54.302 0.073 7.26 1.89 10.28
5/24/2022 7:00:00 AM 12.33 54.194 0.073 7.29 1.88 10.4
5/24/2022 7:15:00 AM 12.28 54.104 0.073 7.34 1.87 10.52
5/24/2022 7:30:00 AM 12.25 54.05 0.073 7.38 1.85 10.65
5/24/2022 7:45:00 AM 12.22 53.996 0.073 7.43 1.91 10.77
5/24/2022 8:00:00 AM 12.22 53.996 0.072 7.48 2 10.89
5/24/2022 8:15:00 AM 12.27 54.086 0.072 7.56 2.18 11.04
5/24/2022 8:30:00 AM 12.3 54.14 0.072 7.63 2.02 11.14
5/24/2022 8:45:00 AM 12.33 54.194 0.072 7.7 1.9 11.21
5/24/2022 9:00:00 AM 12.39 54.302 0.071 7.8 1.79 11.3
5/24/2022 9:15:00 AM 12.49 54.482 0.071 7.92 1.97 11.39
5/24/2022 9:30:00 AM 12.62 54.716 0.071 8.07 1.94 11.45
5/24/2022 9:45:00 AM 12.72 54.896 0.07 8.19 2.04 11.48
5/24/2022 10:00:00 AM 12.79 55.022 0.07 8.28 1.92 11.49
5/24/2022 10:15:00 AM 12.89 55.202 0.07 8.38 1.88 11.49
5/24/2022 10:30:00 AM 13 55.4 0.07 8.46 2 11.49
5/24/2022 10:45:00 AM 13.17 55.706 0.07 8.57 1.95 11.49
5/24/2022 11:00:00 AM 13.35 56.03 0.069 8.67 2.11 11.5
5/24/2022 11:15:00 AM 13.53 56.354 0.069 8.75 2 11.51
5/24/2022 11:30:00 AM 13.72 56.696 0.07 8.83 1.92 11.49
5/24/2022 11:45:00 AM 13.91 57.038 0.07 8.89 2.21 11.45
5/24/2022 12:00:00 PM 14.11 57.398 0.07 8.95 1.92 11.46
5/24/2022 12:15:00 PM 14.28 57.704 0.07 9 1.92 11.42
5/24/2022 12:30:00 PM 14.48 58.064 0.07 9.06 2.01 11.38
5/24/2022 12:45:00 PM 14.64 58.352 0.07 9.1 2.09 11.34
5/24/2022 1:00:00 PM 14.72 58.496 0.07 9.12 1.99 11.27
5/24/2022 1:15:00 PM 14.78 58.604 0.069 9.14 1.99 11.19
5/24/2022 1:30:00 PM 14.85 58.73 0.069 9.15 2 11.13
5/24/2022 1:45:00 PM 14.9 58.82 0.069 9.15 2.29 11.06
5/24/2022 2:00:00 PM 14.94 58.892 0.069 9.13 2.01 10.99
5/24/2022 2:15:00 PM 14.97 58.946 0.069 9.13 2.06 10.92
5/24/2022 2:30:00 PM 15.01 59.018 0.069 9.11 2.03 10.85
5/24/2022 2:45:00 PM 15.02 59.036 0.069 9.08 1.95 10.78
5/24/2022 3:00:00 PM 15.03 59.054 0.069 9.05 2.03 10.75
5/24/2022 3:15:00 PM 15.05 59.09 0.069 9.05 2.13 10.75
5/24/2022 3:30:00 PM 15.07 59.126 0.069 9.06 1.92 10.77
5/24/2022 3:45:00 PM 15.08 59.144 0.069 9.07 1.98 10.79
5/24/2022 4:00:00 PM 15.11 59.198 0.069 9.06 1.98 10.8
5/24/2022 4:15:00 PM 15.15 59.27 0.069 9.09 2.1 10.84
5/24/2022 4:30:00 PM 15.22 59.396 0.069 9.13 1.97 10.89
5/24/2022 4:45:00 PM 15.29 59.522 0.069 9.16 1.92 10.93
5/24/2022 5:00:00 PM 15.3 59.54 0.07 9.13 2.2 10.85
5/24/2022 5:15:00 PM 15.28 59.504 0.07 9.07 2.03 10.69
5/24/2022 5:30:00 PM 15.25 59.45 0.07 8.97 2.13 10.56
5/24/2022 5:45:00 PM 15.23 59.414 0.07 8.87 2.09 10.42
5/24/2022 6:00:00 PM 15.21 59.378 0.07 8.72 2.05 10.28
5/24/2022 6:15:00 PM 15.2 59.36 0.07 8.56 2.04 10.21
5/24/2022 6:30:00 PM 15.19 59.342 0.07 8.35 2.02 10.11
5/24/2022 6:45:00 PM 15.17 59.306 0.071 8.09 1.99 10
5/24/2022 7:00:00 PM 15.14 59.252 0.071 7.88 1.99 9.91
5/24/2022 7:15:00 PM 15.11 59.198 0.071 7.73 2.02 9.84
5/24/2022 7:30:00 PM 15.07 59.126 0.071 7.63 1.96 9.78
5/24/2022 7:45:00 PM 15.02 59.036 0.072 7.55 1.96 9.73
5/24/2022 8:00:00 PM 14.97 58.946 0.072 7.5 1.98 9.67
5/24/2022 8:15:00 PM 14.92 58.856 0.072 7.44 1.92 9.62
5/24/2022 8:30:00 PM 14.87 58.766 0.072 7.4 2.09 9.57
5/24/2022 8:45:00 PM 14.82 58.676 0.073 7.37 2.04 9.53
5/24/2022 9:00:00 PM 14.77 58.586 0.073 7.35 2.02 9.5
5/24/2022 9:15:00 PM 14.72 58.496 0.073 7.33 1.97 9.49
5/24/2022 9:30:00 PM 14.68 58.424 0.074 7.31 2.34 9.48
5/24/2022 9:45:00 PM 14.63 58.334 0.074 7.29 2.18 9.47
5/24/2022 10:00:00 PM 14.59 58.262 0.074 7.28 1.91 9.47
5/24/2022 10:15:00 PM 14.55 58.19 0.074 7.28 2 9.48
5/24/2022 10:30:00 PM 14.51 58.118 0.075 7.27 1.96 9.48
5/24/2022 10:45:00 PM 14.47 58.046 0.075 7.26 2.02 9.49
5/24/2022 11:00:00 PM 14.43 57.974 0.075 7.26 1.97 9.5
5/24/2022 11:15:00 PM 14.39 57.902 0.075 7.25 1.92 9.52
5/24/2022 11:30:00 PM 14.36 57.848 0.075 7.25 2 9.53
5/24/2022 11:45:00 PM 14.32 57.776 0.074 7.25 2.06 9.54
5/25/2022 12:00:00 AM 14.28 57.704 0.074 7.25 1.95 9.55
5/25/2022 12:15:00 AM 14.25 57.65 0.074 7.24 1.92 9.56
5/25/2022 12:30:00 AM 14.21 57.578 0.074 7.24 1.99 9.58
5/25/2022 12:45:00 AM 14.18 57.524 0.074 7.23 1.99 9.58
5/25/2022 1:00:00 AM 14.15 57.47 0.074 7.23 1.97 9.59
5/25/2022 1:15:00 AM 14.11 57.398 0.074 7.23 1.93 9.6
5/25/2022 1:30:00 AM 14.08 57.344 0.074 7.22 1.92 9.61
5/25/2022 1:45:00 AM 14.05 57.29 0.074 7.22 1.92 9.61
5/25/2022 2:00:00 AM 14.02 57.236 0.074 7.22 1.93 9.62
5/25/2022 2:15:00 AM 13.99 57.182 0.074 7.22 1.91 9.63
5/25/2022 2:30:00 AM 13.96 57.128 0.074 7.2 1.93 9.63
5/25/2022 2:45:00 AM 13.93 57.074 0.074 7.21 1.92 9.64
5/25/2022 3:00:00 AM 13.9 57.02 0.074 7.21 1.82 9.64
5/25/2022 3:15:00 AM 13.87 56.966 0.074 7.2 1.89 9.65
5/25/2022 3:30:00 AM 13.84 56.912 0.074 7.2 1.85 9.66
5/25/2022 3:45:00 AM 13.81 56.858 0.074 7.19 1.92 9.67
5/25/2022 4:00:00 AM 13.78 56.804 0.074 7.2 1.97 9.68
5/25/2022 4:15:00 AM 13.75 56.75 0.074 7.19 1.94 9.69
5/25/2022 4:30:00 AM 13.71 56.678 0.074 7.19 1.9 9.7
5/25/2022 4:45:00 AM 13.66 56.588 0.074 7.19 1.96 9.71
5/25/2022 5:00:00 AM 13.61 56.498 0.074 7.19 1.92 9.73
5/25/2022 5:15:00 AM 13.58 56.444 0.074 7.19 1.91 9.73
5/25/2022 5:30:00 AM 13.54 56.372 0.074 7.18 1.91 9.75
5/25/2022 5:45:00 AM 13.52 56.336 0.074 7.19 1.91 9.76
5/25/2022 6:00:00 AM 13.49 56.282 0.074 7.18 1.84 9.79
5/25/2022 6:15:00 AM 13.46 56.228 0.074 7.2 1.87 9.85
5/25/2022 6:30:00 AM 13.43 56.174 0.074 7.22 1.88 9.95
5/25/2022 6:45:00 AM 13.41 56.138 0.074 7.26 1.78 10.09
5/25/2022 7:00:00 AM 13.39 56.102 0.074 7.3 1.82 10.23
5/25/2022 7:15:00 AM 13.39 56.102 0.074 7.35 1.75 10.4
5/25/2022 7:30:00 AM 13.4 56.12 0.074 7.4 1.82 10.53
5/25/2022 7:45:00 AM 13.41 56.138 0.074 7.47 1.8 10.65
5/25/2022 8:00:00 AM 13.45 56.21 0.073 7.54 1.83 10.79
5/25/2022 8:15:00 AM 13.54 56.372 0.073 7.67 1.78 10.95
5/25/2022 8:30:00 AM 13.61 56.498 0.072 7.78 1.76 11.04
5/25/2022 8:45:00 AM 13.67 56.606 0.072 7.89 1.82 11.09
5/25/2022 9:00:00 AM 13.73 56.714 0.072 7.99 1.8 11.12
5/25/2022 9:15:00 AM 13.81 56.858 0.071 8.1 1.84 11.17
5/25/2022 9:30:00 AM 13.93 57.074 0.071 8.24 1.94 11.21
5/25/2022 9:45:00 AM 13.94 57.092 0.071 8.33 1.85 11.22
5/25/2022 10:00:00 AM 14.02 57.236 0.072 8.43 1.85 11.25
5/25/2022 10:15:00 AM 14.1 57.38 0.072 8.53 1.86 11.27
5/25/2022 10:30:00 AM 14.15 57.47 0.072 8.57 2.06 11.24
5/25/2022 10:45:00 AM 14.29 57.722 0.072 8.66 2.37 11.26
5/25/2022 11:00:00 AM 14.41 57.938 0.071 8.73 2.16 11.25
5/25/2022 11:15:00 AM 14.61 58.298 0.071 8.82 1.88 11.26
5/25/2022 11:30:00 AM 14.81 58.658 0.071 8.91 1.91 11.29
5/25/2022 11:45:00 AM 15.06 59.108 0.07 8.97 2.14 11.29
5/25/2022 12:00:00 PM 15.29 59.522 0.07 9.05 1.95 11.26
5/25/2022 12:15:00 PM 15.61 60.098 0.07 9.1 1.93 11.25
5/25/2022 12:30:00 PM 15.98 60.764 0.07 9.15 1.92 11.2
5/25/2022 12:45:00 PM 16.23 61.214 0.07 9.19 2 11.15
5/25/2022 1:00:00 PM 16.5 61.7 0.07 9.23 1.92 11.09
5/25/2022 1:15:00 PM 16.99 62.582 0.07 9.27 1.93 11.04
5/25/2022 1:30:00 PM 17.46 63.428 0.07 9.3 2.01 10.95
5/25/2022 1:45:00 PM 17.59 63.662 0.07 9.31 2.04 10.85
5/25/2022 2:00:00 PM 17.9 64.22 0.07 9.34 1.95 10.8
5/25/2022 2:15:00 PM 18.23 64.814 0.07 9.36 1.95 10.74
5/25/2022 2:30:00 PM 18.61 65.498 0.07 9.37 1.99 10.65
5/25/2022 2:45:00 PM 19 66.2 0.07 9.37 2.03 10.55
5/25/2022 3:00:00 PM 19.34 66.812 0.07 9.37 2.26 10.44
5/25/2022 3:15:00 PM 19.59 67.262 0.07 9.38 2.06 10.33
5/25/2022 3:30:00 PM 19.79 67.622 0.07 9.39 1.98 10.24
5/25/2022 3:45:00 PM 19.93 67.874 0.07 9.39 1.92 10.17
5/25/2022 4:00:00 PM 20.01 68.018 0.07 9.38 2.28 10.1
5/25/2022 4:15:00 PM 20 68 0.07 9.38 2.15 10.03
5/25/2022 4:30:00 PM 20.02 68.036 0.071 9.38 1.99 10.03
5/25/2022 4:45:00 PM 20.04 68.07201 0.071 9.39 2.03 9.99
5/25/2022 5:00:00 PM 20.02 68.036 0.071 9.36 2.02 9.89
5/25/2022 5:15:00 PM 19.99 67.982 0.071 9.34 2 9.82
5/25/2022 5:30:00 PM 19.9 67.82 0.071 9.31 2.03 9.76
5/25/2022 5:45:00 PM 19.72 67.496 0.071 9.28 2.11 9.71
5/25/2022 6:00:00 PM 19.56 67.208 0.071 9.26 1.97 9.72
5/25/2022 6:15:00 PM 19.41 66.938 0.071 9.2 1.99 9.66
5/25/2022 6:30:00 PM 19.3 66.74 0.071 9.13 2.12 9.58
5/25/2022 6:45:00 PM 19.22 66.596 0.071 9.08 2.28 9.52
5/25/2022 7:00:00 PM 19.15 66.47 0.071 8.99 2.2 9.39
5/25/2022 7:15:00 PM 19.08 66.344 0.071 8.84 2.14 9.21
5/25/2022 7:30:00 PM 19.01 66.218 0.071 8.63 2.1 9.08
5/25/2022 7:45:00 PM 18.91 66.038 0.071 8.37 2.13 9
5/25/2022 8:00:00 PM 18.8 65.84 0.072 8.07 2.07 8.91
5/25/2022 8:15:00 PM 18.69 65.642 0.073 7.82 2.15 8.82
5/25/2022 8:30:00 PM 18.58 65.444 0.073 7.65 2.04 8.72
5/25/2022 8:45:00 PM 18.45 65.21 0.074 7.54 2.07 8.63
5/25/2022 9:00:00 PM 18.33 64.994 0.074 7.47 2.08 8.6
5/25/2022 9:15:00 PM 18.21 64.778 0.075 7.42 2.23 8.59
5/25/2022 9:30:00 PM 18.11 64.598 0.075 7.39 2.65 8.59
5/25/2022 9:45:00 PM 18 64.4 0.076 7.36 2.21 8.58
5/25/2022 10:00:00 PM 17.88 64.184 0.076 7.36 2.18 8.59
5/25/2022 10:15:00 PM 17.76 63.968 0.076 7.33 2.07 8.59
5/25/2022 10:30:00 PM 17.65 63.77 0.077 7.31 2.12 8.62
5/25/2022 10:45:00 PM 17.53 63.554 0.077 7.3 2.19 8.65
5/25/2022 11:00:00 PM 17.42 63.356 0.077 7.3 2.07 8.68
5/25/2022 11:15:00 PM 17.29 63.122 0.077 7.29 2.19 8.7
5/25/2022 11:30:00 PM 17.17 62.906 0.078 7.29 2.05 8.72
5/25/2022 11:45:00 PM 17.04 62.672 0.078 7.28 2.06 8.76
5/26/2022 12:00:00 AM 16.92 62.456 0.078 7.28 2.12 8.79
5/26/2022 12:15:00 AM 16.8 62.24 0.078 7.27 2.17 8.82
5/26/2022 12:30:00 AM 16.67 62.006 0.078 7.27 2.22 8.85
5/26/2022 12:45:00 AM 16.55 61.79 0.079 7.27 2.26 8.89
5/26/2022 1:00:00 AM 16.43 61.574 0.079 7.26 2.22 8.91
5/26/2022 1:15:00 AM 16.31 61.358 0.079 7.25 2.3 8.94
5/26/2022 1:30:00 AM 16.19 61.142 0.078 7.26 2.16 8.97
5/26/2022 1:45:00 AM 16.08 60.944 0.078 7.24 2.2 9
5/26/2022 2:00:00 AM 15.97 60.746 0.078 7.24 2.17 9.03
5/26/2022 2:15:00 AM 15.86 60.548 0.078 7.25 2.17 9.06
5/26/2022 2:30:00 AM 15.76 60.368 0.077 7.25 2.37 9.08
5/26/2022 2:45:00 AM 15.64 60.152 0.077 7.24 2.16 9.11
5/26/2022 3:00:00 AM 15.53 59.954 0.077 7.23 2.2 9.13
5/26/2022 3:15:00 AM 15.43 59.774 0.077 7.24 2.52 9.17
5/26/2022 3:30:00 AM 15.34 59.612 0.077 7.23 2.29 9.2
5/26/2022 3:45:00 AM 15.24 59.432 0.077 7.23 2.19 9.23
5/26/2022 4:00:00 AM 15.16 59.288 0.077 7.23 2.13 9.24
5/26/2022 4:15:00 AM 15.06 59.108 0.077 7.22 2.18 9.26
5/26/2022 4:30:00 AM 14.96 58.928 0.077 7.23 2.17 9.28
5/26/2022 4:45:00 AM 14.87 58.766 0.077 7.22 2.16 9.31
5/26/2022 5:00:00 AM 14.78 58.604 0.077 7.22 2.16 9.33
5/26/2022 5:15:00 AM 14.7 58.46 0.077 7.22 2.35 9.36
5/26/2022 5:30:00 AM 14.61 58.298 0.077 7.21 2.29 9.38
5/26/2022 5:45:00 AM 14.52 58.136 0.077 7.21 2.14 9.41
5/26/2022 6:00:00 AM 14.44 57.992 0.076 7.21 2.1 9.45
5/26/2022 6:15:00 AM 14.37 57.866 0.076 7.23 2.17 9.53
5/26/2022 6:30:00 AM 14.31 57.758 0.076 7.25 2.02 9.65
5/26/2022 6:45:00 AM 14.26 57.668 0.076 7.3 1.94 9.81
5/26/2022 7:00:00 AM 14.23 57.614 0.076 7.35 2.05 9.97
5/26/2022 7:15:00 AM 14.2 57.56 0.075 7.39 2.02 10.13
5/26/2022 7:30:00 AM 14.18 57.524 0.075 7.44 2 10.21
5/26/2022 7:45:00 AM 14.16 57.488 0.075 7.47 2 10.29
5/26/2022 8:00:00 AM 14.16 57.488 0.075 7.52 2.1 10.4
5/26/2022 8:15:00 AM 14.19 57.542 0.074 7.59 2.05 10.53
5/26/2022 8:30:00 AM 14.24 57.632 0.074 7.69 2.03 10.65
5/26/2022 8:45:00 AM 14.32 57.776 0.074 7.81 2.02 10.77
5/26/2022 9:00:00 AM 14.42 57.956 0.073 7.95 2.23 10.88
5/26/2022 9:15:00 AM 14.52 58.136 0.073 8.1 1.99 10.96
5/26/2022 9:30:00 AM 14.62 58.316 0.073 8.24 2.12 11.01
5/26/2022 9:45:00 AM 14.74 58.532 0.073 8.33 2.3 11.02
5/26/2022 10:00:00 AM 14.9 58.82 0.072 8.45 2.35 11.04
5/26/2022 10:15:00 AM 15.08 59.144 0.072 8.56 2.07 11.05
5/26/2022 10:30:00 AM 15.32 59.576 0.072 8.67 2.15 11.08
5/26/2022 10:45:00 AM 15.59 60.062 0.072 8.77 2.08 11.07
5/26/2022 11:00:00 AM 15.87 60.566 0.072 8.86 2.16 11.06
5/26/2022 11:15:00 AM 16.18 61.124 0.071 8.93 2.13 11.05
5/26/2022 11:30:00 AM 16.57 61.826 0.071 9.01 2.11 10.99
5/26/2022 11:45:00 AM 16.97 62.546 0.071 9.05 2.1 10.92
5/26/2022 12:00:00 PM 17.37 63.266 0.071 9.11 2.06 10.85
5/26/2022 12:15:00 PM 17.82 64.076 0.071 9.16 2.21 10.75
5/26/2022 12:30:00 PM 18.2 64.76 0.071 9.19 2.14 10.69
5/26/2022 12:45:00 PM 18.52 65.336 0.071 9.23 2.18 10.6
5/26/2022 1:00:00 PM 19.02 66.236 0.071 9.27 2.19 10.56
5/26/2022 1:15:00 PM 19.43 66.974 0.072 9.3 2.05 10.49
5/26/2022 1:30:00 PM 19.91 67.838 0.072 9.33 2.08 10.41
5/26/2022 1:45:00 PM 20.2 68.36 0.072 9.35 2.14 10.32
5/26/2022 2:00:00 PM 20.23 68.414 0.072 9.35 2.14 10.19
5/26/2022 2:15:00 PM 20.32 68.576 0.072 9.36 2.09 10.09
5/26/2022 2:30:00 PM 20.41 68.738 0.072 9.37 2.07 10.05
5/26/2022 2:45:00 PM 20.64 69.152 0.072 9.39 2.04 10.05
5/26/2022 3:00:00 PM 20.83 69.494 0.072 9.4 2.17 10.02
5/26/2022 3:15:00 PM 20.93 69.674 0.072 9.41 2.14 9.96
5/26/2022 3:30:00 PM 21.18 70.124 0.072 9.42 2.13 9.93
5/26/2022 3:45:00 PM 21.42 70.556 0.072 9.43 2.09 9.89
5/26/2022 4:00:00 PM 21.5 70.7 0.072 9.43 2.19 9.79
5/26/2022 4:15:00 PM 21.55 70.79 0.072 9.41 2.14 9.69
5/26/2022 4:30:00 PM 21.57 70.826 0.072 9.41 2.1 9.62
5/26/2022 4:45:00 PM 21.47 70.646 0.072 9.38 2.14 9.5
5/26/2022 5:00:00 PM 21.51 70.718 0.072 9.36 2.17 9.48
5/26/2022 5:15:00 PM 21.46 70.628 0.072 9.36 2.2 9.45
5/26/2022 5:30:00 PM 21.42 70.556 0.073 9.35 2.17 9.42
5/26/2022 5:45:00 PM 21.35 70.43 0.074 9.32 2.15 9.39
5/26/2022 6:00:00 PM 21.23 70.214 0.077 9.29 2.14 9.31
5/26/2022 6:15:00 PM 21.05 69.89 0.078 9.2 2.19 9.15
5/26/2022 6:30:00 PM 20.9 69.62 0.078 9.14 2.26 9.1
5/26/2022 6:45:00 PM 20.79 69.422 0.077 9.09 2.23 9.11
5/26/2022 7:00:00 PM 20.69 69.242 0.075 9.06 2.22 9.11
5/26/2022 7:15:00 PM 20.59 69.062 0.074 8.97 2.32 8.99
5/26/2022 7:30:00 PM 20.49 68.882 0.073 8.85 2.18 8.89
5/26/2022 7:45:00 PM 20.38 68.684 0.073 8.69 2.12 8.8
5/26/2022 8:00:00 PM 20.3 68.54 0.073 8.46 2.2 8.68
5/26/2022 8:15:00 PM 20.2 68.36 0.074 8.11 2.3 8.51
5/26/2022 8:30:00 PM 20.11 68.198 0.074 7.81 2.15 8.37
5/26/2022 8:45:00 PM 20.01 68.018 0.075 7.64 2.31 8.26
5/26/2022 9:00:00 PM 19.9 67.82 0.076 7.52 2.2 8.18
5/26/2022 9:15:00 PM 19.8 67.64 0.076 7.46 2.24 8.14
5/26/2022 9:30:00 PM 19.7 67.46 0.077 7.41 2.07 8.11
5/26/2022 9:45:00 PM 19.6 67.28 0.078 7.38 2.04 8.11
5/26/2022 10:00:00 PM 19.51 67.118 0.078 7.36 2.05 8.12
5/26/2022 10:15:00 PM 19.41 66.938 0.079 7.34 2.04 8.13
5/26/2022 10:30:00 PM 19.32 66.776 0.079 7.33 2.23 8.16
5/26/2022 10:45:00 PM 19.24 66.632 0.079 7.31 2.07 8.17
5/26/2022 11:00:00 PM 19.16 66.488 0.079 7.3 2.11 8.18
5/26/2022 11:15:00 PM 19.08 66.344 0.08 7.29 2.06 8.19
5/26/2022 11:30:00 PM 19 66.2 0.08 7.28 2.03 8.21
5/26/2022 11:45:00 PM 18.9 66.02 0.079 7.27 2.39 8.23
5/27/2022 12:00:00 AM 18.82 65.876 0.08 7.27 2.22 8.24
5/27/2022 12:15:00 AM 18.75 65.75 0.08 7.25 2.24 8.24
5/27/2022 12:30:00 AM 18.67 65.606 0.08 7.25 2.21 8.25
5/27/2022 12:45:00 AM 18.58 65.444 0.08 7.25 2.21 8.28
5/27/2022 1:00:00 AM 18.5 65.3 0.08 7.24 2.22 8.3
5/27/2022 1:15:00 AM 18.42 65.156 0.08 7.23 2.14 8.31
5/27/2022 1:30:00 AM 18.34 65.012 0.08 7.23 2.1 8.34
5/27/2022 1:45:00 AM 18.27 64.886 0.08 7.24 2.19 8.36
5/27/2022 2:00:00 AM 18.2 64.76 0.08 7.23 2.15 8.4
5/27/2022 2:15:00 AM 18.13 64.634 0.08 7.23 2.03 8.41
5/27/2022 2:30:00 AM 18.06 64.508 0.08 7.23 2.14 8.42
5/27/2022 2:45:00 AM 17.99 64.382 0.08 7.22 2.28 8.44
5/27/2022 3:00:00 AM 17.92 64.256 0.08 7.23 2.04 8.46
5/27/2022 3:15:00 AM 17.85 64.13 0.08 7.22 2.25 8.46
5/27/2022 3:30:00 AM 17.79 64.022 0.08 7.22 2.18 8.48
5/27/2022 3:45:00 AM 17.72 63.896 0.079 7.21 2.35 8.5
5/27/2022 4:00:00 AM 17.66 63.788 0.079 7.21 2.17 8.5
5/27/2022 4:15:00 AM 17.6 63.68 0.079 7.21 2.1 8.53
5/27/2022 4:30:00 AM 17.54 63.572 0.079 7.21 2.05 8.54
5/27/2022 4:45:00 AM 17.48 63.464 0.079 7.2 2.21 8.55
5/27/2022 5:00:00 AM 17.42 63.356 0.079 7.2 2.07 8.57
5/27/2022 5:15:00 AM 17.37 63.266 0.079 7.21 2.13 8.58
5/27/2022 5:30:00 AM 17.31 63.158 0.079 7.21 2.09 8.58
5/27/2022 5:45:00 AM 17.26 63.068 0.079 7.2 2.03 8.61
5/27/2022 6:00:00 AM 17.21 62.978 0.079 7.21 1.92 8.64
5/27/2022 6:15:00 AM 17.17 62.906 0.079 7.21 1.81 8.67
5/27/2022 6:30:00 AM 17.13 62.834 0.079 7.23 1.93 8.73
5/27/2022 6:45:00 AM 17.1 62.78 0.079 7.23 1.87 8.74
5/27/2022 7:00:00 AM 17.06 62.708 0.078 7.24 1.82 8.8
5/27/2022 7:15:00 AM 17.03 62.654 0.078 7.26 1.84 8.86
5/27/2022 7:30:00 AM 17.01 62.618 0.078 7.27 1.81 8.92
5/27/2022 7:45:00 AM 16.99 62.582 0.079 7.3 1.85 9.03
5/27/2022 8:00:00 AM 16.99 62.582 0.08 7.34 1.79 9.2
5/27/2022 8:15:00 AM 17 62.6 0.08 7.41 1.92 9.44
5/27/2022 8:30:00 AM 17.01 62.618 0.08 7.44 1.85 9.51
5/27/2022 8:45:00 AM 17.01 62.618 0.079 7.48 1.86 9.53
5/27/2022 9:00:00 AM 17.04 62.672 0.078 7.54 1.94 9.68
5/27/2022 9:15:00 AM 17.09 62.762 0.077 7.66 1.92 9.88
5/27/2022 9:30:00 AM 17.14 62.852 0.076 7.79 1.92 10.02
5/27/2022 9:45:00 AM 17.17 62.906 0.076 7.86 1.86 10.03
5/27/2022 10:00:00 AM 17.24 63.032 0.075 7.97 2.02 10.12
5/27/2022 10:15:00 AM 17.31 63.158 0.075 8.12 1.84 10.22
5/27/2022 10:30:00 AM 17.34 63.212 0.075 8.18 1.99 10.18
5/27/2022 10:45:00 AM 17.34 63.212 0.075 8.12 1.97 10.06
5/27/2022 11:00:00 AM 17.35 63.23 0.074 8.04 1.97 9.96
5/27/2022 11:15:00 AM 17.35 63.23 0.074 8 2.09 9.93
5/27/2022 11:30:00 AM 17.34 63.212 0.074 7.88 2.25 9.75
5/27/2022 11:45:00 AM 17.37 63.266 0.073 7.82 2.12 9.74
5/27/2022 12:00:00 PM 17.46 63.428 0.072 7.97 2.29 9.94
5/27/2022 12:15:00 PM 17.62 63.716 0.073 8.25 6.61 10.11
5/27/2022 12:30:00 PM 17.7 63.86 0.074 8.43 7.26 10.18
5/27/2022 12:45:00 PM 17.86 64.148 0.075 8.7 5.13 10.28
5/27/2022 1:00:00 PM 18.03 64.454 0.074 8.82 3.75 10.38
5/27/2022 1:15:00 PM 18.13 64.634 0.073 8.87 4.79 10.4
5/27/2022 1:30:00 PM 18.2 64.76 0.073 8.9 7.46 10.4
5/27/2022 1:45:00 PM 18.29 64.922 0.073 8.94 7.48 10.39
5/27/2022 2:00:00 PM 18.4 65.12 0.072 9 9.08 10.38
5/27/2022 2:15:00 PM 18.53 65.354 0.072 9.04 9.06 10.37
5/27/2022 2:30:00 PM 18.69 65.642 0.072 9.09 8.03 10.37
5/27/2022 2:45:00 PM 18.84 65.912 0.072 9.13 8.68 10.35
5/27/2022 3:00:00 PM 19.02 66.236 0.072 9.16 10.25 10.32
5/27/2022 3:15:00 PM 19.12 66.416 0.072 9.18 11.39 10.25
5/27/2022 3:30:00 PM 19.18 66.524 0.071 9.19 10.51 10.17
5/27/2022 3:45:00 PM 19.23 66.614 0.071 9.18 9.7 10.08
5/27/2022 4:00:00 PM 19.28 66.704 0.071 9.17 9.23 10.02
5/27/2022 4:15:00 PM 19.35 66.83 0.071 9.18 9.57 9.99
5/27/2022 4:30:00 PM 19.39 66.902 0.071 9.15 9.66 9.93
5/27/2022 4:45:00 PM 19.41 66.938 0.071 9.14 9.85 9.88
5/27/2022 5:00:00 PM 19.37 66.866 0.071 9.07 8.42 9.7
5/27/2022 5:15:00 PM 19.38 66.884 0.071 9.03 7.28 9.68
5/27/2022 5:30:00 PM 19.38 66.884 0.071 9 6.59 9.67
5/27/2022 5:45:00 PM 19.33 66.794 0.071 8.92 6.59 9.57
5/27/2022 6:00:00 PM 19.26 66.668 0.07 8.85 6.16 9.54
5/27/2022 6:15:00 PM 19.2 66.56 0.07 8.76 6.61 9.47
5/27/2022 6:30:00 PM 19.12 66.416 0.07 8.62 5.67 9.36
5/27/2022 6:45:00 PM 19.01 66.218 0.07 8.38 5.88 9.21
5/27/2022 7:00:00 PM 18.88 65.984 0.07 8.1 5.49 9.08
5/27/2022 7:15:00 PM 18.75 65.75 0.07 7.86 5.15 8.99
5/27/2022 7:30:00 PM 18.63 65.534 0.071 7.7 5.2 8.93
5/27/2022 7:45:00 PM 18.52 65.336 0.071 7.6 4.95 8.87
5/27/2022 8:00:00 PM 18.42 65.156 0.071 7.54 4.87 8.83
5/27/2022 8:15:00 PM 18.31 64.958 0.071 7.47 4.75 8.78
5/27/2022 8:30:00 PM 18.19 64.742 0.071 7.42 4.52 8.74
5/27/2022 8:45:00 PM 18.06 64.508 0.072 7.38 4.32 8.72
5/27/2022 9:00:00 PM 17.94 64.292 0.073 7.34 4.03 8.69
5/27/2022 9:15:00 PM 17.83 64.094 0.074 7.31 4.02 8.67
5/27/2022 9:30:00 PM 17.73 63.914 0.074 7.29 3.92 8.66
5/27/2022 9:45:00 PM 17.63 63.734 0.074 7.28 3.81 8.67
5/27/2022 10:00:00 PM 17.53 63.554 0.073 7.29 3.88 8.68
5/27/2022 10:15:00 PM 17.44 63.392 0.073 7.25 3.71 8.69
5/27/2022 10:30:00 PM 17.34 63.212 0.073 7.25 3.59 8.71
5/27/2022 10:45:00 PM 17.24 63.032 0.073 7.24 3.62 8.73
5/27/2022 11:00:00 PM 17.14 62.852 0.073 7.24 3.49 8.73
5/27/2022 11:15:00 PM 17.06 62.708 0.073 7.23 3.41 8.75
5/27/2022 11:30:00 PM 16.98 62.564 0.073 7.22 3.5 8.78
5/27/2022 11:45:00 PM 16.91 62.438 0.073 7.22 3.49 8.79
5/28/2022 12:00:00 AM 16.85 62.33 0.073 7.22 3.4 8.81
5/28/2022 12:15:00 AM 16.81 62.258 0.073 7.21 3.27 8.83
5/28/2022 12:30:00 AM 16.75 62.15 0.073 7.21 3.57 8.84
5/28/2022 12:45:00 AM 16.7 62.06 0.073 7.21 3.43 8.84
5/28/2022 1:00:00 AM 16.65 61.97 0.073 7.21 3.32 8.86
5/28/2022 1:15:00 AM 16.6 61.88 0.073 7.21 3.44 8.87
5/28/2022 1:30:00 AM 16.55 61.79 0.073 7.21 3.26 8.88
5/28/2022 1:45:00 AM 16.5 61.7 0.073 7.2 3.5 8.88
5/28/2022 2:00:00 AM 16.46 61.628 0.073 7.21 3.64 8.88
5/28/2022 2:15:00 AM 16.42 61.556 0.073 7.2 3.2 8.9
5/28/2022 2:30:00 AM 16.38 61.484 0.073 7.2 3.35 8.89
5/28/2022 2:45:00 AM 16.33 61.394 0.074 7.21 3.27 8.91
5/28/2022 3:00:00 AM 16.29 61.322 0.074 7.2 3.26 8.92
5/28/2022 3:15:00 AM 16.25 61.25 0.074 7.19 3.2 8.93
5/28/2022 3:30:00 AM 16.21 61.178 0.074 7.2 3.11 8.95
5/28/2022 3:45:00 AM 16.16 61.088 0.074 7.19 3.11 8.96
5/28/2022 4:00:00 AM 16.12 61.016 0.074 7.19 3.18 8.97
5/28/2022 4:15:00 AM 16.08 60.944 0.074 7.19 3.24 8.98
5/28/2022 4:30:00 AM 16.03 60.854 0.074 7.19 3.16 8.99
5/28/2022 4:45:00 AM 15.99 60.782 0.074 7.2 3.09 9
5/28/2022 5:00:00 AM 15.96 60.728 0.074 7.19 3.27 9.01
5/28/2022 5:15:00 AM 15.93 60.674 0.074 7.19 3.1 9.02
5/28/2022 5:30:00 AM 15.89 60.602 0.074 7.19 3.03 9.02
5/28/2022 5:45:00 AM 15.86 60.548 0.074 7.19 3.12 9.03
5/28/2022 6:00:00 AM 15.83 60.494 0.074 7.19 3.04 9.05
5/28/2022 6:15:00 AM 15.79 60.422 0.074 7.2 2.9 9.07
5/28/2022 6:30:00 AM 15.76 60.368 0.074 7.2 2.97 9.1
5/28/2022 6:45:00 AM 15.74 60.332 0.074 7.21 2.71 9.16
5/28/2022 7:00:00 AM 15.72 60.296 0.074 7.25 2.61 9.28
5/28/2022 7:15:00 AM 15.71 60.278 0.073 7.29 2.73 9.44
5/28/2022 7:30:00 AM 15.72 60.296 0.073 7.32 2.61 9.57
5/28/2022 7:45:00 AM 15.74 60.332 0.073 7.36 2.74 9.72
5/28/2022 8:00:00 AM 15.76 60.368 0.073 7.42 2.54 9.83
5/28/2022 8:15:00 AM 15.76 60.368 0.073 7.45 2.61 9.81
5/28/2022 8:30:00 AM 15.76 60.368 0.072 7.46 2.51 9.81
5/28/2022 8:45:00 AM 15.79 60.422 0.072 7.5 2.5 9.94
5/28/2022 9:00:00 AM 15.83 60.494 0.072 7.58 2.35 10.06
5/28/2022 9:15:00 AM 15.88 60.584 0.072 7.65 2.49 10.12
5/28/2022 9:30:00 AM 15.96 60.728 0.072 7.76 2.44 10.26
5/28/2022 9:45:00 AM 16.03 60.854 0.072 7.89 2.43 10.35
5/28/2022 10:00:00 AM 16.07 60.926 0.071 7.98 2.45 10.36
5/28/2022 10:15:00 AM 16.09 60.962 0.071 7.98 2.45 10.32
5/28/2022 10:30:00 AM 16.13 61.034 0.071 8.03 2.58 10.33
5/28/2022 10:45:00 AM 16.16 61.088 0.071 8.1 2.44 10.34
5/28/2022 11:00:00 AM 16.17 61.106 0.071 8.06 2.38 10.26
5/28/2022 11:15:00 AM 16.2 61.16 0.071 8.05 2.35 10.24
5/28/2022 11:30:00 AM 16.3 61.34 0.071 8.24 2.36 10.38
5/28/2022 11:45:00 AM 16.5 61.7 0.071 8.46 2.32 10.49
5/28/2022 12:00:00 PM 16.61 61.898 0.071 8.57 2.26 10.5
5/28/2022 12:15:00 PM 16.78 62.204 0.071 8.64 2.35 10.52
5/28/2022 12:30:00 PM 16.95 62.51 0.07 8.76 2.37 10.56
5/28/2022 12:45:00 PM 17.15 62.87 0.07 8.85 2.29 10.56
5/28/2022 1:00:00 PM 17.25 63.05 0.07 8.88 2.26 10.45
5/28/2022 1:15:00 PM 17.3 63.14 0.071 8.87 2.27 10.35
5/28/2022 1:30:00 PM 17.34 63.212 0.072 8.87 2.22 10.27
5/28/2022 1:45:00 PM 17.44 63.392 0.072 8.9 2.56 10.3
5/28/2022 2:00:00 PM 17.52 63.536 0.072 8.96 2.2 10.29
5/28/2022 2:15:00 PM 17.51 63.518 0.072 8.91 2.27 10.14
5/28/2022 2:30:00 PM 17.54 63.572 0.071 8.92 2.16 10.17
5/28/2022 2:45:00 PM 17.76 63.968 0.071 8.99 2.08 10.27
5/28/2022 3:00:00 PM 17.75 63.95 0.071 9 2.16 10.22
5/28/2022 3:15:00 PM 17.72 63.896 0.071 9 2.21 10.24
5/28/2022 3:30:00 PM 17.73 63.914 0.071 9.02 2.12 10.23
5/28/2022 3:45:00 PM 17.76 63.968 0.07 9.04 2.2 10.24
5/28/2022 4:00:00 PM 17.78 64.004 0.071 9.07 2.2 10.22
5/28/2022 4:15:00 PM 17.8 64.04 0.071 9.07 2.18 10.22
5/28/2022 4:30:00 PM 17.78 64.004 0.071 9.05 2.21 10.13
5/28/2022 4:45:00 PM 17.75 63.95 0.071 9.02 2.55 10.04
5/28/2022 5:00:00 PM 17.75 63.95 0.071 9 2.14 10.02
5/28/2022 5:15:00 PM 17.78 64.004 0.071 9.03 2.07 10.05
5/28/2022 5:30:00 PM 17.79 64.022 0.071 9.02 2.05 10.02
5/28/2022 5:45:00 PM 17.81 64.058 0.071 8.98 2.03 9.96
5/28/2022 6:00:00 PM 17.82 64.076 0.071 8.96 2.14 9.96
5/28/2022 6:15:00 PM 17.83 64.094 0.071 8.95 2.61 9.93
5/28/2022 6:30:00 PM 17.82 64.076 0.071 8.9 2.02 9.86
5/28/2022 6:45:00 PM 17.81 64.058 0.071 8.84 2.1 9.78
5/28/2022 7:00:00 PM 17.77 63.986 0.071 8.75 2 9.68
5/28/2022 7:15:00 PM 17.72 63.896 0.071 8.59 2.08 9.57
5/28/2022 7:30:00 PM 17.64 63.752 0.071 8.36 2.18 9.44
5/28/2022 7:45:00 PM 17.56 63.608 0.072 8.08 1.99 9.32
5/28/2022 8:00:00 PM 17.49 63.482 0.072 7.87 2.02 9.23
5/28/2022 8:15:00 PM 17.42 63.356 0.072 7.7 1.94 9.13
5/28/2022 8:30:00 PM 17.35 63.23 0.073 7.58 2.13 9.03
5/28/2022 8:45:00 PM 17.28 63.104 0.074 7.51 2.01 8.96
5/28/2022 9:00:00 PM 17.2 62.96 0.074 7.45 3.46 8.9
5/28/2022 9:15:00 PM 17.13 62.834 0.074 7.4 2.07 8.86
5/28/2022 9:30:00 PM 17.04 62.672 0.075 7.38 2.16 8.84
5/28/2022 9:45:00 PM 16.96 62.528 0.075 7.35 2.02 8.84
5/28/2022 10:00:00 PM 16.88 62.384 0.075 7.33 2.43 8.85
5/28/2022 10:15:00 PM 16.79 62.222 0.076 7.32 2.1 8.86
5/28/2022 10:30:00 PM 16.69 62.042 0.076 7.31 1.96 8.87
5/28/2022 10:45:00 PM 16.6 61.88 0.076 7.3 2.49 8.88
5/28/2022 11:00:00 PM 16.51 61.718 0.076 7.28 2.17 8.89
5/28/2022 11:15:00 PM 16.41 61.538 0.076 7.28 2.14 8.9
5/28/2022 11:30:00 PM 16.32 61.376 0.076 7.27 2 8.93
5/28/2022 11:45:00 PM 16.22 61.196 0.076 7.27 2.13 8.96
5/29/2022 12:00:00 AM 16.12 61.016 0.076 7.26 2.13 8.98
5/29/2022 12:15:00 AM 16 60.8 0.076 7.25 2.3 9.02
5/29/2022 12:30:00 AM 15.91 60.638 0.076 7.24 2.18 9.04
5/29/2022 12:45:00 AM 15.84 60.512 0.076 7.25 2.15 9.05
5/29/2022 1:00:00 AM 15.76 60.368 0.076 7.25 2.08 9.07
5/29/2022 1:15:00 AM 15.68 60.224 0.076 7.25 2.17 9.09
5/29/2022 1:30:00 AM 15.6 60.08 0.076 7.24 2.96 9.11
5/29/2022 1:45:00 AM 15.53 59.954 0.076 7.24 2.23 9.13
5/29/2022 2:00:00 AM 15.46 59.828 0.076 7.24 2.24 9.14
5/29/2022 2:15:00 AM 15.39 59.702 0.077 7.23 2.26 9.18
5/29/2022 2:30:00 AM 15.34 59.612 0.077 7.23 2.13 9.19
5/29/2022 2:45:00 AM 15.28 59.504 0.077 7.23 2.22 9.21
5/29/2022 3:00:00 AM 15.22 59.396 0.077 7.23 2.13 9.22
5/29/2022 3:15:00 AM 15.15 59.27 0.077 7.22 2.22 9.23
5/29/2022 3:30:00 AM 15.1 59.18 0.077 7.22 2.41 9.24
5/29/2022 3:45:00 AM 15.04 59.072 0.077 7.22 2.15 9.25
5/29/2022 4:00:00 AM 14.99 58.982 0.077 7.22 4.71 9.26
5/29/2022 4:15:00 AM 14.94 58.892 0.076 7.22 2.19 9.28
5/29/2022 4:30:00 AM 14.89 58.802 0.076 7.22 2.07 9.3
5/29/2022 4:45:00 AM 14.84 58.712 0.076 7.21 2.19 9.31
5/29/2022 5:00:00 AM 14.8 58.64 0.076 7.22 2.18 9.33
5/29/2022 5:15:00 AM 14.74 58.532 0.076 7.22 2.17 9.34
5/29/2022 5:30:00 AM 14.69 58.442 0.076 7.21 2.14 9.36
5/29/2022 5:45:00 AM 14.64 58.352 0.076 7.22 2.1 9.37
5/29/2022 6:00:00 AM 14.59 58.262 0.076 7.22 2.04 9.41
5/29/2022 6:15:00 AM 14.54 58.172 0.076 7.23 2.02 9.47
5/29/2022 6:30:00 AM 14.5 58.1 0.076 7.24 1.88 9.54
5/29/2022 6:45:00 AM 14.46 58.028 0.076 7.27 1.93 9.63
5/29/2022 7:00:00 AM 14.43 57.974 0.076 7.3 1.96 9.71
5/29/2022 7:15:00 AM 14.4 57.92 0.076 7.32 1.89 9.81
5/29/2022 7:30:00 AM 14.37 57.866 0.076 7.36 1.88 9.91
5/29/2022 7:45:00 AM 14.36 57.848 0.076 7.39 1.86 10.02
5/29/2022 8:00:00 AM 14.35 57.83 0.076 7.43 2 10.13
5/29/2022 8:15:00 AM 14.35 57.83 0.076 7.48 1.83 10.26
5/29/2022 8:30:00 AM 14.37 57.866 0.076 7.55 1.91 10.42
5/29/2022 8:45:00 AM 14.41 57.938 0.075 7.62 1.87 10.54
5/29/2022 9:00:00 AM 14.45 58.01 0.075 7.71 1.87 10.63
5/29/2022 9:15:00 AM 14.5 58.1 0.074 7.8 1.87 10.74
5/29/2022 9:30:00 AM 14.57 58.226 0.074 7.91 1.96 10.81
5/29/2022 9:45:00 AM 14.63 58.334 0.074 8 1.95 10.85
5/29/2022 10:00:00 AM 14.76 58.568 0.073 8.12 2.17 10.9
5/29/2022 10:15:00 AM 14.93 58.874 0.073 8.25 1.85 10.94
5/29/2022 10:30:00 AM 15.11 59.198 0.073 8.34 1.84 10.91
5/29/2022 10:45:00 AM 15.36 59.648 0.073 8.4 1.87 10.88
5/29/2022 11:00:00 AM 15.64 60.152 0.072 8.45 1.83 10.81
5/29/2022 11:15:00 AM 15.95 60.71 0.072 8.51 1.88 10.76
5/29/2022 11:30:00 AM 16.29 61.322 0.073 8.57 2.08 10.7
5/29/2022 11:45:00 AM 16.66 61.988 0.075 8.64 1.92 10.66
5/29/2022 12:00:00 PM 17.06 62.708 0.076 8.7 2 10.58
5/29/2022 12:15:00 PM 17.51 63.518 0.076 8.78 1.93 10.54
5/29/2022 12:30:00 PM 17.94 64.292 0.075 8.84 2.12 10.46
5/29/2022 12:45:00 PM 18.48 65.264 0.074 8.91 1.93 10.4
5/29/2022 1:00:00 PM 19.01 66.218 0.073 8.98 1.86 10.35
5/29/2022 1:15:00 PM 19.56 67.208 0.073 9.04 1.89 10.28
5/29/2022 1:30:00 PM 20.07 68.126 0.073 9.08 2.08 10.2
5/29/2022 1:45:00 PM 20.52 68.936 0.073 9.11 1.99 10.08
5/29/2022 2:00:00 PM 20.89 69.602 0.073 9.14 1.96 10.03
5/29/2022 2:15:00 PM 21.19 70.142 0.073 9.17 1.91 9.97
5/29/2022 2:30:00 PM 21.47 70.646 0.073 9.18 1.95 9.89
5/29/2022 2:45:00 PM 21.71 71.078 0.073 9.19 1.85 9.8
5/29/2022 3:00:00 PM 21.91 71.438 0.073 9.2 1.86 9.74
5/29/2022 3:15:00 PM 21.97 71.546 0.073 9.21 2.01 9.67
5/29/2022 3:30:00 PM 22.02 71.636 0.073 9.21 1.94 9.63
5/29/2022 3:45:00 PM 21.98 71.564 0.073 9.21 1.95 9.57
5/29/2022 4:00:00 PM 22.04 71.672 0.073 9.23 1.95 9.55
5/29/2022 4:15:00 PM 22.1 71.78 0.073 9.24 1.89 9.52
5/29/2022 4:30:00 PM 22.12 71.816 0.073 9.23 1.95 9.41
5/29/2022 4:45:00 PM 22.11 71.798 0.073 9.2 2.1 9.27
5/29/2022 5:00:00 PM 22.07 71.726 0.073 9.16 2.08 9.15
5/29/2022 5:15:00 PM 22.04 71.672 0.073 9.12 2.15 9.05
5/29/2022 5:30:00 PM 21.99 71.582 0.073 9.07 2.14 9
5/29/2022 5:45:00 PM 21.88 71.384 0.073 9 2.41 8.91
5/29/2022 6:00:00 PM 21.7 71.06 0.073 8.88 2.05 8.82
5/29/2022 6:15:00 PM 21.48 70.664 0.073 8.72 2.28 8.72
5/29/2022 6:30:00 PM 21.29 70.32201 0.073 8.52 2.15 8.64
5/29/2022 6:45:00 PM 21.13 70.034 0.074 8.31 1.99 8.58
5/29/2022 7:00:00 PM 21 69.8 0.074 8.11 2.64 8.56
5/29/2022 7:15:00 PM 20.92 69.656 0.074 7.97 2.01 8.55
5/29/2022 7:30:00 PM 20.82 69.476 0.074 7.81 1.95 8.48
5/29/2022 7:45:00 PM 20.74 69.332 0.075 7.69 1.94 8.4
5/29/2022 8:00:00 PM 20.67 69.206 0.075 7.6 1.89 8.33
5/29/2022 8:15:00 PM 20.59 69.062 0.076 7.52 1.96 8.26
5/29/2022 8:30:00 PM 20.51 68.918 0.076 7.47 2.09 8.19
5/29/2022 8:45:00 PM 20.41 68.738 0.077 7.41 2.05 8.14
5/29/2022 9:00:00 PM 20.28 68.504 0.077 7.37 1.94 8.11
5/29/2022 9:15:00 PM 20.15 68.27 0.078 7.34 1.94 8.08
5/29/2022 9:30:00 PM 20.02 68.036 0.078 7.32 2.03 8.09
5/29/2022 9:45:00 PM 19.87 67.766 0.079 7.3 2.44 8.1
5/29/2022 10:00:00 PM 19.72 67.496 0.079 7.3 2.09 8.1
5/29/2022 10:15:00 PM 19.57 67.226 0.079 7.28 1.96 8.14
5/29/2022 10:30:00 PM 19.41 66.938 0.08 7.27 1.98 8.17
5/29/2022 10:45:00 PM 19.25 66.65 0.08 7.26 2.05 8.2
5/29/2022 11:00:00 PM 19.09 66.362 0.08 7.26 2.22 8.23
5/29/2022 11:15:00 PM 18.94 66.092 0.08 7.25 2.14 8.27
5/29/2022 11:30:00 PM 18.78 65.804 0.08 7.24 2.03 8.31
5/29/2022 11:45:00 PM 18.62 65.516 0.08 7.24 2.31 8.32
5/30/2022 12:00:00 AM 18.45 65.21 0.08 7.24 2.12 8.38
5/30/2022 12:15:00 AM 18.29 64.922 0.08 7.24 1.98 8.42
5/30/2022 12:30:00 AM 18.13 64.634 0.08 7.24 2 8.46
5/30/2022 12:45:00 AM 17.98 64.364 0.08 7.24 2.03 8.49
5/30/2022 1:00:00 AM 17.82 64.076 0.08 7.23 2.1 8.53
5/30/2022 1:15:00 AM 17.67 63.806 0.08 7.23 2.1 8.57
5/30/2022 1:30:00 AM 17.52 63.536 0.08 7.23 2.1 8.6
5/30/2022 1:45:00 AM 17.38 63.284 0.08 7.22 2.02 8.65
5/30/2022 2:00:00 AM 17.24 63.032 0.08 7.22 2.05 8.67
5/30/2022 2:15:00 AM 17.11 62.798 0.08 7.22 2.08 8.7
5/30/2022 2:30:00 AM 16.99 62.582 0.08 7.21 2.03 8.74
5/30/2022 2:45:00 AM 16.85 62.33 0.08 7.22 2.06 8.79
5/30/2022 3:00:00 AM 16.71 62.078 0.08 7.21 2.72 8.82
5/30/2022 3:15:00 AM 16.59 61.862 0.08 7.22 2.09 8.84
5/30/2022 3:30:00 AM 16.46 61.628 0.08 7.21 4.04 8.87
5/30/2022 3:45:00 AM 16.35 61.43 0.08 7.21 2.11 8.9
5/30/2022 4:00:00 AM 16.23 61.214 0.08 7.21 1.94 8.95
5/30/2022 4:15:00 AM 16.12 61.016 0.08 7.2 1.94 8.98
5/30/2022 4:30:00 AM 16.01 60.818 0.079 7.21 2.18 9.01
5/30/2022 4:45:00 AM 15.89 60.602 0.079 7.21 2.23 9.03
5/30/2022 5:00:00 AM 15.78 60.404 0.079 7.21 2.14 9.05
5/30/2022 5:15:00 AM 15.69 60.242 0.08 7.21 1.95 9.07
5/30/2022 5:30:00 AM 15.6 60.08 0.08 7.2 2.09 9.11
5/30/2022 5:45:00 AM 15.52 59.936 0.081 7.21 2.14 9.14
5/30/2022 6:00:00 AM 15.44 59.792 0.082 7.21 1.92 9.17
5/30/2022 6:15:00 AM 15.37 59.666 0.082 7.22 2.15 9.24
5/30/2022 6:30:00 AM 15.31 59.558 0.082 7.24 1.79 9.32
5/30/2022 6:45:00 AM 15.26 59.468 0.081 7.26 2.12 9.43
5/30/2022 7:00:00 AM 15.21 59.378 0.08 7.29 1.86 9.54
5/30/2022 7:15:00 AM 15.18 59.324 0.08 7.33 1.86 9.7
5/30/2022 7:30:00 AM 15.17 59.306 0.079 7.38 1.84 9.89
5/30/2022 7:45:00 AM 15.15 59.27 0.079 7.43 1.86 10.03
5/30/2022 8:00:00 AM 15.16 59.288 0.078 7.49 1.93 10.17
5/30/2022 8:15:00 AM 15.19 59.342 0.078 7.56 1.84 10.29
5/30/2022 8:30:00 AM 15.21 59.378 0.078 7.6 1.97 10.35
5/30/2022 8:45:00 AM 15.26 59.468 0.078 7.67 1.77 10.43
5/30/2022 9:00:00 AM 15.33 59.594 0.077 7.74 1.92 10.52
5/30/2022 9:15:00 AM 15.41 59.738 0.077 7.84 1.9 10.6
5/30/2022 9:30:00 AM 15.52 59.936 0.077 7.89 1.87 10.59
5/30/2022 9:45:00 AM 15.62 60.116 0.077 7.92 1.73 10.55
5/30/2022 10:00:00 AM 15.77 60.386 0.077 7.94 1.84 10.52
5/30/2022 10:15:00 AM 15.95 60.71 0.077 7.96 1.79 10.5
5/30/2022 10:30:00 AM 16.18 61.124 0.076 8.04 1.89 10.5
5/30/2022 10:45:00 AM 16.44 61.592 0.076 8.09 1.91 10.46
5/30/2022 11:00:00 AM 16.75 62.15 0.076 8.18 1.95 10.46
5/30/2022 11:15:00 AM 17.08 62.744 0.076 8.25 1.76 10.39
5/30/2022 11:30:00 AM 17.45 63.41 0.076 8.35 1.83 10.38
5/30/2022 11:45:00 AM 17.86 64.148 0.075 8.45 1.79 10.33
5/30/2022 12:00:00 PM 18.33 64.994 0.075 8.56 1.85 10.31
5/30/2022 12:15:00 PM 18.81 65.858 0.075 8.65 1.91 10.26
5/30/2022 12:30:00 PM 19.34 66.812 0.075 8.74 1.88 10.21
5/30/2022 12:45:00 PM 19.88 67.784 0.075 8.82 1.92 10.11
5/30/2022 1:00:00 PM 20.43 68.774 0.075 8.9 2.45 10.05
5/30/2022 1:15:00 PM 20.93 69.674 0.075 8.94 2.25 9.95
5/30/2022 1:30:00 PM 21.46 70.628 0.075 9 2.11 9.87
5/30/2022 1:45:00 PM 21.94 71.492 0.075 9.03 2.09 9.78
5/30/2022 2:00:00 PM 22.37 72.266 0.075 9.06 2.16 9.65
5/30/2022 2:15:00 PM 22.74 72.932 0.075 9.09 1.96 9.59
5/30/2022 2:30:00 PM 23.07 73.526 0.075 9.12 1.89 9.5
5/30/2022 2:45:00 PM 23.33 73.994 0.075 9.13 2.21 9.42
5/30/2022 3:00:00 PM 23.52 74.336 0.076 9.13 1.88 9.32
5/30/2022 3:15:00 PM 23.69 74.642 0.076 9.14 2.06 9.24
5/30/2022 3:30:00 PM 23.79 74.82201 0.076 9.13 2.01 9.15
5/30/2022 3:45:00 PM 23.86 74.948 0.076 9.13 1.91 9.06
5/30/2022 4:00:00 PM 23.88 74.984 0.076 9.12 1.97 8.97
5/30/2022 4:15:00 PM 23.88 74.984 0.076 9.09 2.03 8.87
5/30/2022 4:30:00 PM 23.88 74.984 0.075 9.06 1.96 8.77
5/30/2022 4:45:00 PM 23.88 74.984 0.075 9.02 1.95 8.67
5/30/2022 5:00:00 PM 23.89 75.002 0.075 8.99 1.99 8.6
5/30/2022 5:15:00 PM 23.88 74.984 0.075 8.94 1.98 8.51
5/30/2022 5:30:00 PM 23.85 74.93 0.075 8.87 1.94 8.43
5/30/2022 5:45:00 PM 23.78 74.804 0.076 8.79 1.96 8.36
5/30/2022 6:00:00 PM 23.64 74.552 0.076 8.64 2 8.25
5/30/2022 6:15:00 PM 23.47 74.246 0.076 8.43 1.94 8.17
5/30/2022 6:30:00 PM 23.3 73.94 0.076 8.17 2.01 8.09
5/30/2022 6:45:00 PM 23.15 73.67 0.077 7.97 1.96 8.05
5/30/2022 7:00:00 PM 23.03 73.454 0.077 7.8 1.93 8
5/30/2022 7:15:00 PM 22.91 73.238 0.077 7.7 2.01 7.98
5/30/2022 7:30:00 PM 22.81 73.058 0.078 7.61 1.95 7.93
5/30/2022 7:45:00 PM 22.72 72.896 0.078 7.54 2.02 7.88
5/30/2022 8:00:00 PM 22.63 72.734 0.078 7.48 1.94 7.83
5/30/2022 8:15:00 PM 22.55 72.59 0.079 7.43 1.98 7.78
5/30/2022 8:30:00 PM 22.46 72.42799 0.079 7.39 1.95 7.72
5/30/2022 8:45:00 PM 22.36 72.248 0.079 7.35 2.49 7.66
5/30/2022 9:00:00 PM 22.25 72.05 0.08 7.32 1.99 7.64
5/30/2022 9:15:00 PM 22.14 71.852 0.08 7.29 2.39 7.62
5/30/2022 9:30:00 PM 22.02 71.636 0.081 7.28 2.17 7.62
5/30/2022 9:45:00 PM 21.89 71.402 0.081 7.26 2.23 7.61
5/30/2022 10:00:00 PM 21.76 71.168 0.082 7.25 2.18 7.63
5/30/2022 10:15:00 PM 21.63 70.934 0.082 7.24 2.2 7.64
5/30/2022 10:30:00 PM 21.49 70.682 0.083 7.24 2.12 7.68
5/30/2022 10:45:00 PM 21.35 70.43 0.084 7.24 2.21 7.71
5/30/2022 11:00:00 PM 21.21 70.17799 0.085 7.23 2.21 7.73
5/30/2022 11:15:00 PM 21.07 69.926 0.087 7.23 2.29 7.76
5/30/2022 11:30:00 PM 20.94 69.692 0.088 7.22 2.34 7.79
5/30/2022 11:45:00 PM 20.8 69.44 0.088 7.22 2.18 7.83
5/31/2022 12:00:00 AM 20.65 69.17 0.087 7.23 2.21 7.87
5/31/2022 12:15:00 AM 20.52 68.936 0.086 7.22 2.23 7.89
5/31/2022 12:30:00 AM 20.37 68.666 0.085 7.22 2.14 7.92
5/31/2022 12:45:00 AM 20.22 68.396 0.085 7.22 2.35 7.96
5/31/2022 1:00:00 AM 20.08 68.144 0.084 7.22 2.15 8
5/31/2022 1:15:00 AM 19.93 67.874 0.084 7.22 2.16 8.02
5/31/2022 1:30:00 AM 19.78 67.604 0.084 7.21 2.27 8.04
5/31/2022 1:45:00 AM 19.64 67.352 0.084 7.21 2.1 8.09
5/31/2022 2:00:00 AM 19.5 67.1 0.084 7.21 2.29 8.13
5/31/2022 2:15:00 AM 19.37 66.866 0.084 7.21 2.57 8.16
5/31/2022 2:30:00 AM 19.23 66.614 0.084 7.2 2.19 8.19
5/31/2022 2:45:00 AM 19.09 66.362 0.084 7.21 2.25 8.21
5/31/2022 3:00:00 AM 18.95 66.11 0.084 7.2 2.63 8.26
5/31/2022 3:15:00 AM 18.8 65.84 0.084 7.21 2.27 8.3
5/31/2022 3:30:00 AM 18.68 65.624 0.084 7.2 2.16 8.34
5/31/2022 3:45:00 AM 18.57 65.426 0.084 7.2 2.26 8.36
5/31/2022 4:00:00 AM 18.47 65.246 0.084 7.2 2.35 8.37
5/31/2022 4:15:00 AM 18.37 65.066 0.084 7.2 2.24 8.39
5/31/2022 4:30:00 AM 18.28 64.904 0.084 7.2 2.25 8.42
5/31/2022 4:45:00 AM 18.19 64.742 0.084 7.2 2.14 8.45
5/31/2022 5:00:00 AM 18.1 64.58 0.084 7.2 2.26 8.48
5/31/2022 5:15:00 AM 18.01 64.418 0.084 7.2 2.15 8.5
5/31/2022 5:30:00 AM 17.93 64.274 0.084 7.2 2.24 8.51
5/31/2022 5:45:00 AM 17.85 64.13 0.084 7.2 2.1 8.54
5/31/2022 6:00:00 AM 17.76 63.968 0.083 7.21 2.04 8.57
5/31/2022 6:15:00 AM 17.68 63.824 0.083 7.21 2.14 8.63
5/31/2022 6:30:00 AM 17.61 63.698 0.083 7.23 2.08 8.72
5/31/2022 6:45:00 AM 17.56 63.608 0.083 7.25 1.99 8.82
5/31/2022 7:00:00 AM 17.53 63.554 0.083 7.28 1.94 8.93
5/31/2022 7:15:00 AM 17.5 63.5 0.083 7.3 2.03 9.05
5/31/2022 7:30:00 AM 17.47 63.446 0.083 7.33 1.93 9.18
5/31/2022 7:45:00 AM 17.46 63.428 0.083 7.37 2.03 9.3
5/31/2022 8:00:00 AM 17.46 63.428 0.082 7.41 1.95 9.41
5/31/2022 8:15:00 AM 17.46 63.428 0.082 7.46 2.01 9.52
5/31/2022 8:30:00 AM 17.5 63.5 0.082 7.51 2.01 9.64
5/31/2022 8:45:00 AM 17.54 63.572 0.081 7.54 1.92 9.68
5/31/2022 9:00:00 AM 17.6 63.68 0.081 7.56 2.11 9.64
5/31/2022 9:15:00 AM 17.67 63.806 0.081 7.57 2.4 9.64
5/31/2022 9:30:00 AM 17.78 64.004 0.081 7.6 3.12 9.67
5/31/2022 9:45:00 AM 17.92 64.256 0.08 7.63 2.12 9.71
5/31/2022 10:00:00 AM 18.09 64.562 0.08 7.66 1.98 9.73
5/31/2022 10:15:00 AM 18.29 64.922 0.08 7.72 2.38 9.75
5/31/2022 10:30:00 AM 18.51 65.318 0.08 7.78 2.29 9.76
5/31/2022 10:45:00 AM 18.75 65.75 0.08 7.83 1.9 9.79
5/31/2022 11:00:00 AM 19.02 66.236 0.08 7.91 2.13 9.8
5/31/2022 11:15:00 AM 19.34 66.812 0.08 8.02 1.86 9.83
5/31/2022 11:30:00 AM 19.62 67.316 0.079 8.1 1.93 9.81
5/31/2022 11:45:00 AM 19.98 67.964 0.079 8.2 2.01 9.79
5/31/2022 12:00:00 PM 20.11 68.198 0.079 8.26 2.01 9.72
5/31/2022 12:15:00 PM 20.37 68.666 0.079 8.33 1.92 9.66
5/31/2022 12:30:00 PM 20.68 69.224 0.079 8.41 1.96 9.66
5/31/2022 12:45:00 PM 21.22 70.196 0.078 8.53 1.95 9.64
5/31/2022 1:00:00 PM 21.81 71.258 0.079 8.62 2.07 9.59
5/31/2022 1:15:00 PM 22.06 71.708 0.079 8.66 2.06 9.46
5/31/2022 1:30:00 PM 22.48 72.464 0.079 8.7 1.93 9.35
5/31/2022 1:45:00 PM 22.56 72.608 0.078 8.73 2.06 9.24
5/31/2022 2:00:00 PM 22.61 72.698 0.078 8.72 2.03 9.15
5/31/2022 2:15:00 PM 22.61 72.698 0.078 8.73 2.08 9.07
5/31/2022 2:30:00 PM 22.66 72.788 0.078 8.67 2.2 8.93
5/31/2022 2:45:00 PM 22.69 72.842 0.078 8.68 2.11 8.93
5/31/2022 3:00:00 PM 22.93 73.274 0.078 8.75 2 9.02
5/31/2022 3:15:00 PM 23.22 73.796 0.078 8.82 2.05 9.04
5/31/2022 3:30:00 PM 23.46 74.228 0.078 8.83 2.2 9.01
5/31/2022 3:45:00 PM 23.6 74.48 0.078 8.86 1.93 8.95
5/31/2022 4:00:00 PM 23.62 74.516 0.078 8.84 3.29 8.86
5/31/2022 4:15:00 PM 23.64 74.552 0.078 8.85 2.08 8.81
5/31/2022 4:30:00 PM 23.59 74.462 0.078 8.82 2.05 8.72
5/31/2022 4:45:00 PM 23.55 74.39 0.078 8.8 2.04 8.67
5/31/2022 5:00:00 PM 23.51 74.318 0.078 8.76 2.06 8.59
5/31/2022 5:15:00 PM 23.5 74.3 0.078 8.74 2.08 8.53
5/31/2022 5:30:00 PM 23.52 74.336 0.078 8.7 2.39 8.49
5/31/2022 5:45:00 PM 23.52 74.336 0.078 8.64 2.04 8.45
5/31/2022 6:00:00 PM 23.44 74.192 0.078 8.53 2.06 8.35
5/31/2022 6:15:00 PM 23.34 74.012 0.078 8.38 2.08 8.26
5/31/2022 6:30:00 PM 23.21 73.778 0.078 8.19 2.06 8.16
5/31/2022 6:45:00 PM 23.11 73.598 0.079 8.01 2.05 8.1
5/31/2022 7:00:00 PM 23.03 73.454 0.079 7.88 2.12 8.06
5/31/2022 7:15:00 PM 22.94 73.292 0.079 7.74 2.08 8
5/31/2022 7:30:00 PM 22.84 73.112 0.08 7.64 2.14 7.94
5/31/2022 7:45:00 PM 22.75 72.95 0.08 7.57 2.03 7.9
5/31/2022 8:00:00 PM 22.66 72.788 0.082 7.5 2.1 7.84
5/31/2022 8:15:00 PM 22.59 72.662 0.083 7.45 2.16 7.78
5/31/2022 8:30:00 PM 22.52 72.536 0.084 7.41 2.08 7.72
5/31/2022 8:45:00 PM 22.45 72.41 0.084 7.36 2.68 7.64
5/31/2022 9:00:00 PM 22.38 72.284 0.084 7.32 2.08 7.61
5/31/2022 9:15:00 PM 22.3 72.14 0.084 7.3 2.01 7.58
5/31/2022 9:30:00 PM 22.21 71.978 0.084 7.27 2.03 7.57
5/31/2022 9:45:00 PM 22.12 71.816 0.084 7.27 2.22 7.57
5/31/2022 10:00:00 PM 22.02 71.636 0.084 7.26 2.02 7.57
5/31/2022 10:15:00 PM 21.91 71.438 0.084 7.24 2.06 7.58
5/31/2022 10:30:00 PM 21.8 71.24 0.085 7.24 2.1 7.59
5/31/2022 10:45:00 PM 21.69 71.042 0.085 7.24 1.92 7.62
5/31/2022 11:00:00 PM 21.57 70.826 0.085 7.24 1.99 7.64
5/31/2022 11:15:00 PM 21.46 70.628 0.086 7.24 2.04 7.67
5/31/2022 11:30:00 PM 21.34 70.412 0.086 7.23 1.92 7.69
5/31/2022 11:45:00 PM 21.22 70.196 0.086 7.22 2.19 7.72
6/1/2022 12:00:00 AM 21.09 69.962 0.086 7.23 2.1 7.74
6/1/2022 12:15:00 AM 20.98 69.764 0.086 7.23 1.92 7.76
6/1/2022 12:30:00 AM 20.86 69.548 0.087 7.23 2.08 7.8
6/1/2022 12:45:00 AM 20.74 69.332 0.087 7.23 2.15 7.84
6/1/2022 1:00:00 AM 20.62 69.116 0.087 7.22 1.93 7.86
6/1/2022 1:15:00 AM 20.51 68.918 0.087 7.23 2.03 7.88
6/1/2022 1:30:00 AM 20.38 68.684 0.087 7.23 1.98 7.9
6/1/2022 1:45:00 AM 20.26 68.468 0.087 7.22 2.14 7.94
6/1/2022 2:00:00 AM 20.14 68.252 0.087 7.22 2.13 7.97
6/1/2022 2:15:00 AM 20.02 68.036 0.087 7.22 2.06 8
6/1/2022 2:30:00 AM 19.9 67.82 0.087 7.22 2.24 8.03
6/1/2022 2:45:00 AM 19.79 67.622 0.087 7.22 2.07 8.04
6/1/2022 3:00:00 AM 19.67 67.406 0.087 7.22 2.52 8.08
6/1/2022 3:15:00 AM 19.56 67.208 0.087 7.22 2.41 8.11
6/1/2022 3:30:00 AM 19.44 66.992 0.087 7.22 2.14 8.14
6/1/2022 3:45:00 AM 19.34 66.812 0.087 7.22 2.16 8.15
6/1/2022 4:00:00 AM 19.23 66.614 0.087 7.22 2.09 8.18
6/1/2022 4:15:00 AM 19.14 66.452 0.087 7.21 2.22 8.19
6/1/2022 4:30:00 AM 19.04 66.272 0.087 7.21 2.19 8.22
6/1/2022 4:45:00 AM 18.95 66.11 0.087 7.21 2.39 8.24
6/1/2022 5:00:00 AM 18.87 65.966 0.087 7.21 2.79 8.27
6/1/2022 5:15:00 AM 18.79 65.82201 0.087 7.21 3.58 8.29
6/1/2022 5:30:00 AM 18.71 65.67799 0.087 7.21 2.18 8.32
6/1/2022 5:45:00 AM 18.63 65.534 0.086 7.22 2.03 8.33
6/1/2022 6:00:00 AM 18.56 65.408 0.086 7.22 1.99 8.36
6/1/2022 6:15:00 AM 18.48 65.264 0.086 7.23 2.18 8.4
6/1/2022 6:30:00 AM 18.41 65.138 0.086 7.23 1.96 8.47
6/1/2022 6:45:00 AM 18.34 65.012 0.086 7.25 4.14 8.56
6/1/2022 7:00:00 AM 18.28 64.904 0.086 7.28 1.98 8.66
6/1/2022 7:15:00 AM 18.24 64.832 0.086 7.3 1.83 8.79
6/1/2022 7:30:00 AM 18.23 64.814 0.086 7.33 1.74 8.91
6/1/2022 7:45:00 AM 18.21 64.778 0.086 7.36 1.71 8.97
6/1/2022 8:00:00 AM 18.21 64.778 0.085 7.38 1.95 9.03
6/1/2022 8:15:00 AM 18.22 64.796 0.085 7.4 1.88 9.09
6/1/2022 8:30:00 AM 18.26 64.868 0.085 7.42 1.8 9.14
6/1/2022 8:45:00 AM 18.33 64.994 0.085 7.45 1.62 9.2
6/1/2022 9:00:00 AM 18.4 65.12 0.085 7.48 1.69 9.24
6/1/2022 9:15:00 AM 18.5 65.3 0.085 7.51 1.73 9.29
6/1/2022 9:30:00 AM 18.62 65.516 0.084 7.54 2.42 9.35
6/1/2022 9:45:00 AM 18.76 65.768 0.084 7.58 1.85 9.42
6/1/2022 10:00:00 AM 18.91 66.038 0.084 7.63 2.92 9.45
6/1/2022 10:15:00 AM 19.07 66.326 0.085 7.68 1.63 9.5
6/1/2022 10:30:00 AM 19.25 66.65 0.087 7.73 2.18 9.54
6/1/2022 10:45:00 AM 19.46 67.028 0.088 7.81 1.79 9.59
6/1/2022 11:00:00 AM 19.63 67.334 0.087 7.88 1.56 9.57
6/1/2022 11:15:00 AM 19.9 67.82 0.086 7.94 1.64 9.58
6/1/2022 11:30:00 AM 20.14 68.252 0.085 7.99 1.65 9.57
6/1/2022 11:45:00 AM 20.46 68.828 0.084 8.07 1.69 9.5
6/1/2022 12:00:00 PM 20.58 69.044 0.083 8.06 1.74 9.4
6/1/2022 12:15:00 PM 20.68 69.224 0.082 8.02 1.69 9.28
6/1/2022 12:30:00 PM 20.98 69.764 0.082 8.05 1.55 9.26
6/1/2022 12:45:00 PM 21.14 70.052 0.081 8.17 1.66 9.29
6/1/2022 1:00:00 PM 21.43 70.574 0.081 8.22 1.52 9.24
6/1/2022 1:15:00 PM 21.68 71.024 0.081 8.3 1.68 9.24
6/1/2022 1:30:00 PM 22.15 71.87 0.08 8.43 1.64 9.26
6/1/2022 1:45:00 PM 22.52 72.536 0.08 8.53 2.09 9.19
6/1/2022 2:00:00 PM 22.97 73.346 0.08 8.6 1.62 9.15
6/1/2022 2:15:00 PM 23.2 73.76 0.08 8.66 1.7 9.07
6/1/2022 2:30:00 PM 23.41 74.138 0.08 8.69 1.63 9.02
6/1/2022 2:45:00 PM 23.65 74.57 0.08 8.73 1.67 8.98
6/1/2022 3:00:00 PM 23.87 74.966 0.08 8.77 1.54 8.93
6/1/2022 3:15:00 PM 23.98 75.164 0.08 8.8 1.51 8.88
6/1/2022 3:30:00 PM 24.02 75.236 0.08 8.82 1.51 8.84
6/1/2022 3:45:00 PM 23.94 75.092 0.079 8.82 1.5 8.73
6/1/2022 4:00:00 PM 23.89 75.002 0.079 8.77 1.59 8.58
6/1/2022 4:15:00 PM 23.9 75.02 0.079 8.76 1.53 8.56
6/1/2022 4:30:00 PM 23.93 75.074 0.079 8.76 1.53 8.51
6/1/2022 4:45:00 PM 23.93 75.074 0.079 8.64 1.55 8.24
6/1/2022 5:00:00 PM 23.97 75.146 0.079 8.54 1.67 8.19
6/1/2022 5:15:00 PM 24.03 75.254 0.079 8.54 1.73 8.25
6/1/2022 5:30:00 PM 24.09 75.362 0.079 8.54 1.63 8.27
6/1/2022 5:45:00 PM 24.09 75.362 0.079 8.53 1.55 8.26
6/1/2022 6:00:00 PM 24.05 75.29 0.079 8.49 2.48 8.22
6/1/2022 6:15:00 PM 23.98 75.164 0.079 8.39 1.61 8.16
6/1/2022 6:30:00 PM 23.89 75.002 0.079 8.25 2.11 8.09
6/1/2022 6:45:00 PM 23.79 74.82201 0.079 8.1 3.27 7.99
6/1/2022 7:00:00 PM 23.68 74.624 0.079 8 1.6 8
6/1/2022 7:15:00 PM 23.56 74.408 0.08 7.94 1.54 7.99
6/1/2022 7:30:00 PM 23.43 74.174 0.08 7.81 1.62 7.92
6/1/2022 7:45:00 PM 23.31 73.958 0.08 7.71 1.63 7.83
6/1/2022 8:00:00 PM 23.18 73.724 0.08 7.6 2.7 7.73
6/1/2022 8:15:00 PM 23.06 73.508 0.081 7.52 2.22 7.64
6/1/2022 8:30:00 PM 22.93 73.274 0.081 7.46 1.71 7.58
6/1/2022 8:45:00 PM 22.81 73.058 0.082 7.41 2.09 7.55
6/1/2022 9:00:00 PM 22.65 72.77 0.081 7.37 2.01 7.55
6/1/2022 9:15:00 PM 22.5 72.5 0.081 7.33 2.23 7.51
6/1/2022 9:30:00 PM 22.39 72.302 0.082 7.3 2.33 7.47
6/1/2022 9:45:00 PM 22.27 72.086 0.083 7.3 3.33 7.45
6/1/2022 10:00:00 PM 22.16 71.888 0.084 7.28 2.85 7.45
6/1/2022 10:15:00 PM 22.04 71.672 0.086 7.29 2.94 7.46
6/1/2022 10:30:00 PM 21.91 71.438 0.087 7.29 2.63 7.48
6/1/2022 10:45:00 PM 21.79 71.222 0.086 7.27 2.68 7.5
6/1/2022 11:00:00 PM 21.66 70.988 0.086 7.26 2.75 7.52
6/1/2022 11:15:00 PM 21.54 70.772 0.086 7.26 3.2 7.55
6/1/2022 11:30:00 PM 21.43 70.574 0.086 7.25 3.44 7.59
6/1/2022 11:45:00 PM 21.32 70.376 0.086 7.25 3.17 7.61
6/2/2022 12:00:00 AM 21.21 70.17799 0.086 7.24 3.29 7.63
6/2/2022 12:15:00 AM 21.1 69.98 0.086 7.23 4.15 7.63
6/2/2022 12:30:00 AM 20.99 69.782 0.086 7.23 3.57 7.67
6/2/2022 12:45:00 AM 20.88 69.584 0.086 7.23 3.56 7.72
6/2/2022 1:00:00 AM 20.78 69.404 0.086 7.23 3.53 7.75
6/2/2022 1:15:00 AM 20.68 69.224 0.087 7.23 3.2 7.79
6/2/2022 1:30:00 AM 20.58 69.044 0.087 7.23 3.04 7.81
6/2/2022 1:45:00 AM 20.47 68.846 0.087 7.22 3.08 7.82
6/2/2022 2:00:00 AM 20.39 68.702 0.087 7.23 4.07 7.83
6/2/2022 2:15:00 AM 20.3 68.54 0.087 7.23 3.46 7.86
6/2/2022 2:30:00 AM 20.22 68.396 0.086 7.23 3.47 7.88
6/2/2022 2:45:00 AM 20.13 68.234 0.086 7.23 3.43 7.91
6/2/2022 3:00:00 AM 20.05 68.09 0.086 7.23 3.4 7.94
6/2/2022 3:15:00 AM 19.96 67.92799 0.086 7.23 3.26 7.97
6/2/2022 3:30:00 AM 19.89 67.802 0.086 7.23 3.23 7.99
6/2/2022 3:45:00 AM 19.81 67.658 0.086 7.23 3.12 8.01
6/2/2022 4:00:00 AM 19.74 67.532 0.086 7.23 3.35 8.04
6/2/2022 4:15:00 AM 19.67 67.406 0.087 7.23 3.31 8.07
6/2/2022 4:30:00 AM 19.61 67.298 0.088 7.22 3.78 8.09
6/2/2022 4:45:00 AM 19.55 67.19 0.088 7.22 3.43 8.12
6/2/2022 5:00:00 AM 19.49 67.082 0.087 7.22 3.35 8.14
6/2/2022 5:15:00 AM 19.42 66.956 0.087 7.22 5.31 8.15
6/2/2022 5:30:00 AM 19.36 66.848 0.086 7.22 3.19 8.18
6/2/2022 5:45:00 AM 19.3 66.74 0.085 7.22 3.13 8.2
6/2/2022 6:00:00 AM 19.24 66.632 0.085 7.22 3.01 8.23
6/2/2022 6:15:00 AM 19.19 66.542 0.084 7.23 2.63 8.29
6/2/2022 6:30:00 AM 19.14 66.452 0.084 7.24 2.78 8.34
6/2/2022 6:45:00 AM 19.1 66.38 0.084 7.26 2.68 8.41
6/2/2022 7:00:00 AM 19.06 66.308 0.084 7.27 2.98 8.45
6/2/2022 7:15:00 AM 19.03 66.254 0.083 7.28 2.56 8.49
6/2/2022 7:30:00 AM 19.01 66.218 0.083 7.29 2.55 8.56
6/2/2022 7:45:00 AM 18.98 66.164 0.083 7.31 2.24 8.63
6/2/2022 8:00:00 AM 18.96 66.128 0.082 7.32 2.48 8.68
6/2/2022 8:15:00 AM 18.94 66.092 0.082 7.34 2.6 8.74
6/2/2022 8:30:00 AM 18.95 66.11 0.082 7.36 2.33 8.84
6/2/2022 8:45:00 AM 18.96 66.128 0.081 7.4 2.36 8.94
6/2/2022 9:00:00 AM 18.97 66.146 0.081 7.42 2.09 8.97
6/2/2022 9:15:00 AM 18.97 66.146 0.081 7.44 2.48 8.99
6/2/2022 9:30:00 AM 19.01 66.218 0.08 7.47 2.13 9.07
6/2/2022 9:45:00 AM 19.04 66.272 0.08 7.51 2.31 9.12
6/2/2022 10:00:00 AM 19.09 66.362 0.08 7.54 2.3 9.18
6/2/2022 10:15:00 AM 19.16 66.488 0.079 7.59 2 9.25
6/2/2022 10:30:00 AM 19.25 66.65 0.079 7.64 2.03 9.31
6/2/2022 10:45:00 AM 19.34 66.812 0.079 7.7 1.92 9.35
6/2/2022 11:00:00 AM 19.41 66.938 0.079 7.74 2.07 9.36
6/2/2022 11:15:00 AM 19.46 67.028 0.078 7.76 1.84 9.35
6/2/2022 11:30:00 AM 19.5 67.1 0.078 7.76 1.99 9.31
6/2/2022 11:45:00 AM 19.56 67.208 0.078 7.8 2.07 9.33
6/2/2022 12:00:00 PM 19.62 67.316 0.078 7.82 2.33 9.32
6/2/2022 12:15:00 PM 19.67 67.406 0.078 7.82 1.85 9.27
6/2/2022 12:30:00 PM 19.68 67.424 0.078 7.76 2.03 9.13
6/2/2022 12:45:00 PM 19.68 67.424 0.078 7.68 1.95 8.99
6/2/2022 1:00:00 PM 19.66 67.388 0.078 7.62 2.5 8.86
6/2/2022 1:15:00 PM 19.64 67.352 0.078 7.58 2.29 8.83
6/2/2022 1:30:00 PM 19.68 67.424 0.078 7.61 6.18 8.93
6/2/2022 1:45:00 PM 19.8 67.64 0.078 7.7 2.76 9.07
6/2/2022 2:00:00 PM 19.93 67.874 0.078 7.79 3.49 9.19
6/2/2022 2:15:00 PM 20.03 68.054 0.078 7.85 3.46 9.23
6/2/2022 2:30:00 PM 20.38 68.684 0.078 7.92 2.65 9.27
6/2/2022 2:45:00 PM 20.79 69.422 0.078 8 2.52 9.3
6/2/2022 3:00:00 PM 21.09 69.962 0.078 8.04 1.88 9.24
6/2/2022 3:15:00 PM 21.17 70.106 0.078 8.09 3.05 9.21
6/2/2022 3:30:00 PM 21.15 70.07 0.078 8.12 1.79 9.18
6/2/2022 3:45:00 PM 21.18 70.124 0.078 8.17 2.13 9.17
6/2/2022 4:00:00 PM 21.25 70.25 0.078 8.19 1.87 9.12
6/2/2022 4:15:00 PM 21.32 70.376 0.078 8.24 1.83 9.09
6/2/2022 4:30:00 PM 21.39 70.502 0.078 8.25 1.78 9.01
6/2/2022 4:45:00 PM 21.5 70.7 0.078 8.27 2.32 8.97
6/2/2022 5:00:00 PM 21.6 70.88 0.078 8.31 7.19 8.92
6/2/2022 5:15:00 PM 21.7 71.06 0.078 8.31 1.72 8.85
6/2/2022 5:30:00 PM 21.74 71.132 0.078 8.27 2.26 8.76
6/2/2022 5:45:00 PM 21.76 71.168 0.078 8.18 1.96 8.64
6/2/2022 6:00:00 PM 21.74 71.132 0.078 8.05 2.04 8.53
6/2/2022 6:15:00 PM 21.71 71.078 0.078 7.97 1.85 8.49
6/2/2022 6:30:00 PM 21.66 70.988 0.078 7.91 1.73 8.47
6/2/2022 6:45:00 PM 21.61 70.898 0.078 7.85 1.79 8.45
6/2/2022 7:00:00 PM 21.54 70.772 0.078 7.76 1.73 8.38
6/2/2022 7:15:00 PM 21.46 70.628 0.079 7.67 1.77 8.28
6/2/2022 7:30:00 PM 21.38 70.484 0.079 7.59 1.76 8.2
6/2/2022 7:45:00 PM 21.3 70.34 0.079 7.52 2.09 8.12
6/2/2022 8:00:00 PM 21.22 70.196 0.079 7.48 1.84 8.08
6/2/2022 8:15:00 PM 21.14 70.052 0.08 7.44 1.78 8.04
6/2/2022 8:30:00 PM 21.05 69.89 0.08 7.41 1.75 8
6/2/2022 8:45:00 PM 20.94 69.692 0.08 7.38 1.88 7.98
6/2/2022 9:00:00 PM 20.83 69.494 0.081 7.36 1.84 7.96
6/2/2022 9:15:00 PM 20.7 69.26 0.081 7.34 2.69 7.96
6/2/2022 9:30:00 PM 20.56 69.008 0.081 7.32 4.25 7.96
6/2/2022 9:45:00 PM 20.42 68.756 0.082 7.32 2.02 7.96
6/2/2022 10:00:00 PM 20.29 68.522 0.082 7.31 2.1 7.99
6/2/2022 10:15:00 PM 20.16 68.288 0.082 7.31 1.91 8.01
6/2/2022 10:30:00 PM 20.05 68.09 0.082 7.3 2.3 8.03
6/2/2022 10:45:00 PM 19.93 67.874 0.082 7.3 2 8.05
6/2/2022 11:00:00 PM 19.82 67.676 0.082 7.31 2.29 8.07
6/2/2022 11:15:00 PM 19.72 67.496 0.083 7.3 1.96 8.09
6/2/2022 11:30:00 PM 19.61 67.298 0.083 7.29 2.06 8.11
6/2/2022 11:45:00 PM 19.5 67.1 0.083 7.28 2.19 8.14
6/3/2022 12:00:00 AM 19.37 66.866 0.083 7.28 2.11 8.18
6/3/2022 12:15:00 AM 19.26 66.668 0.083 7.28 2.43 8.2
6/3/2022 12:30:00 AM 19.14 66.452 0.083 7.28 2.01 8.22
6/3/2022 12:45:00 AM 19.02 66.236 0.083 7.28 2.12 8.24
6/3/2022 1:00:00 AM 18.9 66.02 0.084 7.28 2.09 8.29
6/3/2022 1:15:00 AM 18.78 65.804 0.086 7.28 2.18 8.32
6/3/2022 1:30:00 AM 18.66 65.588 0.087 7.28 2.19 8.34
6/3/2022 1:45:00 AM 18.53 65.354 0.087 7.28 2.11 8.36
6/3/2022 2:00:00 AM 18.4 65.12 0.087 7.28 2.31 8.39
6/3/2022 2:15:00 AM 18.26 64.868 0.086 7.28 2.21 8.42
6/3/2022 2:30:00 AM 18.11 64.598 0.085 7.28 2.25 8.46
6/3/2022 2:45:00 AM 17.96 64.328 0.084 7.27 2.13 8.5
6/3/2022 3:00:00 AM 17.82 64.076 0.084 7.28 2.1 8.52
6/3/2022 3:15:00 AM 17.68 63.824 0.084 7.28 2.25 8.54
6/3/2022 3:30:00 AM 17.54 63.572 0.084 7.28 2.1 8.58
6/3/2022 3:45:00 AM 17.42 63.356 0.084 7.27 1.97 8.61
6/3/2022 4:00:00 AM 17.3 63.14 0.084 7.27 2.27 8.65
6/3/2022 4:15:00 AM 17.19 62.942 0.084 7.27 2.57 8.67
6/3/2022 4:30:00 AM 17.07 62.726 0.084 7.27 2.09 8.69
6/3/2022 4:45:00 AM 16.95 62.51 0.084 7.27 2.2 8.73
6/3/2022 5:00:00 AM 16.85 62.33 0.083 7.27 2.18 8.76
6/3/2022 5:15:00 AM 16.74 62.132 0.083 7.27 2.19 8.79
6/3/2022 5:30:00 AM 16.65 61.97 0.083 7.27 2.32 8.81
6/3/2022 5:45:00 AM 16.55 61.79 0.083 7.27 1.9 8.84
6/3/2022 6:00:00 AM 16.44 61.592 0.083 7.28 2 8.87
6/3/2022 6:15:00 AM 16.34 61.412 0.083 7.29 1.81 8.92
6/3/2022 6:30:00 AM 16.26 61.268 0.083 7.3 1.82 8.99
6/3/2022 6:45:00 AM 16.18 61.124 0.083 7.31 1.82 9.07
6/3/2022 7:00:00 AM 16.12 61.016 0.083 7.33 1.79 9.17
6/3/2022 7:15:00 AM 16.07 60.926 0.083 7.35 1.8 9.27
6/3/2022 7:30:00 AM 16.04 60.872 0.082 7.39 1.9 9.39
6/3/2022 7:45:00 AM 16 60.8 0.082 7.41 1.77 9.44
6/3/2022 8:00:00 AM 15.92 60.656 0.082 7.41 1.69 9.42
6/3/2022 8:15:00 AM 15.9 60.62 0.082 7.41 1.95 9.45
6/3/2022 8:30:00 AM 15.92 60.656 0.082 7.43 1.64 9.48
6/3/2022 8:45:00 AM 15.96 60.728 0.082 7.44 1.61 9.52
6/3/2022 9:00:00 AM 16.01 60.818 0.082 7.45 1.91 9.55
6/3/2022 9:15:00 AM 16.1 60.98 0.081 7.47 1.65 9.57
6/3/2022 9:30:00 AM 16.2 61.16 0.081 7.49 1.64 9.6
6/3/2022 9:45:00 AM 16.32 61.376 0.081 7.51 1.71 9.61
6/3/2022 10:00:00 AM 16.45 61.61 0.081 7.52 1.6 9.62
6/3/2022 10:15:00 AM 16.61 61.898 0.081 7.54 1.82 9.64
6/3/2022 10:30:00 AM 16.79 62.222 0.08 7.56 1.64 9.65
6/3/2022 10:45:00 AM 16.96 62.528 0.08 7.58 1.73 9.64
6/3/2022 11:00:00 AM 17.16 62.888 0.08 7.6 1.65 9.62
6/3/2022 11:15:00 AM 17.42 63.356 0.08 7.62 1.64 9.62
6/3/2022 11:30:00 AM 17.66 63.788 0.08 7.64 1.63 9.59
6/3/2022 11:45:00 AM 17.95 64.31 0.08 7.66 1.62 9.56
6/3/2022 12:00:00 PM 18.28 64.904 0.08 7.68 1.55 9.52
6/3/2022 12:15:00 PM 18.59 65.462 0.08 7.71 1.58 9.48
6/3/2022 12:30:00 PM 19.04 66.272 0.08 7.74 1.75 9.46
6/3/2022 12:45:00 PM 19.6 67.28 0.08 7.79 1.58 9.42
6/3/2022 1:00:00 PM 20.01 68.018 0.08 7.81 10.26 9.35
6/3/2022 1:15:00 PM 20.39 68.702 0.08 7.83 1.69 9.27
6/3/2022 1:30:00 PM 20.6 69.08 0.079 7.83 1.64 9.19
6/3/2022 1:45:00 PM 20.9 69.62 0.079 7.84 2.4 9.14
6/3/2022 2:00:00 PM 21.15 70.07 0.079 7.87 1.58 9.09
6/3/2022 2:15:00 PM 21.52 70.736 0.079 7.89 1.52 9.07
6/3/2022 2:30:00 PM 21.78 71.204 0.079 7.91 1.69 9
6/3/2022 2:45:00 PM 21.9 71.42 0.079 7.9 1.65 8.9
6/3/2022 3:00:00 PM 22.09 71.762 0.079 7.92 4.9 8.87
6/3/2022 3:15:00 PM 22.29 72.122 0.079 7.95 1.57 8.84
6/3/2022 3:30:00 PM 22.43 72.374 0.079 7.95 1.75 8.77
6/3/2022 3:45:00 PM 22.48 72.464 0.079 7.95 1.84 8.72
6/3/2022 4:00:00 PM 22.38 72.284 0.079 7.9 1.7 8.6
6/3/2022 4:15:00 PM 22.36 72.248 0.079 7.86 1.67 8.56
6/3/2022 4:30:00 PM 22.31 72.158 0.079 7.86 1.56 8.53
6/3/2022 4:45:00 PM 22.34 72.212 0.079 7.85 1.54 8.49
6/3/2022 5:00:00 PM 22.29 72.122 0.079 7.79 1.63 8.4
6/3/2022 5:15:00 PM 22.24 72.032 0.079 7.74 1.61 8.34
6/3/2022 5:30:00 PM 22.19 71.942 0.079 7.7 1.65 8.28
6/3/2022 5:45:00 PM 22.11 71.798 0.079 7.66 1.84 8.26
6/3/2022 6:00:00 PM 21.96 71.528 0.08 7.61 1.61 8.22
6/3/2022 6:15:00 PM 21.79 71.222 0.08 7.57 1.76 8.16
6/3/2022 6:30:00 PM 21.58 70.844 0.08 7.52 1.63 8.13
6/3/2022 6:45:00 PM 21.41 70.538 0.08 7.48 1.7 8.12
6/3/2022 7:00:00 PM 21.24 70.232 0.08 7.46 1.76 8.12
6/3/2022 7:15:00 PM 21.06 69.908 0.081 7.43 1.73 8.1
6/3/2022 7:30:00 PM 20.86 69.548 0.081 7.41 1.64 8.11
6/3/2022 7:45:00 PM 20.68 69.224 0.081 7.39 1.67 8.13
6/3/2022 8:00:00 PM 20.5 68.9 0.081 7.37 1.88 8.13
6/3/2022 8:15:00 PM 20.34 68.612 0.081 7.36 1.68 8.13
6/3/2022 8:30:00 PM 20.18 68.324 0.082 7.35 1.68 8.13
6/3/2022 8:45:00 PM 20.03 68.054 0.082 7.33 1.82 8.12
6/3/2022 9:00:00 PM 19.87 67.766 0.082 7.31 1.74 8.11
6/3/2022 9:15:00 PM 19.72 67.496 0.082 7.3 1.69 8.11
6/3/2022 9:30:00 PM 19.56 67.208 0.082 7.29 1.83 8.12
6/3/2022 9:45:00 PM 19.41 66.938 0.083 7.29 1.84 8.14
6/3/2022 10:00:00 PM 19.25 66.65 0.083 7.28 1.98 8.17
6/3/2022 10:15:00 PM 19.09 66.362 0.083 7.28 2.07 8.18
6/3/2022 10:30:00 PM 18.93 66.074 0.083 7.27 1.91 8.22
6/3/2022 10:45:00 PM 18.76 65.768 0.083 7.27 1.88 8.25
6/3/2022 11:00:00 PM 18.6 65.48 0.084 7.27 2.08 8.29
6/3/2022 11:15:00 PM 18.44 65.192 0.084 7.27 1.89 8.32
6/3/2022 11:30:00 PM 18.28 64.904 0.084 7.27 2.15 8.34
6/3/2022 11:45:00 PM 18.13 64.634 0.084 7.27 1.86 8.39
6/4/2022 12:00:00 AM 17.97 64.346 0.084 7.27 1.91 8.43
6/4/2022 12:15:00 AM 17.83 64.094 0.084 7.27 1.85 8.46
6/4/2022 12:30:00 AM 17.68 63.824 0.085 7.27 1.86 8.49
6/4/2022 12:45:00 AM 17.54 63.572 0.085 7.27 1.89 8.53
6/4/2022 1:00:00 AM 17.39 63.302 0.086 7.27 1.87 8.57
6/4/2022 1:15:00 AM 17.25 63.05 0.087 7.27 1.88 8.6
6/4/2022 1:30:00 AM 17.11 62.798 0.088 7.27 2.02 8.62
6/4/2022 1:45:00 AM 16.97 62.546 0.088 7.27 2.08 8.67
6/4/2022 2:00:00 AM 16.83 62.294 0.088 7.27 1.96 8.72
6/4/2022 2:15:00 AM 16.69 62.042 0.088 7.27 1.84 8.75
6/4/2022 2:30:00 AM 16.54 61.772 0.087 7.27 1.96 8.79
6/4/2022 2:45:00 AM 16.39 61.502 0.087 7.27 2.07 8.81
6/4/2022 3:00:00 AM 16.25 61.25 0.087 7.27 1.97 8.85
6/4/2022 3:15:00 AM 16.1 60.98 0.087 7.27 1.95 8.9
6/4/2022 3:30:00 AM 15.95 60.71 0.087 7.27 2.04 8.94
6/4/2022 3:45:00 AM 15.81 60.458 0.087 7.27 1.89 8.96
6/4/2022 4:00:00 AM 15.65 60.17 0.087 7.27 2.11 9
6/4/2022 4:15:00 AM 15.52 59.936 0.086 7.27 2.03 9.04
6/4/2022 4:30:00 AM 15.4 59.72 0.086 7.27 1.92 9.08
6/4/2022 4:45:00 AM 15.25 59.45 0.086 7.27 1.89 9.12
6/4/2022 5:00:00 AM 15.13 59.234 0.086 7.27 2.02 9.14
6/4/2022 5:15:00 AM 15 59 0.086 7.27 1.91 9.17
6/4/2022 5:30:00 AM 14.87 58.766 0.086 7.27 1.9 9.21
6/4/2022 5:45:00 AM 14.74 58.532 0.086 7.28 1.83 9.26
6/4/2022 6:00:00 AM 14.63 58.334 0.086 7.28 1.72 9.31
6/4/2022 6:15:00 AM 14.51 58.118 0.086 7.28 1.73 9.37
6/4/2022 6:30:00 AM 14.41 57.938 0.086 7.29 1.63 9.43
6/4/2022 6:45:00 AM 14.34 57.812 0.086 7.31 1.58 9.51
6/4/2022 7:00:00 AM 14.27 57.686 0.086 7.33 1.66 9.6
6/4/2022 7:15:00 AM 14.22 57.596 0.086 7.34 1.7 9.7
6/4/2022 7:30:00 AM 14.19 57.542 0.085 7.36 1.73 9.8
6/4/2022 7:45:00 AM 14.18 57.524 0.085 7.39 1.75 9.9
6/4/2022 8:00:00 AM 14.13 57.434 0.085 7.4 1.63 9.93
6/4/2022 8:15:00 AM 14.08 57.344 0.085 7.41 1.59 9.92
6/4/2022 8:30:00 AM 14.05 57.29 0.085 7.41 1.61 9.93
6/4/2022 8:45:00 AM 14.05 57.29 0.085 7.42 1.53 9.97
6/4/2022 9:00:00 AM 14.09 57.362 0.085 7.42 1.51 9.99
6/4/2022 9:15:00 AM 14.16 57.488 0.085 7.44 1.54 10.03
6/4/2022 9:30:00 AM 14.28 57.704 0.085 7.45 1.49 10.04
6/4/2022 9:45:00 AM 14.42 57.956 0.085 7.47 1.62 10.05
6/4/2022 10:00:00 AM 14.58 58.244 0.085 7.49 1.44 10.06
6/4/2022 10:15:00 AM 14.76 58.568 0.085 7.5 1.48 10.06
6/4/2022 10:30:00 AM 14.96 58.928 0.085 7.52 1.51 10.04
6/4/2022 10:45:00 AM 15.17 59.306 0.085 7.53 1.46 10.03
6/4/2022 11:00:00 AM 15.39 59.702 0.085 7.55 1.44 10.02
6/4/2022 11:15:00 AM 15.64 60.152 0.085 7.57 1.53 9.98
6/4/2022 11:30:00 AM 15.96 60.728 0.084 7.58 1.56 9.95
6/4/2022 11:45:00 AM 16.32 61.376 0.084 7.6 1.55 9.9
6/4/2022 12:00:00 PM 16.72 62.096 0.084 7.61 1.57 9.85
6/4/2022 12:15:00 PM 17.16 62.888 0.084 7.63 1.57 9.75
6/4/2022 12:30:00 PM 17.67 63.806 0.083 7.64 1.47 9.69
6/4/2022 12:45:00 PM 18.18 64.724 0.083 7.66 1.6 9.62
6/4/2022 1:00:00 PM 18.68 65.624 0.083 7.68 1.48 9.54
6/4/2022 1:15:00 PM 19.24 66.632 0.083 7.69 1.52 9.45
6/4/2022 1:30:00 PM 19.75 67.55 0.083 7.7 1.51 9.36
6/4/2022 1:45:00 PM 20.26 68.468 0.082 7.72 1.56 9.29
6/4/2022 2:00:00 PM 20.71 69.278 0.082 7.73 1.62 9.19
6/4/2022 2:15:00 PM 21.08 69.944 0.082 7.74 1.67 9.09
6/4/2022 2:30:00 PM 21.41 70.538 0.082 7.75 1.58 9.02
6/4/2022 2:45:00 PM 21.66 70.988 0.082 7.74 1.55 8.92
6/4/2022 3:00:00 PM 21.86 71.348 0.082 7.74 1.67 8.85
6/4/2022 3:15:00 PM 22 71.6 0.083 7.73 1.65 8.77
6/4/2022 3:30:00 PM 22.13 71.834 0.083 7.71 1.61 8.69
6/4/2022 3:45:00 PM 22.14 71.852 0.083 7.69 1.61 8.61
6/4/2022 4:00:00 PM 22.07 71.726 0.083 7.66 1.61 8.53
6/4/2022 4:15:00 PM 21.96 71.528 0.083 7.65 1.83 8.48
6/4/2022 4:30:00 PM 21.85 71.33 0.083 7.62 1.7 8.42
6/4/2022 4:45:00 PM 21.73 71.114 0.083 7.6 1.77 8.37
6/4/2022 5:00:00 PM 21.67 71.006 0.083 7.58 1.63 8.33
6/4/2022 5:15:00 PM 21.6 70.88 0.083 7.56 1.77 8.31
6/4/2022 5:30:00 PM 21.54 70.772 0.083 7.54 1.72 8.28
6/4/2022 5:45:00 PM 21.45 70.61 0.083 7.52 2.08 8.26
6/4/2022 6:00:00 PM 21.3 70.34 0.084 7.5 1.68 8.24
6/4/2022 6:15:00 PM 21.12 70.016 0.084 7.48 1.67 8.2
6/4/2022 6:30:00 PM 20.95 69.71 0.084 7.45 1.76 8.18
6/4/2022 6:45:00 PM 20.74 69.332 0.084 7.43 1.75 8.18
6/4/2022 7:00:00 PM 20.53 68.954 0.084 7.41 1.69 8.19
6/4/2022 7:15:00 PM 20.29 68.522 0.085 7.4 1.75 8.19
6/4/2022 7:30:00 PM 20.06 68.108 0.085 7.38 1.86 8.21
6/4/2022 7:45:00 PM 19.84 67.712 0.085 7.37 1.67 8.22
6/4/2022 8:00:00 PM 19.64 67.352 0.085 7.35 1.77 8.23
6/4/2022 8:15:00 PM 19.46 67.028 0.085 7.34 1.86 8.25
6/4/2022 8:30:00 PM 19.28 66.704 0.085 7.33 1.87 8.26
6/4/2022 8:45:00 PM 19.11 66.398 0.085 7.32 1.81 8.25
6/4/2022 9:00:00 PM 18.95 66.11 0.085 7.32 1.84 8.27
6/4/2022 9:15:00 PM 18.78 65.804 0.085 7.31 1.73 8.28
6/4/2022 9:30:00 PM 18.63 65.534 0.085 7.29 1.98 8.29
6/4/2022 9:45:00 PM 18.47 65.246 0.086 7.29 1.74 8.3
6/4/2022 10:00:00 PM 18.3 64.94 0.086 7.29 1.88 8.33
6/4/2022 10:15:00 PM 18.13 64.634 0.086 7.28 2 8.38
6/4/2022 10:30:00 PM 17.96 64.328 0.086 7.28 1.95 8.41
6/4/2022 10:45:00 PM 17.78 64.004 0.086 7.28 1.9 8.43
6/4/2022 11:00:00 PM 17.61 63.698 0.087 7.28 1.9 8.48
6/4/2022 11:15:00 PM 17.46 63.428 0.087 7.28 1.99 8.52
6/4/2022 11:30:00 PM 17.29 63.122 0.087 7.28 2.12 8.55
6/4/2022 11:45:00 PM 17.13 62.834 0.087 7.27 1.88 8.59
6/5/2022 12:00:00 AM 16.96 62.528 0.087 7.27 2.17 8.65
6/5/2022 12:15:00 AM 16.79 62.222 0.087 7.27 3.92 8.7
6/5/2022 12:30:00 AM 16.63 61.934 0.088 7.27 2.01 8.73
6/5/2022 12:45:00 AM 16.47 61.646 0.089 7.27 1.87 8.77
6/5/2022 1:00:00 AM 16.31 61.358 0.09 7.27 2.05 8.8
6/5/2022 1:15:00 AM 16.15 61.07 0.092 7.27 2.22 8.86
6/5/2022 1:30:00 AM 15.99 60.782 0.093 7.27 1.88 8.9
6/5/2022 1:45:00 AM 15.82 60.476 0.094 7.27 1.74 8.94
6/5/2022 2:00:00 AM 15.67 60.206 0.093 7.28 2 8.97
6/5/2022 2:15:00 AM 15.5 59.9 0.092 7.28 2.03 9.02
6/5/2022 2:30:00 AM 15.34 59.612 0.091 7.28 1.84 9.07
6/5/2022 2:45:00 AM 15.17 59.306 0.09 7.29 1.97 9.12
6/5/2022 3:00:00 AM 15.02 59.036 0.09 7.29 1.81 9.14
6/5/2022 3:15:00 AM 14.86 58.748 0.089 7.28 2.31 9.19
6/5/2022 3:30:00 AM 14.7 58.46 0.089 7.28 1.84 9.24
6/5/2022 3:45:00 AM 14.55 58.19 0.089 7.29 1.84 9.28
6/5/2022 4:00:00 AM 14.4 57.92 0.089 7.29 1.79 9.32
6/5/2022 4:15:00 AM 14.27 57.686 0.089 7.29 1.78 9.35
6/5/2022 4:30:00 AM 14.13 57.434 0.089 7.29 1.92 9.4
6/5/2022 4:45:00 AM 14 57.2 0.089 7.29 1.83 9.43
6/5/2022 5:00:00 AM 14.02 57.236 0.088 7.29 7.54 9.41
6/5/2022 5:15:00 AM 13.89 57.002 0.088 7.29 1.89 9.44
6/5/2022 5:30:00 AM 13.76 56.768 0.088 7.29 1.83 9.49
6/5/2022 5:45:00 AM 13.63 56.534 0.088 7.29 1.84 9.53
6/5/2022 6:00:00 AM 13.5 56.3 0.088 7.29 1.71 9.59
6/5/2022 6:15:00 AM 13.39 56.102 0.088 7.3 1.65 9.64
6/5/2022 6:30:00 AM 13.27 55.886 0.088 7.31 1.6 9.7
6/5/2022 6:45:00 AM 13.17 55.706 0.088 7.32 1.75 9.77
6/5/2022 7:00:00 AM 13.08 55.544 0.088 7.33 1.76 9.85
6/5/2022 7:15:00 AM 13.01 55.418 0.088 7.34 1.6 9.92
6/5/2022 7:30:00 AM 12.95 55.31 0.088 7.36 1.51 9.99
6/5/2022 7:45:00 AM 12.91 55.238 0.088 7.37 1.6 10.06
6/5/2022 8:00:00 AM 12.88 55.184 0.088 7.39 1.56 10.13
6/5/2022 8:15:00 AM 12.87 55.166 0.087 7.41 1.42 10.18
6/5/2022 8:30:00 AM 12.9 55.22 0.087 7.42 1.48 10.22
6/5/2022 8:45:00 AM 12.95 55.31 0.087 7.43 1.46 10.27
6/5/2022 9:00:00 AM 13.05 55.49 0.087 7.46 1.48 10.32
6/5/2022 9:15:00 AM 13.14 55.652 0.087 7.48 1.5 10.37
6/5/2022 9:30:00 AM 13.26 55.868 0.087 7.51 1.57 10.4
6/5/2022 9:45:00 AM 13.38 56.084 0.086 7.52 1.46 10.43
6/5/2022 10:00:00 AM 13.53 56.354 0.086 7.55 1.39 10.45
6/5/2022 10:15:00 AM 13.68 56.624 0.086 7.57 1.8 10.46
6/5/2022 10:30:00 AM 13.89 57.002 0.086 7.59 1.46 10.44
6/5/2022 10:45:00 AM 14.06 57.308 0.085 7.61 1.46 10.44
6/5/2022 11:00:00 AM 14.26 57.668 0.085 7.63 1.62 10.42
6/5/2022 11:15:00 AM 14.45 58.01 0.085 7.64 1.43 10.39
6/5/2022 11:30:00 AM 14.71 58.478 0.085 7.65 1.4 10.36
6/5/2022 11:45:00 AM 15.01 59.018 0.085 7.67 1.44 10.31
6/5/2022 12:00:00 PM 15.33 59.594 0.085 7.68 1.48 10.26
6/5/2022 12:15:00 PM 15.68 60.224 0.085 7.69 1.65 10.2
6/5/2022 12:30:00 PM 16.15 61.07 0.085 7.7 1.58 10.12
6/5/2022 12:45:00 PM 16.61 61.898 0.085 7.71 1.52 10.03
6/5/2022 1:00:00 PM 17.14 62.852 0.085 7.72 1.55 9.92
6/5/2022 1:15:00 PM 17.55 63.59 0.085 7.72 1.56 9.85
6/5/2022 1:30:00 PM 17.93 64.274 0.085 7.73 1.5 9.75
6/5/2022 1:45:00 PM 18.41 65.138 0.085 7.74 1.53 9.67
6/5/2022 2:00:00 PM 18.84 65.912 0.085 7.74 1.51 9.58
6/5/2022 2:15:00 PM 19.3 66.74 0.085 7.73 13.96 9.48
6/5/2022 2:30:00 PM 19.72 67.496 0.085 7.73 1.97 9.38
6/5/2022 2:45:00 PM 20.07 68.126 0.084 7.74 1.51 9.27
6/5/2022 3:00:00 PM 20.37 68.666 0.084 7.72 1.51 9.15
6/5/2022 3:15:00 PM 20.6 69.08 0.084 7.71 1.52 9.06
6/5/2022 3:30:00 PM 20.76 69.368 0.084 7.69 1.61 8.96
6/5/2022 3:45:00 PM 20.84 69.512 0.084 7.67 1.66 8.87
6/5/2022 4:00:00 PM 20.84 69.512 0.084 7.65 1.85 8.8
6/5/2022 4:15:00 PM 20.86 69.548 0.084 7.65 1.56 8.76
6/5/2022 4:30:00 PM 20.86 69.548 0.084 7.65 1.97 8.74
6/5/2022 4:45:00 PM 20.84 69.512 0.084 7.64 1.55 8.69
6/5/2022 5:00:00 PM 20.88 69.584 0.084 7.64 1.55 8.67
6/5/2022 5:15:00 PM 20.9 69.62 0.084 7.61 1.54 8.59
6/5/2022 5:30:00 PM 20.91 69.638 0.084 7.58 1.73 8.51
6/5/2022 5:45:00 PM 20.88 69.584 0.085 7.55 1.65 8.44
6/5/2022 6:00:00 PM 20.84 69.512 0.085 7.52 1.89 8.38
6/5/2022 6:15:00 PM 20.75 69.35 0.085 7.49 1.6 8.33
6/5/2022 6:30:00 PM 20.62 69.116 0.085 7.47 1.76 8.3
6/5/2022 6:45:00 PM 20.47 68.846 0.085 7.45 1.65 8.32
6/5/2022 7:00:00 PM 20.33 68.594 0.085 7.45 1.77 8.36
6/5/2022 7:15:00 PM 20.2 68.36 0.085 7.44 1.72 8.38
6/5/2022 7:30:00 PM 20.07 68.126 0.085 7.42 1.67 8.38
6/5/2022 7:45:00 PM 19.94 67.892 0.085 7.41 1.83 8.37
6/5/2022 8:00:00 PM 19.82 67.676 0.086 7.39 1.77 8.32
6/5/2022 8:15:00 PM 19.69 67.442 0.086 7.37 1.75 8.29
6/5/2022 8:30:00 PM 19.56 67.208 0.086 7.35 1.55 8.28
6/5/2022 8:45:00 PM 19.43 66.974 0.086 7.33 1.76 8.26
6/5/2022 9:00:00 PM 19.29 66.722 0.086 7.32 1.6 8.23
6/5/2022 9:15:00 PM 19.15 66.47 0.086 7.31 1.78 8.21
6/5/2022 9:30:00 PM 19.02 66.236 0.087 7.3 1.85 8.21
6/5/2022 9:45:00 PM 18.9 66.02 0.087 7.29 1.81 8.23
6/5/2022 10:00:00 PM 18.79 65.82201 0.087 7.29 1.94 8.25
6/5/2022 10:15:00 PM 18.66 65.588 0.087 7.29 1.95 8.27
6/5/2022 10:30:00 PM 18.53 65.354 0.087 7.28 2.02 8.28
6/5/2022 10:45:00 PM 18.39 65.102 0.088 7.27 1.83 8.29
6/5/2022 11:00:00 PM 18.24 64.832 0.088 7.27 2.16 8.34
6/5/2022 11:15:00 PM 18.09 64.562 0.088 7.28 2.01 8.37
6/5/2022 11:30:00 PM 17.94 64.292 0.088 7.28 1.87 8.41
6/5/2022 11:45:00 PM 17.8 64.04 0.089 7.28 2 8.42
6/6/2022 12:00:00 AM 17.64 63.752 0.089 7.28 1.92 8.47
6/6/2022 12:15:00 AM 17.49 63.482 0.089 7.28 2.02 8.51
6/6/2022 12:30:00 AM 17.33 63.194 0.09 7.28 1.81 8.55
6/6/2022 12:45:00 AM 17.17 62.906 0.09 7.28 1.82 8.58
6/6/2022 1:00:00 AM 17.02 62.636 0.092 7.28 2.13 8.62
6/6/2022 1:15:00 AM 16.86 62.348 0.093 7.28 2.05 8.67
6/6/2022 1:30:00 AM 16.71 62.078 0.094 7.28 2 8.71
6/6/2022 1:45:00 AM 16.56 61.808 0.094 7.28 2.36 8.75
6/6/2022 2:00:00 AM 16.4 61.52 0.093 7.28 3.89 8.77
6/6/2022 2:15:00 AM 16.25 61.25 0.093 7.28 1.9 8.82
6/6/2022 2:30:00 AM 16.1 60.98 0.092 7.29 2.03 8.87
6/6/2022 2:45:00 AM 15.95 60.71 0.092 7.29 1.86 8.9
6/6/2022 3:00:00 AM 15.81 60.458 0.091 7.29 1.91 8.94
6/6/2022 3:15:00 AM 15.66 60.188 0.091 7.29 1.89 8.97
6/6/2022 3:30:00 AM 15.52 59.936 0.091 7.29 2 9.02
6/6/2022 3:45:00 AM 15.38 59.684 0.091 7.29 2.06 9.05
6/6/2022 4:00:00 AM 15.23 59.414 0.091 7.29 1.95 9.1
6/6/2022 4:15:00 AM 15.09 59.162 0.091 7.29 2 9.13
6/6/2022 4:30:00 AM 14.96 58.928 0.091 7.29 1.94 9.16
6/6/2022 4:45:00 AM 14.83 58.694 0.091 7.29 3.84 9.2
6/6/2022 5:00:00 AM 14.69 58.442 0.091 7.29 1.88 9.24
6/6/2022 5:15:00 AM 14.57 58.226 0.091 7.29 1.82 9.27
6/6/2022 5:30:00 AM 14.44 57.992 0.091 7.29 1.85 9.3
6/6/2022 5:45:00 AM 14.32 57.776 0.091 7.29 1.69 9.35
6/6/2022 6:00:00 AM 14.21 57.578 0.091 7.3 1.72 9.41
6/6/2022 6:15:00 AM 14.1 57.38 0.091 7.3 1.74 9.47
6/6/2022 6:30:00 AM 14.01 57.218 0.091 7.31 1.56 9.53
6/6/2022 6:45:00 AM 13.93 57.074 0.091 7.32 1.69 9.58
6/6/2022 7:00:00 AM 14.01 57.218 0.091 7.33 1.69 9.58
6/6/2022 7:15:00 AM 13.94 57.092 0.091 7.34 1.63 9.64
6/6/2022 7:30:00 AM 13.88 56.984 0.091 7.35 1.65 9.7
6/6/2022 7:45:00 AM 13.84 56.912 0.091 7.37 1.85 9.75
6/6/2022 8:00:00 AM 13.82 56.876 0.091 7.38 1.6 9.81
6/6/2022 8:15:00 AM 13.81 56.858 0.09 7.39 1.54 9.86
6/6/2022 8:30:00 AM 13.83 56.894 0.09 7.4 1.46 9.9
6/6/2022 8:45:00 AM 13.88 56.984 0.09 7.42 1.56 9.94
6/6/2022 9:00:00 AM 13.97 57.146 0.09 7.43 1.57 9.98
6/6/2022 9:15:00 AM 14.05 57.29 0.09 7.45 1.59 10.02
6/6/2022 9:30:00 AM 14.19 57.542 0.09 7.47 1.5 10.05
6/6/2022 9:45:00 AM 14.28 57.704 0.09 7.49 1.53 10.08
6/6/2022 10:00:00 AM 14.43 57.974 0.089 7.5 1.51 10.09
6/6/2022 10:15:00 AM 14.65 58.37 0.089 7.52 1.51 10.08
6/6/2022 10:30:00 AM 14.83 58.694 0.089 7.52 1.72 10.07
6/6/2022 10:45:00 AM 15.11 59.198 0.089 7.54 1.43 10.04
6/6/2022 11:00:00 AM 15.39 59.702 0.089 7.55 1.62 10.01
6/6/2022 11:15:00 AM 15.69 60.242 0.089 7.56 1.61 9.98
6/6/2022 11:30:00 AM 16.03 60.854 0.088 7.58 1.48 9.94
6/6/2022 11:45:00 AM 16.37 61.466 0.088 7.6 1.51 9.9
6/6/2022 12:00:00 PM 16.8 62.24 0.088 7.61 1.52 9.85
6/6/2022 12:15:00 PM 17.27 63.086 0.088 7.63 1.46 9.76
6/6/2022 12:30:00 PM 17.79 64.022 0.088 7.64 1.64 9.68
6/6/2022 12:45:00 PM 18.3 64.94 0.087 7.64 1.8 9.6
6/6/2022 1:00:00 PM 18.87 65.966 0.087 7.65 1.65 9.51
6/6/2022 1:15:00 PM 19.4 66.92 0.087 7.67 1.7 9.42
6/6/2022 1:30:00 PM 19.89 67.802 0.087 7.67 1.58 9.3
6/6/2022 1:45:00 PM 20.26 68.468 0.087 7.68 1.75 9.22
6/6/2022 2:00:00 PM 20.54 68.972 0.087 7.69 2.01 9.12
6/6/2022 2:15:00 PM 20.77 69.386 0.087 7.68 1.66 9.01
6/6/2022 2:30:00 PM 21.03 69.854 0.087 7.67 1.7 8.92
6/6/2022 2:45:00 PM 21.35 70.43 0.087 7.68 1.6 8.88
6/6/2022 3:00:00 PM 21.58 70.844 0.087 7.68 1.83 8.81
6/6/2022 3:15:00 PM 21.8 71.24 0.087 7.68 1.76 8.73
6/6/2022 3:30:00 PM 21.84 71.312 0.087 7.68 1.72 8.68
6/6/2022 3:45:00 PM 21.92 71.456 0.087 7.69 1.65 8.65
6/6/2022 4:00:00 PM 21.95 71.51 0.087 7.67 1.96 8.6
6/6/2022 4:15:00 PM 22.01 71.618 0.087 7.66 1.82 8.55
6/6/2022 4:30:00 PM 22.03 71.654 0.087 7.65 1.82 8.5
6/6/2022 4:45:00 PM 22.05 71.69 0.087 7.65 1.75 8.47
6/6/2022 5:00:00 PM 22.03 71.654 0.087 7.62 1.77 8.39
6/6/2022 5:15:00 PM 22 71.6 0.087 7.59 1.74 8.35
6/6/2022 5:30:00 PM 21.93 71.474 0.087 7.57 1.86 8.3
6/6/2022 5:45:00 PM 21.86 71.348 0.087 7.55 1.82 8.25
6/6/2022 6:00:00 PM 21.79 71.222 0.087 7.52 1.84 8.19
6/6/2022 6:15:00 PM 21.67 71.006 0.087 7.5 2.03 8.14
6/6/2022 6:30:00 PM 21.6 70.88 0.087 7.47 1.97 8.15
6/6/2022 6:45:00 PM 21.49 70.682 0.087 7.47 1.75 8.18
6/6/2022 7:00:00 PM 21.39 70.502 0.087 7.47 1.78 8.19
6/6/2022 7:15:00 PM 21.24 70.232 0.088 7.45 1.81 8.17
6/6/2022 7:30:00 PM 21.07 69.926 0.09 7.42 1.83 8.12
6/6/2022 7:45:00 PM 20.9 69.62 0.092 7.4 1.82 8.12
6/6/2022 8:00:00 PM 20.75 69.35 0.093 7.39 1.79 8.1
6/6/2022 8:15:00 PM 20.61 69.098 0.093 7.37 1.84 8.08
6/6/2022 8:30:00 PM 20.48 68.864 0.092 7.36 1.94 8.05
6/6/2022 8:45:00 PM 20.34 68.612 0.092 7.34 1.79 8.03
6/6/2022 9:00:00 PM 20.22 68.396 0.091 7.32 1.83 8
6/6/2022 9:15:00 PM 20.09 68.162 0.09 7.31 1.91 8
6/6/2022 9:30:00 PM 19.98 67.964 0.09 7.3 1.96 8
6/6/2022 9:45:00 PM 19.88 67.784 0.09 7.3 2.23 8
6/6/2022 10:00:00 PM 19.79 67.622 0.089 7.29 1.96 7.99
6/6/2022 10:15:00 PM 19.69 67.442 0.089 7.28 2.06 8
6/6/2022 10:30:00 PM 19.59 67.262 0.089 7.28 2.16 8.04
6/6/2022 10:45:00 PM 19.5 67.1 0.09 7.28 3.88 8.05
6/6/2022 11:00:00 PM 19.41 66.938 0.09 7.28 2.08 8.07
6/6/2022 11:15:00 PM 19.32 66.776 0.09 7.28 2.17 8.09
6/6/2022 11:30:00 PM 19.22 66.596 0.09 7.28 2.11 8.1
6/6/2022 11:45:00 PM 19.13 66.434 0.09 7.27 1.99 8.11
6/7/2022 12:00:00 AM 19.03 66.254 0.091 7.27 2.06 8.13
6/7/2022 12:15:00 AM 18.94 66.092 0.091 7.27 1.94 8.16
6/7/2022 12:30:00 AM 18.85 65.93 0.091 7.28 1.98 8.19
6/7/2022 12:45:00 AM 18.77 65.786 0.091 7.28 1.83 8.21
6/7/2022 1:00:00 AM 18.68 65.624 0.091 7.28 2.02 8.23
6/7/2022 1:15:00 AM 18.6 65.48 0.091 7.28 1.93 8.25
6/7/2022 1:30:00 AM 18.53 65.354 0.091 7.28 1.98 8.26
6/7/2022 1:45:00 AM 18.46 65.228 0.092 7.28 1.86 8.27
6/7/2022 2:00:00 AM 18.39 65.102 0.092 7.28 2.03 8.29
6/7/2022 2:15:00 AM 18.31 64.958 0.092 7.29 1.85 8.32
6/7/2022 2:30:00 AM 18.23 64.814 0.092 7.29 1.8 8.34
6/7/2022 2:45:00 AM 18.17 64.706 0.092 7.29 1.89 8.36
6/7/2022 3:00:00 AM 18.12 64.616 0.092 7.29 1.91 8.37
6/7/2022 3:15:00 AM 18.06 64.508 0.092 7.29 1.92 8.4
6/7/2022 3:30:00 AM 18 64.4 0.092 7.29 2.06 8.41
6/7/2022 3:45:00 AM 17.94 64.292 0.092 7.29 2.19 8.42
6/7/2022 4:00:00 AM 17.87 64.166 0.092 7.29 2 8.43
6/7/2022 4:15:00 AM 17.81 64.058 0.092 7.3 1.82 8.44
6/7/2022 4:30:00 AM 17.76 63.968 0.092 7.3 2.09 8.46
6/7/2022 4:45:00 AM 17.71 63.878 0.092 7.3 1.93 8.47
6/7/2022 5:00:00 AM 17.65 63.77 0.092 7.3 1.85 8.49
6/7/2022 5:15:00 AM 17.59 63.662 0.092 7.3 2.41 8.51
6/7/2022 5:30:00 AM 17.53 63.554 0.092 7.3 2.28 8.52
6/7/2022 5:45:00 AM 17.46 63.428 0.092 7.3 1.92 8.56
6/7/2022 6:00:00 AM 17.4 63.32 0.092 7.31 1.96 8.58
6/7/2022 6:15:00 AM 17.35 63.23 0.092 7.31 1.82 8.6
6/7/2022 6:30:00 AM 17.3 63.14 0.092 7.32 1.89 8.66
6/7/2022 6:45:00 AM 17.27 63.086 0.092 7.33 1.96 8.72
6/7/2022 7:00:00 AM 17.24 63.032 0.092 7.34 1.81 8.77
6/7/2022 7:15:00 AM 17.21 62.978 0.092 7.35 1.77 8.82
6/7/2022 7:30:00 AM 17.17 62.906 0.092 7.35 1.8 8.81
6/7/2022 7:45:00 AM 17.12 62.816 0.092 7.36 1.96 8.83
6/7/2022 8:00:00 AM 17.08 62.744 0.092 7.36 1.82 8.85
6/7/2022 8:15:00 AM 17.06 62.708 0.092 7.37 1.79 8.9
6/7/2022 8:30:00 AM 17.04 62.672 0.092 7.38 1.85 8.96
6/7/2022 8:45:00 AM 16.99 62.582 0.092 7.39 1.75 8.98
6/7/2022 9:00:00 AM 16.96 62.528 0.091 7.39 1.64 9.01
6/7/2022 9:15:00 AM 16.91 62.438 0.091 7.4 1.89 9.03
6/7/2022 9:30:00 AM 16.9 62.42 0.091 7.4 1.93 9.07
6/7/2022 9:45:00 AM 16.89 62.402 0.091 7.41 1.73 9.12
6/7/2022 10:00:00 AM 16.91 62.438 0.091 7.43 1.72 9.17
6/7/2022 10:15:00 AM 16.94 62.492 0.091 7.45 1.78 9.22
6/7/2022 10:30:00 AM 16.98 62.564 0.09 7.46 1.71 9.25
6/7/2022 10:45:00 AM 16.99 62.582 0.091 7.46 1.65 9.23
6/7/2022 11:00:00 AM 16.98 62.564 0.09 7.46 1.85 9.22
6/7/2022 11:15:00 AM 16.94 62.492 0.09 7.46 1.79 9.2
6/7/2022 11:30:00 AM 16.91 62.438 0.089 7.44 2.07 9.2
6/7/2022 11:45:00 AM 16.88 62.384 0.089 7.44 1.74 9.19
6/7/2022 12:00:00 PM 16.87 62.366 0.089 7.44 1.81 9.22
6/7/2022 12:15:00 PM 16.87 62.366 0.089 7.44 1.9 9.23
6/7/2022 12:30:00 PM 16.9 62.42 0.089 7.45 1.83 9.26
6/7/2022 12:45:00 PM 16.91 62.438 0.089 7.45 2.06 9.27
6/7/2022 1:00:00 PM 16.94 62.492 0.089 7.46 2.13 9.28
6/7/2022 1:15:00 PM 16.98 62.564 0.089 7.48 2.1 9.3
6/7/2022 1:30:00 PM 17 62.6 0.089 7.49 2.12 9.29
6/7/2022 1:45:00 PM 17.01 62.618 0.089 7.47 2.01 9.23
6/7/2022 2:00:00 PM 17.04 62.672 0.089 7.48 1.91 9.26
6/7/2022 2:15:00 PM 17.07 62.726 0.088 7.49 1.93 9.3
6/7/2022 2:30:00 PM 17.13 62.834 0.088 7.51 2.07 9.33
6/7/2022 2:45:00 PM 17.2 62.96 0.088 7.52 2.61 9.35
6/7/2022 3:00:00 PM 17.28 63.104 0.088 7.54 2.83 9.38
6/7/2022 3:15:00 PM 17.34 63.212 0.088 7.55 2.88 9.37
6/7/2022 3:30:00 PM 17.35 63.23 0.088 7.54 2.92 9.31
6/7/2022 3:45:00 PM 17.36 63.248 0.087 7.52 2.78 9.28
6/7/2022 4:00:00 PM 17.4 63.32 0.087 7.53 2.67 9.29
6/7/2022 4:15:00 PM 17.4 63.32 0.087 7.52 2.63 9.25
6/7/2022 4:30:00 PM 17.42 63.356 0.087 7.51 2.85 9.22
6/7/2022 4:45:00 PM 17.45 63.41 0.087 7.51 3.04 9.23
6/7/2022 5:00:00 PM 17.45 63.41 0.087 7.51 3.93 9.2
6/7/2022 5:15:00 PM 17.44 63.392 0.087 7.49 3.43 9.14
6/7/2022 5:30:00 PM 17.43 63.374 0.088 7.47 3.38 9.1
6/7/2022 5:45:00 PM 17.41 63.338 0.089 7.45 3.37 9.06
6/7/2022 6:00:00 PM 17.38 63.284 0.089 7.43 3.35 9.02
6/7/2022 6:15:00 PM 17.35 63.23 0.088 7.41 4.08 9.02
6/7/2022 6:30:00 PM 17.3 63.14 0.087 7.4 3.31 8.97
6/7/2022 6:45:00 PM 17.26 63.068 0.086 7.4 3.42 8.98
6/7/2022 7:00:00 PM 17.22 62.996 0.086 7.39 3.32 8.95
6/7/2022 7:15:00 PM 17.17 62.906 0.085 7.37 3.73 8.93
6/7/2022 7:30:00 PM 17.13 62.834 0.085 7.36 3.37 8.93
6/7/2022 7:45:00 PM 17.1 62.78 0.085 7.36 3.84 8.95
6/7/2022 8:00:00 PM 17.05 62.69 0.085 7.35 3.35 8.96
6/7/2022 8:15:00 PM 17.01 62.618 0.084 7.33 3.53 8.95
6/7/2022 8:30:00 PM 16.96 62.528 0.084 7.32 3.76 8.95
6/7/2022 8:45:00 PM 16.91 62.438 0.083 7.31 3.58 8.94
6/7/2022 9:00:00 PM 16.87 62.366 0.083 7.3 3.97 8.94
6/7/2022 9:15:00 PM 16.83 62.294 0.083 7.29 3.75 8.93
6/7/2022 9:30:00 PM 16.79 62.222 0.083 7.29 3.94 8.94
6/7/2022 9:45:00 PM 16.75 62.15 0.082 7.28 3.83 8.94
6/7/2022 10:00:00 PM 16.71 62.078 0.082 7.28 3.92 8.94
6/7/2022 10:15:00 PM 16.67 62.006 0.082 7.27 3.72 8.95
6/7/2022 10:30:00 PM 16.62 61.916 0.082 7.26 3.96 8.96
6/7/2022 10:45:00 PM 16.58 61.844 0.082 7.25 3.7 8.97
6/7/2022 11:00:00 PM 16.54 61.772 0.082 7.25 3.81 8.98
6/7/2022 11:15:00 PM 16.51 61.718 0.082 7.24 3.78 8.98
6/7/2022 11:30:00 PM 16.48 61.664 0.082 7.24 3.78 8.98
6/7/2022 11:45:00 PM 16.44 61.592 0.082 7.24 3.67 9
6/8/2022 12:00:00 AM 16.4 61.52 0.082 7.24 3.75 9.01
6/8/2022 12:15:00 AM 16.37 61.466 0.082 7.25 3.73 9.02
6/8/2022 12:30:00 AM 16.32 61.376 0.082 7.25 3.61 9.03
6/8/2022 12:45:00 AM 16.27 61.286 0.082 7.25 3.51 9.05
6/8/2022 1:00:00 AM 16.22 61.196 0.082 7.26 3.51 9.06
6/8/2022 1:15:00 AM 16.16 61.088 0.082 7.26 3.5 9.08
6/8/2022 1:30:00 AM 16.09 60.962 0.082 7.27 3.32 9.1
6/8/2022 1:45:00 AM 16.02 60.836 0.082 7.28 3.27 9.11
6/8/2022 2:00:00 AM 15.94 60.692 0.082 7.29 3.37 9.13
6/8/2022 2:15:00 AM 15.86 60.548 0.082 7.29 3.14 9.15
6/8/2022 2:30:00 AM 15.77 60.386 0.082 7.3 3.1 9.16
6/8/2022 2:45:00 AM 15.69 60.242 0.082 7.3 3.09 9.18
6/8/2022 3:00:00 AM 15.63 60.134 0.082 7.3 3.24 9.2
6/8/2022 3:15:00 AM 15.57 60.026 0.082 7.31 2.98 9.22
6/8/2022 3:30:00 AM 15.5 59.9 0.082 7.3 3.24 9.25
6/8/2022 3:45:00 AM 15.43 59.774 0.082 7.3 3.34 9.26
6/8/2022 4:00:00 AM 15.37 59.666 0.082 7.3 3.03 9.28
6/8/2022 4:15:00 AM 15.33 59.594 0.082 7.31 3.37 9.3
6/8/2022 4:30:00 AM 15.28 59.504 0.082 7.31 3.14 9.31
6/8/2022 4:45:00 AM 15.24 59.432 0.082 7.31 3.31 9.32
6/8/2022 5:00:00 AM 15.2 59.36 0.082 7.31 3.06 9.33
6/8/2022 5:15:00 AM 15.15 59.27 0.082 7.31 3.32 9.33
6/8/2022 5:30:00 AM 15.1 59.18 0.082 7.31 3.14 9.35
6/8/2022 5:45:00 AM 15.05 59.09 0.083 7.31 2.91 9.36
6/8/2022 6:00:00 AM 15 59 0.083 7.31 2.86 9.38
6/8/2022 6:15:00 AM 14.96 58.928 0.083 7.31 2.88 9.41
6/8/2022 6:30:00 AM 14.92 58.856 0.083 7.32 2.93 9.45
6/8/2022 6:45:00 AM 14.87 58.766 0.083 7.33 2.74 9.49
6/8/2022 7:00:00 AM 14.85 58.73 0.083 7.34 6.14 9.52
6/8/2022 7:15:00 AM 14.84 58.712 0.083 7.36 2.64 9.59
6/8/2022 7:30:00 AM 14.83 58.694 0.083 7.37 2.5 9.65
6/8/2022 7:45:00 AM 14.83 58.694 0.083 7.39 2.5 9.7
6/8/2022 8:00:00 AM 14.85 58.73 0.083 7.41 2.35 9.75
6/8/2022 8:15:00 AM 14.89 58.802 0.083 7.43 2.54 9.8
6/8/2022 8:30:00 AM 14.95 58.91 0.083 7.45 2.33 9.83
6/8/2022 8:45:00 AM 15.02 59.036 0.083 7.47 2.42 9.85
6/8/2022 9:00:00 AM 15.07 59.126 0.082 7.48 2.28 9.85
6/8/2022 9:15:00 AM 15.18 59.324 0.082 7.49 2.36 9.86
6/8/2022 9:30:00 AM 15.27 59.486 0.082 7.5 2.42 9.87
6/8/2022 9:45:00 AM 15.37 59.666 0.082 7.52 2.27 9.87
6/8/2022 10:00:00 AM 15.54 59.972 0.082 7.54 2.21 9.88
6/8/2022 10:15:00 AM 15.65 60.17 0.082 7.55 2.31 9.87
6/8/2022 10:30:00 AM 15.75 60.35 0.081 7.57 2.16 9.86
6/8/2022 10:45:00 AM 15.9 60.62 0.081 7.59 2.38 9.87
6/8/2022 11:00:00 AM 16.1 60.98 0.081 7.61 2.17 9.86
6/8/2022 11:15:00 AM 16.47 61.646 0.081 7.62 2.14 9.82
6/8/2022 11:30:00 AM 16.59 61.862 0.081 7.64 2.11 9.79
6/8/2022 11:45:00 AM 17.01 62.618 0.081 7.64 2.18 9.74
6/8/2022 12:00:00 PM 17.33 63.194 0.081 7.65 2.09 9.68
6/8/2022 12:15:00 PM 17.7 63.86 0.081 7.66 2.22 9.62
6/8/2022 12:30:00 PM 17.97 64.346 0.081 7.66 2.28 9.58
6/8/2022 12:45:00 PM 18.04 64.472 0.081 7.66 2.65 9.51
6/8/2022 1:00:00 PM 18.48 65.264 0.081 7.67 2.17 9.47
6/8/2022 1:15:00 PM 18.88 65.984 0.081 7.68 2.25 9.44
6/8/2022 1:30:00 PM 19.42 66.956 0.081 7.69 2.37 9.36
6/8/2022 1:45:00 PM 19.85 67.73 0.081 7.69 2.07 9.26
6/8/2022 2:00:00 PM 20.15 68.27 0.081 7.69 2.35 9.18
6/8/2022 2:15:00 PM 20.56 69.008 0.081 7.7 2.3 9.08
6/8/2022 2:30:00 PM 20.78 69.404 0.081 7.68 2.33 9
6/8/2022 2:45:00 PM 21.1 69.98 0.081 7.68 2.45 8.93
6/8/2022 3:00:00 PM 21.3 70.34 0.081 7.68 2.4 8.87
6/8/2022 3:15:00 PM 21.45 70.61 0.081 7.67 2.26 8.8
6/8/2022 3:30:00 PM 21.57 70.826 0.081 7.67 2.26 8.75
6/8/2022 3:45:00 PM 21.6 70.88 0.081 7.65 2.23 8.69
6/8/2022 4:00:00 PM 21.57 70.826 0.081 7.63 2.16 8.62
6/8/2022 4:15:00 PM 21.55 70.79 0.081 7.61 2.11 8.56
6/8/2022 4:30:00 PM 21.54 70.772 0.082 7.59 2.33 8.51
6/8/2022 4:45:00 PM 21.57 70.826 0.082 7.57 2.39 8.45
6/8/2022 5:00:00 PM 21.61 70.898 0.082 7.55 2.14 8.38
6/8/2022 5:15:00 PM 21.66 70.988 0.082 7.54 2.29 8.34
6/8/2022 5:30:00 PM 21.69 71.042 0.083 7.52 2.29 8.3
6/8/2022 5:45:00 PM 21.69 71.042 0.085 7.51 2.18 8.3
6/8/2022 6:00:00 PM 21.65 70.97 0.086 7.51 2.24 8.31
6/8/2022 6:15:00 PM 21.55 70.79 0.086 7.51 2.46 8.3
6/8/2022 6:30:00 PM 21.43 70.574 0.086 7.49 2.26 8.29
6/8/2022 6:45:00 PM 21.28 70.304 0.085 7.47 2.23 8.26
6/8/2022 7:00:00 PM 21.14 70.052 0.084 7.45 2.32 8.26
6/8/2022 7:15:00 PM 21.02 69.836 0.083 7.44 2.37 8.27
6/8/2022 7:30:00 PM 20.93 69.674 0.083 7.44 2.25 8.28
6/8/2022 7:45:00 PM 20.84 69.512 0.083 7.42 2.32 8.26
6/8/2022 8:00:00 PM 20.75 69.35 0.083 7.41 2.07 8.23
6/8/2022 8:15:00 PM 20.67 69.206 0.083 7.39 2.26 8.19
6/8/2022 8:30:00 PM 20.59 69.062 0.083 7.37 2.28 8.16
6/8/2022 8:45:00 PM 20.5 68.9 0.083 7.36 2.32 8.12
6/8/2022 9:00:00 PM 20.4 68.72 0.083 7.34 2.63 8.09
6/8/2022 9:15:00 PM 20.29 68.522 0.083 7.33 2.7 8.08
6/8/2022 9:30:00 PM 20.18 68.324 0.084 7.32 2.62 8.08
6/8/2022 9:45:00 PM 20.07 68.126 0.084 7.32 2.68 8.09
6/8/2022 10:00:00 PM 19.96 67.92799 0.084 7.31 2.55 8.09
6/8/2022 10:15:00 PM 19.85 67.73 0.084 7.3 2.51 8.1
6/8/2022 10:30:00 PM 19.75 67.55 0.084 7.3 2.42 8.11
6/8/2022 10:45:00 PM 19.64 67.352 0.084 7.3 2.7 8.15
6/8/2022 11:00:00 PM 19.54 67.172 0.085 7.3 2.49 8.17
6/8/2022 11:15:00 PM 19.43 66.974 0.085 7.3 2.61 8.18
6/8/2022 11:30:00 PM 19.33 66.794 0.085 7.3 2.72 8.21
6/8/2022 11:45:00 PM 19.23 66.614 0.085 7.3 2.54 8.22
6/9/2022 12:00:00 AM 19.12 66.416 0.085 7.3 2.81 8.24
6/9/2022 12:15:00 AM 19 66.2 0.084 7.3 2.93 8.27
6/9/2022 12:30:00 AM 18.88 65.984 0.084 7.3 2.62 8.3
6/9/2022 12:45:00 AM 18.78 65.804 0.084 7.29 2.73 8.31
6/9/2022 1:00:00 AM 18.68 65.624 0.084 7.28 2.55 8.32
6/9/2022 1:15:00 AM 18.58 65.444 0.084 7.28 2.9 8.35
6/9/2022 1:30:00 AM 18.46 65.228 0.083 7.28 2.72 8.36
6/9/2022 1:45:00 AM 18.36 65.048 0.084 7.28 2.92 8.37
6/9/2022 2:00:00 AM 18.27 64.886 0.085 7.29 3.23 8.39
6/9/2022 2:15:00 AM 18.17 64.706 0.086 7.29 4.23 8.41
6/9/2022 2:30:00 AM 18.07 64.526 0.086 7.3 3.72 8.45
6/9/2022 2:45:00 AM 17.98 64.364 0.086 7.3 3.69 8.47
6/9/2022 3:00:00 AM 17.9 64.22 0.085 7.3 4.3 8.48
6/9/2022 3:15:00 AM 17.8 64.04 0.085 7.3 5.3 8.52
6/9/2022 3:30:00 AM 17.72 63.896 0.085 7.3 5.56 8.55
6/9/2022 3:45:00 AM 17.64 63.752 0.085 7.3 6.2 8.57
6/9/2022 4:00:00 AM 17.56 63.608 0.085 7.3 6.16 8.6
6/9/2022 4:15:00 AM 17.48 63.464 0.085 7.3 5.62 8.62
6/9/2022 4:30:00 AM 17.41 63.338 0.085 7.3 6.59 8.65
6/9/2022 4:45:00 AM 17.34 63.212 0.085 7.3 7.46 8.66
6/9/2022 5:00:00 AM 17.27 63.086 0.085 7.3 6.56 8.68
6/9/2022 5:15:00 AM 17.19 62.942 0.085 7.3 6.98 8.69
6/9/2022 5:30:00 AM 17.12 62.816 0.084 7.3 7.42 8.71
6/9/2022 5:45:00 AM 17.05 62.69 0.084 7.29 7.57 8.73
6/9/2022 6:00:00 AM 16.98 62.564 0.084 7.3 6.93 8.78
6/9/2022 6:15:00 AM 16.91 62.438 0.084 7.3 7.74 8.82
6/9/2022 6:30:00 AM 16.85 62.33 0.083 7.3 7.35 8.87
6/9/2022 6:45:00 AM 16.8 62.24 0.083 7.31 7.3 8.9
6/9/2022 7:00:00 AM 16.76 62.168 0.084 7.32 7.06 8.95
6/9/2022 7:15:00 AM 16.71 62.078 0.084 7.33 6.71 9.01
6/9/2022 7:30:00 AM 16.68 62.024 0.084 7.34 7.34 9.05
6/9/2022 7:45:00 AM 16.64 61.952 0.084 7.35 8.02 9.08
6/9/2022 8:00:00 AM 16.6 61.88 0.083 7.36 8.35 9.12
6/9/2022 8:15:00 AM 16.58 61.844 0.082 7.37 8.49 9.16
6/9/2022 8:30:00 AM 16.57 61.826 0.082 7.38 8.24 9.21
6/9/2022 8:45:00 AM 16.56 61.808 0.081 7.4 7.77 9.26
6/9/2022 9:00:00 AM 16.56 61.808 0.081 7.41 6.89 9.3
6/9/2022 9:15:00 AM 16.6 61.88 0.08 7.43 6.76 9.35
6/9/2022 9:30:00 AM 16.61 61.898 0.08 7.45 6.68 9.4
6/9/2022 9:45:00 AM 16.69 62.042 0.079 7.47 6.74 9.43
6/9/2022 10:00:00 AM 16.74 62.132 0.079 7.49 6.64 9.45
6/9/2022 10:15:00 AM 16.84 62.312 0.079 7.5 6.29 9.47
6/9/2022 10:30:00 AM 16.9 62.42 0.078 7.52 6.35 9.49
6/9/2022 10:45:00 AM 16.91 62.438 0.078 7.52 5.95 9.48
6/9/2022 11:00:00 AM 16.94 62.492 0.078 7.53 5.89 9.47
6/9/2022 11:15:00 AM 17.02 62.636 0.077 7.55 5.64 9.5
6/9/2022 11:30:00 AM 17.06 62.708 0.077 7.56 5.29 9.5
6/9/2022 11:45:00 AM 17.18 62.924 0.077 7.58 4.95 9.52
6/9/2022 12:00:00 PM 17.28 63.104 0.077 7.6 5.31 9.53
6/9/2022 12:15:00 PM 17.29 63.122 0.077 7.6 4.76 9.5
6/9/2022 12:30:00 PM 17.3 63.14 0.077 7.61 4.68 9.48
6/9/2022 12:45:00 PM 17.3 63.14 0.077 7.62 4.48 9.49
6/9/2022 1:00:00 PM 17.31 63.158 0.077 7.61 4.44 9.48
6/9/2022 1:15:00 PM 17.35 63.23 0.077 7.62 4.31 9.48
6/9/2022 1:30:00 PM 17.42 63.356 0.077 7.63 4.39 9.5
6/9/2022 1:45:00 PM 17.52 63.536 0.078 7.66 4.26 9.51
6/9/2022 2:00:00 PM 17.6 63.68 0.078 7.67 4.01 9.5
6/9/2022 2:15:00 PM 17.63 63.734 0.078 7.68 4.2 9.49
6/9/2022 2:30:00 PM 17.59 63.662 0.078 7.64 4.1 9.43
6/9/2022 2:45:00 PM 17.61 63.698 0.078 7.64 4.31 9.43
6/9/2022 3:00:00 PM 17.67 63.806 0.078 7.66 4.19 9.45
6/9/2022 3:15:00 PM 17.7 63.86 0.078 7.66 4.09 9.42
6/9/2022 3:30:00 PM 17.68 63.824 0.078 7.64 4.43 9.39
6/9/2022 3:45:00 PM 17.69 63.842 0.078 7.64 4.22 9.39
6/9/2022 4:00:00 PM 17.68 63.824 0.078 7.64 4.39 9.37
6/9/2022 4:15:00 PM 17.65 63.77 0.078 7.6 4.35 9.32
6/9/2022 4:30:00 PM 17.62 63.716 0.078 7.58 4.71 9.29
6/9/2022 4:45:00 PM 17.68 63.824 0.078 7.6 4.52 9.33
6/9/2022 5:00:00 PM 17.71 63.878 0.078 7.6 4.55 9.33
6/9/2022 5:15:00 PM 17.72 63.896 0.078 7.6 4.34 9.32
6/9/2022 5:30:00 PM 17.73 63.914 0.078 7.6 4.49 9.31
6/9/2022 5:45:00 PM 17.71 63.878 0.078 7.58 4.26 9.29
6/9/2022 6:00:00 PM 17.66 63.788 0.079 7.57 4.24 9.27
6/9/2022 6:15:00 PM 17.59 63.662 0.08 7.55 4.15 9.23
6/9/2022 6:30:00 PM 17.52 63.536 0.08 7.54 4.33 9.19
6/9/2022 6:45:00 PM 17.49 63.482 0.08 7.51 4.06 9.18
6/9/2022 7:00:00 PM 17.45 63.41 0.079 7.5 3.7 9.18
6/9/2022 7:15:00 PM 17.41 63.338 0.079 7.49 4.14 9.18
6/9/2022 7:30:00 PM 17.38 63.284 0.079 7.48 3.96 9.17
6/9/2022 7:45:00 PM 17.33 63.194 0.079 7.46 3.92 9.15
6/9/2022 8:00:00 PM 17.26 63.068 0.079 7.45 3.77 9.11
6/9/2022 8:15:00 PM 17.18 62.924 0.079 7.42 3.93 9.08
6/9/2022 8:30:00 PM 17.09 62.762 0.079 7.41 3.85 9.06
6/9/2022 8:45:00 PM 16.99 62.582 0.079 7.4 3.76 9.05
6/9/2022 9:00:00 PM 16.9 62.42 0.079 7.38 3.82 9.04
6/9/2022 9:15:00 PM 16.8 62.24 0.078 7.37 4.49 9.04
6/9/2022 9:30:00 PM 16.7 62.06 0.078 7.35 4.37 9.03
6/9/2022 9:45:00 PM 16.59 61.862 0.078 7.35 4.11 9.04
6/9/2022 10:00:00 PM 16.48 61.664 0.078 7.34 4.08 9.05
6/9/2022 10:15:00 PM 16.37 61.466 0.078 7.34 4.02 9.07
6/9/2022 10:30:00 PM 16.26 61.268 0.078 7.33 4.24 9.09
6/9/2022 10:45:00 PM 16.16 61.088 0.079 7.32 3.85 9.12
6/9/2022 11:00:00 PM 16.05 60.89 0.079 7.32 3.93 9.14
6/9/2022 11:15:00 PM 15.95 60.71 0.079 7.32 3.9 9.16
6/9/2022 11:30:00 PM 15.85 60.53 0.079 7.31 3.73 9.18
6/9/2022 11:45:00 PM 15.75 60.35 0.079 7.31 3.73 9.19
6/10/2022 12:00:00 AM 15.66 60.188 0.079 7.3 3.92 9.22
6/10/2022 12:15:00 AM 15.57 60.026 0.079 7.3 3.78 9.25
6/10/2022 12:30:00 AM 15.5 59.9 0.079 7.31 3.7 9.27
6/10/2022 12:45:00 AM 15.43 59.774 0.079 7.31 3.74 9.29
6/10/2022 1:00:00 AM 15.36 59.648 0.079 7.31 3.88 9.31
6/10/2022 1:15:00 AM 15.3 59.54 0.079 7.31 3.86 9.32
6/10/2022 1:30:00 AM 15.24 59.432 0.079 7.31 3.76 9.34
6/10/2022 1:45:00 AM 15.19 59.342 0.079 7.31 3.64 9.35
6/10/2022 2:00:00 AM 15.14 59.252 0.079 7.31 3.86 9.36
6/10/2022 2:15:00 AM 15.08 59.144 0.079 7.32 3.6 9.37
6/10/2022 2:30:00 AM 15.02 59.036 0.079 7.31 3.63 9.38
6/10/2022 2:45:00 AM 14.96 58.928 0.079 7.31 3.52 9.4
6/10/2022 3:00:00 AM 14.9 58.82 0.079 7.31 3.53 9.41
6/10/2022 3:15:00 AM 14.83 58.694 0.079 7.31 3.7 9.43
6/10/2022 3:30:00 AM 14.77 58.586 0.079 7.31 3.42 9.45
6/10/2022 3:45:00 AM 14.72 58.496 0.079 7.31 3.33 9.46
6/10/2022 4:00:00 AM 14.66 58.388 0.079 7.31 3.29 9.48
6/10/2022 4:15:00 AM 14.62 58.316 0.079 7.31 3.35 9.49
6/10/2022 4:30:00 AM 14.57 58.226 0.079 7.31 3.47 9.5
6/10/2022 4:45:00 AM 14.51 58.118 0.079 7.31 5.1 9.51
6/10/2022 5:00:00 AM 14.45 58.01 0.079 7.3 4.62 9.5
6/10/2022 5:15:00 AM 14.4 57.92 0.079 7.31 3.41 9.53
6/10/2022 5:30:00 AM 14.35 57.83 0.079 7.31 3.22 9.54
6/10/2022 5:45:00 AM 14.31 57.758 0.079 7.31 3.04 9.56
6/10/2022 6:00:00 AM 14.26 57.668 0.079 7.31 3.1 9.59
6/10/2022 6:15:00 AM 14.23 57.614 0.079 7.32 3.06 9.62
6/10/2022 6:30:00 AM 14.2 57.56 0.079 7.33 3.05 9.65
6/10/2022 6:45:00 AM 14.17 57.506 0.079 7.34 3.04 9.72
6/10/2022 7:00:00 AM 14.15 57.47 0.079 7.35 2.97 9.77
6/10/2022 7:15:00 AM 14.13 57.434 0.079 7.36 2.84 9.82
6/10/2022 7:30:00 AM 14.12 57.416 0.079 7.38 2.93 9.88
6/10/2022 7:45:00 AM 14.13 57.434 0.079 7.4 2.82 9.95
6/10/2022 8:00:00 AM 14.15 57.47 0.079 7.43 2.84 10.02
6/10/2022 8:15:00 AM 14.18 57.524 0.08 7.45 2.56 10.06
6/10/2022 8:30:00 AM 14.19 57.542 0.08 7.45 4.7 10.04
6/10/2022 8:45:00 AM 14.2 57.56 0.08 7.46 2.78 10.02
6/10/2022 9:00:00 AM 14.24 57.632 0.079 7.46 2.62 10.02
6/10/2022 9:15:00 AM 14.32 57.776 0.079 7.47 3.17 10.01
6/10/2022 9:30:00 AM 14.44 57.992 0.079 7.48 2.58 10.02
6/10/2022 9:45:00 AM 14.57 58.226 0.079 7.49 2.48 10.02
6/10/2022 10:00:00 AM 14.72 58.496 0.079 7.5 2.55 10.01
6/10/2022 10:15:00 AM 14.89 58.802 0.079 7.51 2.43 10
6/10/2022 10:30:00 AM 15.06 59.108 0.079 7.53 2.45 9.98
6/10/2022 10:45:00